Darstellungsparameter: Aktuell verwendete Einstellungen:
Skalierung der Graphiken ... ?
xyx+y,   Skalierungsfaktor:      Skalierung: Modus: x, Faktor: 1
Darstellungszeitraum ... ?
Vom - - bis: - -   Zeitraum: 23.07.2019 - 22.08.2019
Min/Max/Avg-Anzeige ... ?
Zeige MMA aktuell
Zeige MMA Monat
Zeige MMA alles
Zeige --A aktuell
Zeige --A Monat
Zeige --A alles
Keine MMA-Anzeige
MMA:
Keine MMA-Graphiken
MMA-Basis: 23.07.2019 - 22.08.2019
Quicknavigation für Darstellung... ?
Tage:      1T, 2T, 3T, 5T -1T -2T -3T -5T +1T +2T +3T +5T
Wochen: 1W, 2W, 3W -1W -2W -3W +1W +2W +3W
Monate: 1M, 3M, 6M -1M -3M -6M +1M +3M +6M
Jahre:    1J, 3J, 5J, 10J -1J -3J -5J -10J +1J +3J +5J +10J
Nutze für die Darstellung ... ?
Originaldaten oder Mittelwerte auf ...
Stundenbasis Tagesbasis Wochenbasis
Monatsbasis Jahresbasis      Datenbasis: Original-Daten
Darstellen als:
Statistik (Auto) Statistik J:M      Darstellung:
Zur Graphik,    zurück zur Übersicht aller Sensoren.
 
Tabellarische Datenbersicht: ?
 
Sensor: Nr:Datum:Temp:Feuchte:Taupunkt:
Aussen-T/F 1 23-07-2019 00:00:00 20 C 75 % 15.43 C
2 23-07-2019 00:05:00 19.8 C 75 % 15.24 C
3 23-07-2019 00:10:00 19.8 C 75 % 15.24 C
4 23-07-2019 00:15:00 19.6 C 75 % 15.05 C
5 23-07-2019 00:20:00 19.5 C 76 % 15.16 C
6 23-07-2019 00:25:00 19.4 C 76 % 15.06 C
7 23-07-2019 00:30:00 19.3 C 76 % 14.97 C
8 23-07-2019 00:35:00 19.2 C 77 % 15.07 C
9 23-07-2019 00:40:00 19.2 C 77 % 15.07 C
10 23-07-2019 00:45:00 19.1 C 77 % 14.97 C
11 23-07-2019 00:50:00 19 C 78 % 15.08 C
12 23-07-2019 00:55:00 18.9 C 78 % 14.98 C
13 23-07-2019 01:00:00 18.8 C 78 % 14.88 C
14 23-07-2019 01:05:00 18.8 C 78 % 14.88 C
15 23-07-2019 01:10:00 18.7 C 79 % 14.99 C
16 23-07-2019 01:15:00 18.6 C 79 % 14.89 C
17 23-07-2019 01:20:00 18.5 C 80 % 14.99 C
18 23-07-2019 01:25:00 18.4 C 80 % 14.89 C
19 23-07-2019 01:30:00 18.3 C 80 % 14.79 C
20 23-07-2019 01:35:00 18.2 C 80 % 14.69 C
21 23-07-2019 01:40:00 18.2 C 81 % 14.89 C
22 23-07-2019 01:45:00 18.1 C 81 % 14.79 C
23 23-07-2019 01:50:00 18 C 81 % 14.69 C
24 23-07-2019 01:55:00 17.9 C 81 % 14.59 C
25 23-07-2019 02:00:00 17.9 C 81 % 14.59 C
Sensor: Nr:Datum:Temp:Feuchte:Taupunkt:
Aussen-T/F 26 23-07-2019 02:05:00 17.8 C 82 % 14.69 C
27 23-07-2019 02:10:00 17.8 C 82 % 14.69 C
28 23-07-2019 02:15:00 17.7 C 82 % 14.59 C
29 23-07-2019 02:20:00 17.7 C 82 % 14.59 C
30 23-07-2019 02:25:00 17.6 C 82 % 14.49 C
31 23-07-2019 02:30:00 17.5 C 83 % 14.58 C
32 23-07-2019 02:35:00 17.4 C 83 % 14.48 C
33 23-07-2019 02:40:00 17.4 C 83 % 14.48 C
34 23-07-2019 02:45:00 17.3 C 83 % 14.39 C
35 23-07-2019 02:50:00 17.3 C 83 % 14.39 C
36 23-07-2019 02:55:00 17.3 C 84 % 14.57 C
37 23-07-2019 03:00:00 17.2 C 84 % 14.47 C
38 23-07-2019 03:05:00 17.1 C 84 % 14.38 C
39 23-07-2019 03:10:00 16.9 C 84 % 14.18 C
40 23-07-2019 03:15:00 16.9 C 85 % 14.36 C
41 23-07-2019 03:20:00 16.9 C 85 % 14.36 C
42 23-07-2019 03:25:00 16.9 C 85 % 14.36 C
43 23-07-2019 03:30:00 16.8 C 85 % 14.26 C
44 23-07-2019 03:35:00 16.8 C 85 % 14.26 C
45 23-07-2019 03:40:00 16.7 C 86 % 14.35 C
46 23-07-2019 03:45:00 16.7 C 86 % 14.35 C
47 23-07-2019 03:50:00 16.6 C 86 % 14.25 C
48 23-07-2019 03:55:00 16.6 C 86 % 14.25 C
49 23-07-2019 04:00:00 16.6 C 86 % 14.25 C
50 23-07-2019 04:05:00 16.5 C 87 % 14.33 C
Sensor: Nr:Datum:Temp:Feuchte:Taupunkt:
Aussen-T/F 51 23-07-2019 04:10:00 16.4 C 87 % 14.23 C
52 23-07-2019 04:15:00 16.4 C 87 % 14.23 C
53 23-07-2019 04:20:00 16.3 C 87 % 14.13 C
54 23-07-2019 04:25:00 16.3 C 87 % 14.13 C
55 23-07-2019 04:30:00 16.2 C 88 % 14.21 C
56 23-07-2019 04:35:00 16.2 C 88 % 14.21 C
57 23-07-2019 04:40:00 16.2 C 88 % 14.21 C
58 23-07-2019 04:45:00 16.2 C 88 % 14.21 C
59 23-07-2019 04:50:00 16.1 C 88 % 14.11 C
60 23-07-2019 04:55:00 16.1 C 88 % 14.11 C
61 23-07-2019 05:00:00 16.1 C 88 % 14.11 C
62 23-07-2019 05:05:00 16 C 89 % 14.19 C
63 23-07-2019 05:10:00 16 C 89 % 14.19 C
64 23-07-2019 05:15:00 15.9 C 89 % 14.09 C
65 23-07-2019 05:20:00 15.9 C 89 % 14.09 C
66 23-07-2019 05:25:00 15.8 C 89 % 13.99 C
67 23-07-2019 05:30:00 15.8 C 89 % 13.99 C
68 23-07-2019 05:35:00 15.8 C 89 % 13.99 C
69 23-07-2019 05:40:00 15.7 C 89 % 13.89 C
70 23-07-2019 05:45:00 15.7 C 89 % 13.89 C
71 23-07-2019 05:50:00 15.6 C 90 % 13.97 C
72 23-07-2019 05:55:00 15.6 C 90 % 13.97 C
73 23-07-2019 06:00:00 15.6 C 90 % 13.97 C
74 23-07-2019 06:05:00 15.6 C 90 % 13.97 C
75 23-07-2019 06:10:00 15.6 C 91 % 14.14 C
Sensor: Nr:Datum:Temp:Feuchte:Taupunkt:
Aussen-T/F 76 23-07-2019 06:15:00 15.6 C 91 % 14.14 C
77 23-07-2019 06:20:00 15.6 C 91 % 14.14 C
78 23-07-2019 06:25:00 15.6 C 91 % 14.14 C
79 23-07-2019 06:30:00 15.7 C 91 % 14.24 C
80 23-07-2019 06:35:00 15.7 C 91 % 14.24 C
81 23-07-2019 06:40:00 15.7 C 91 % 14.24 C
82 23-07-2019 06:45:00 15.7 C 91 % 14.24 C
83 23-07-2019 06:50:00 15.7 C 91 % 14.24 C
84 23-07-2019 06:55:00 15.8 C 91 % 14.33 C
85 23-07-2019 07:00:00 15.8 C 91 % 14.33 C
86 23-07-2019 07:05:00 15.9 C 91 % 14.43 C
87 23-07-2019 07:10:00 16 C 91 % 14.53 C
88 23-07-2019 07:15:00 16.1 C 91 % 14.63 C
89 23-07-2019 07:20:00 16.1 C 91 % 14.63 C
90 23-07-2019 07:25:00 16.1 C 91 % 14.63 C
91 23-07-2019 07:30:00 16.1 C 91 % 14.63 C
92 23-07-2019 07:35:00 16.2 C 91 % 14.73 C
93 23-07-2019 07:40:00 16.2 C 91 % 14.73 C
94 23-07-2019 07:45:00 16.2 C 91 % 14.73 C
95 23-07-2019 07:50:00 16.3 C 91 % 14.83 C
96 23-07-2019 07:55:00 16.3 C 91 % 14.83 C
97 23-07-2019 08:00:00 16.4 C 91 % 14.93 C
98 23-07-2019 08:05:00 16.4 C 91 % 14.93 C
99 23-07-2019 08:10:00 16.5 C 91 % 15.03 C
100 23-07-2019 08:15:00 16.6 C 91 % 15.13 C
Sensor: Nr:Datum:Temp:Feuchte:Taupunkt:
Aussen-T/F 101 23-07-2019 08:20:00 16.7 C 91 % 15.22 C
102 23-07-2019 08:25:00 16.7 C 91 % 15.22 C
103 23-07-2019 08:30:00 16.8 C 91 % 15.32 C
104 23-07-2019 08:35:00 16.9 C 90 % 15.25 C
105 23-07-2019 08:40:00 17.1 C 90 % 15.45 C
106 23-07-2019 08:45:00 17.2 C 90 % 15.55 C
107 23-07-2019 08:50:00 17.3 C 90 % 15.64 C
108 23-07-2019 08:55:00 17.4 C 90 % 15.74 C
109 23-07-2019 09:00:00 17.6 C 90 % 15.94 C
110 23-07-2019 09:05:00 17.7 C 89 % 15.86 C
111 23-07-2019 09:10:00 17.8 C 89 % 15.96 C
112 23-07-2019 09:15:00 18.1 C 89 % 16.26 C
113 23-07-2019 09:20:00 18.3 C 88 % 16.28 C
114 23-07-2019 09:25:00 18.6 C 88 % 16.57 C
115 23-07-2019 09:30:00 18.8 C 87 % 16.59 C
116 23-07-2019 09:35:00 19 C 87 % 16.79 C
117 23-07-2019 09:40:00 19.2 C 86 % 16.8 C
118 23-07-2019 09:45:00 19.5 C 85 % 16.91 C
119 23-07-2019 09:50:00 19.8 C 84 % 17.02 C
120 23-07-2019 09:55:00 20.1 C 83 % 17.12 C
121 23-07-2019 10:00:00 20.4 C 83 % 17.42 C
122 23-07-2019 10:05:00 20.7 C 81 % 17.32 C
123 23-07-2019 10:10:00 21.1 C 80 % 17.51 C
124 23-07-2019 10:15:00 21.3 C 79 % 17.51 C
125 23-07-2019 10:20:00 21.6 C 79 % 17.8 C
Sensor: Nr:Datum:Temp:Feuchte:Taupunkt:
Aussen-T/F 126 23-07-2019 10:25:00 21.9 C 77 % 17.68 C
127 23-07-2019 10:30:00 22.3 C 77 % 18.07 C
128 23-07-2019 10:35:00 22.7 C 76 % 18.25 C
129 23-07-2019 10:40:00 23.2 C 73 % 18.09 C
130 23-07-2019 10:45:00 23.8 C 66 % 17.07 C
131 23-07-2019 10:50:00 24.8 C 66 % 18.01 C
132 23-07-2019 10:55:00 25.3 C 63 % 17.75 C
133 23-07-2019 11:00:00 25.6 C 61 % 17.52 C
134 23-07-2019 11:05:00 25.9 C 58 % 17 C
135 23-07-2019 11:10:00 26.4 C 57 % 17.19 C
136 23-07-2019 11:15:00 26.9 C 57 % 17.66 C
137 23-07-2019 11:20:00 27.1 C 57 % 17.85 C
138 23-07-2019 11:25:00 27.1 C 53 % 16.7 C
139 23-07-2019 11:30:00 27.4 C 53 % 16.97 C
140 23-07-2019 11:35:00 27.8 C 51 % 16.73 C
141 23-07-2019 11:40:00 28.1 C 49 % 16.38 C
142 23-07-2019 11:45:00 28.4 C 48 % 16.33 C
143 23-07-2019 11:50:00 28.7 C 47 % 16.27 C
144 23-07-2019 11:55:00 28.8 C 49 % 17.02 C
145 23-07-2019 12:00:00 28.9 C 47 % 16.45 C
146 23-07-2019 12:05:00 29.1 C 45 % 15.95 C
147 23-07-2019 12:10:00 29.2 C 46 % 16.39 C
148 23-07-2019 12:15:00 29.3 C 45 % 16.13 C
149 23-07-2019 12:20:00 29.4 C 46 % 16.57 C
150 23-07-2019 12:25:00 29.5 C 44 % 15.96 C
Sensor: Nr:Datum:Temp:Feuchte:Taupunkt:
Aussen-T/F 151 23-07-2019 12:30:00 29.6 C 44 % 16.05 C
152 23-07-2019 12:35:00 29.8 C 42 % 15.51 C
153 23-07-2019 12:40:00 29.9 C 43 % 15.96 C
154 23-07-2019 12:45:00 30 C 42 % 15.69 C
155 23-07-2019 12:50:00 30.2 C 43 % 16.23 C
156 23-07-2019 12:55:00 30.2 C 41 % 15.49 C
157 23-07-2019 13:00:00 30.3 C 41 % 15.58 C
158 23-07-2019 13:05:00 30.3 C 42 % 15.95 C
159 23-07-2019 13:10:00 30.4 C 41 % 15.67 C
160 23-07-2019 13:15:00 30.6 C 40 % 15.46 C
161 23-07-2019 13:20:00 30.6 C 40 % 15.46 C
162 23-07-2019 13:25:00 30.7 C 40 % 15.55 C
163 23-07-2019 13:30:00 30.8 C 40 % 15.64 C
164 23-07-2019 13:35:00 30.9 C 39 % 15.33 C
165 23-07-2019 13:40:00 31.1 C 38 % 15.1 C
166 23-07-2019 13:45:00 31.2 C 40 % 15.99 C
167 23-07-2019 13:50:00 31.2 C 40 % 15.99 C
168 23-07-2019 13:55:00 31.3 C 38 % 15.28 C
169 23-07-2019 14:00:00 31.3 C 39 % 15.69 C
170 23-07-2019 14:05:00 31.4 C 38 % 15.37 C
171 23-07-2019 14:10:00 31.7 C 39 % 16.04 C
172 23-07-2019 14:15:00 31.9 C 38 % 15.81 C
173 23-07-2019 14:20:00 32.1 C 38 % 15.99 C
174 23-07-2019 14:25:00 32.2 C 37 % 15.66 C
175 23-07-2019 14:30:00 32.3 C 36 % 15.32 C
Sensor: Nr:Datum:Temp:Feuchte:Taupunkt:
Aussen-T/F 176 23-07-2019 14:35:00 32.3 C 36 % 15.32 C
177 23-07-2019 14:40:00 32.4 C 36 % 15.41 C
178 23-07-2019 14:45:00 32.5 C 36 % 15.5 C
179 23-07-2019 14:50:00 32.6 C 37 % 16.01 C
180 23-07-2019 14:55:00 32.7 C 36 % 15.67 C
181 23-07-2019 15:00:00 32.8 C 37 % 16.19 C
182 23-07-2019 15:05:00 33.1 C 38 % 16.87 C
183 23-07-2019 15:10:00 33.2 C 37 % 16.54 C
184 23-07-2019 15:15:00 33.4 C 36 % 16.29 C
185 23-07-2019 15:20:00 33.6 C 36 % 16.46 C
186 23-07-2019 15:25:00 33.8 C 34 % 15.74 C
187 23-07-2019 15:30:00 33.8 C 34 % 15.74 C
188 23-07-2019 15:35:00 34 C 34 % 15.92 C
189 23-07-2019 15:40:00 34.4 C 34 % 16.26 C
190 23-07-2019 15:45:00 34.7 C 34 % 16.53 C
191 23-07-2019 15:50:00 34.9 C 33 % 16.23 C
192 23-07-2019 15:55:00 35.2 C 34 % 16.96 C
193 23-07-2019 16:00:00 35.5 C 32 % 16.27 C
194 23-07-2019 16:05:00 35.6 C 32 % 16.35 C
195 23-07-2019 16:10:00 35.6 C 30 % 15.34 C
196 23-07-2019 16:15:00 35.6 C 33 % 16.84 C
197 23-07-2019 16:20:00 35.8 C 31 % 16.03 C
198 23-07-2019 16:25:00 35.9 C 31 % 16.11 C
199 23-07-2019 16:30:00 36.1 C 30 % 15.77 C
200 23-07-2019 16:35:00 36 C 31 % 16.2 C
Sensor: Nr:Datum:Temp:Feuchte:Taupunkt:
Aussen-T/F 201 23-07-2019 16:40:00 35.8 C 31 % 16.03 C
202 23-07-2019 16:45:00 35.8 C 30 % 15.52 C
203 23-07-2019 16:50:00 35.8 C 30 % 15.52 C
204 23-07-2019 16:55:00 36.1 C 30 % 15.77 C
205 23-07-2019 17:00:00 36.1 C 29 % 15.24 C
206 23-07-2019 17:05:00 36.3 C 30 % 15.94 C
207 23-07-2019 17:10:00 36.4 C 29 % 15.5 C
208 23-07-2019 17:15:00 36.3 C 28 % 14.87 C
209 23-07-2019 17:20:00 36.3 C 29 % 15.41 C
210 23-07-2019 17:25:00 36.4 C 29 % 15.5 C
211 23-07-2019 17:30:00 36.4 C 29 % 15.5 C
212 23-07-2019 17:35:00 36.5 C 28 % 15.04 C
213 23-07-2019 17:40:00 36.6 C 28 % 15.12 C
214 23-07-2019 17:45:00 36.6 C 28 % 15.12 C
215 23-07-2019 17:50:00 36.3 C 28 % 14.87 C
216 23-07-2019 17:55:00 36.4 C 29 % 15.5 C
217 23-07-2019 18:00:00 36.7 C 30 % 16.29 C
218 23-07-2019 18:05:00 36.8 C 28 % 15.29 C
219 23-07-2019 18:10:00 36.8 C 28 % 15.29 C
220 23-07-2019 18:15:00 36.7 C 29 % 15.76 C
221 23-07-2019 18:20:00 37 C 28 % 15.46 C
222 23-07-2019 18:25:00 36.9 C 27 % 14.81 C
223 23-07-2019 18:30:00 36.8 C 28 % 15.29 C
224 23-07-2019 18:35:00 36.8 C 29 % 15.84 C
225 23-07-2019 18:40:00 36.9 C 29 % 15.93 C
Sensor: Nr:Datum:Temp:Feuchte:Taupunkt:
Aussen-T/F 226 23-07-2019 18:45:00 36.9 C 27 % 14.81 C
227 23-07-2019 18:50:00 36.6 C 29 % 15.67 C
228 23-07-2019 18:55:00 36.3 C 29 % 15.41 C
229 23-07-2019 19:00:00 36.2 C 29 % 15.33 C
230 23-07-2019 19:05:00 36.2 C 29 % 15.33 C
231 23-07-2019 19:10:00 36.3 C 29 % 15.41 C
232 23-07-2019 19:15:00 36.3 C 30 % 15.94 C
233 23-07-2019 19:20:00 36.1 C 28 % 14.7 C
234 23-07-2019 19:25:00 35.8 C 31 % 16.03 C
235 23-07-2019 19:30:00 35.6 C 30 % 15.34 C
236 23-07-2019 19:35:00 35.4 C 31 % 15.68 C
237 23-07-2019 19:40:00 35.2 C 30 % 15 C
238 23-07-2019 19:45:00 35 C 33 % 16.32 C
239 23-07-2019 19:50:00 34.9 C 36 % 17.6 C
240 23-07-2019 19:55:00 34.7 C 34 % 16.53 C
241 23-07-2019 20:00:00 34.5 C 33 % 15.88 C
242 23-07-2019 20:05:00 34.3 C 35 % 16.63 C
243 23-07-2019 20:10:00 34.2 C 38 % 17.84 C
244 23-07-2019 20:15:00 33.9 C 39 % 17.99 C
245 23-07-2019 20:20:00 33.6 C 39 % 17.73 C
246 23-07-2019 20:25:00 33.3 C 40 % 17.86 C
247 23-07-2019 20:30:00 32.8 C 45 % 19.3 C
248 23-07-2019 20:35:00 32.3 C 42 % 17.74 C
249 23-07-2019 20:40:00 31.7 C 42 % 17.21 C
250 23-07-2019 20:45:00 31.2 C 44 % 17.49 C
Sensor: Nr:Datum:Temp:Feuchte:Taupunkt:
Aussen-T/F 251 23-07-2019 20:50:00 30.7 C 45 % 17.4 C
252 23-07-2019 20:55:00 30.2 C 46 % 17.3 C
253 23-07-2019 21:00:00 29.7 C 47 % 17.18 C
254 23-07-2019 21:05:00 29.4 C 48 % 17.24 C
255 23-07-2019 21:10:00 29.1 C 48 % 16.97 C
256 23-07-2019 21:15:00 28.8 C 49 % 17.02 C
257 23-07-2019 21:20:00 28.4 C 50 % 16.97 C
258 23-07-2019 21:25:00 28.1 C 50 % 16.7 C
259 23-07-2019 21:30:00 27.7 C 51 % 16.64 C
260 23-07-2019 21:35:00 27.4 C 52 % 16.67 C
261 23-07-2019 21:40:00 27.2 C 52 % 16.49 C
262 23-07-2019 21:45:00 26.9 C 52 % 16.21 C
263 23-07-2019 21:50:00 26.8 C 53 % 16.42 C
264 23-07-2019 21:55:00 26.6 C 52 % 15.94 C
265 23-07-2019 22:00:00 26.5 C 53 % 16.14 C
266 23-07-2019 22:05:00 26.4 C 53 % 16.05 C
267 23-07-2019 22:10:00 26.2 C 54 % 16.16 C
268 23-07-2019 22:15:00 25.8 C 56 % 16.36 C
269 23-07-2019 22:20:00 25.6 C 57 % 16.45 C
270 23-07-2019 22:25:00 25.2 C 57 % 16.08 C
271 23-07-2019 22:30:00 25 C 58 % 16.16 C
272 23-07-2019 22:35:00 24.8 C 60 % 16.51 C
273 23-07-2019 22:40:00 24.6 C 60 % 16.32 C
274 23-07-2019 22:45:00 24.3 C 61 % 16.3 C
275 23-07-2019 22:50:00 24.1 C 62 % 16.37 C
Sensor: Nr:Datum:Temp:Feuchte:Taupunkt:
Aussen-T/F 276 23-07-2019 22:55:00 23.9 C 63 % 16.43 C
277 23-07-2019 23:00:00 23.7 C 63 % 16.24 C
278 23-07-2019 23:05:00 23.5 C 64 % 16.3 C
279 23-07-2019 23:10:00 23.3 C 65 % 16.35 C
280 23-07-2019 23:15:00 23.2 C 65 % 16.26 C
281 23-07-2019 23:20:00 23.1 C 66 % 16.4 C
282 23-07-2019 23:25:00 23 C 66 % 16.31 C
283 23-07-2019 23:30:00 22.9 C 66 % 16.21 C
284 23-07-2019 23:35:00 22.8 C 66 % 16.12 C
285 23-07-2019 23:40:00 22.7 C 67 % 16.26 C
286 23-07-2019 23:45:00 22.5 C 68 % 16.3 C
287 23-07-2019 23:50:00 22.3 C 68 % 16.11 C
288 23-07-2019 23:55:00 22.2 C 68 % 16.01 C
289 24-07-2019 00:00:00 22.1 C 69 % 16.15 C
290 24-07-2019 00:05:00 21.9 C 70 % 16.18 C
291 24-07-2019 00:10:00 21.8 C 70 % 16.09 C
292 24-07-2019 00:15:00 21.7 C 70 % 15.99 C
293 24-07-2019 00:20:00 21.6 C 71 % 16.12 C
294 24-07-2019 00:25:00 21.4 C 71 % 15.93 C
295 24-07-2019 00:30:00 21.4 C 72 % 16.14 C
296 24-07-2019 00:35:00 21.3 C 72 % 16.05 C
297 24-07-2019 00:40:00 21.2 C 73 % 16.17 C
298 24-07-2019 00:45:00 21.1 C 73 % 16.07 C
299 24-07-2019 00:50:00 20.9 C 73 % 15.88 C
300 24-07-2019 00:55:00 20.9 C 74 % 16.09 C
Sensor: Nr:Datum:Temp:Feuchte:Taupunkt:
Aussen-T/F 301 24-07-2019 01:00:00 20.8 C 74 % 16 C
302 24-07-2019 01:05:00 20.7 C 76 % 16.32 C
303 24-07-2019 01:10:00 20.7 C 76 % 16.32 C
304 24-07-2019 01:15:00 20.6 C 76 % 16.22 C
305 24-07-2019 01:20:00 20.6 C 76 % 16.22 C
306 24-07-2019 01:25:00 20.4 C 76 % 16.03 C
307 24-07-2019 01:30:00 20.3 C 77 % 16.14 C
308 24-07-2019 01:35:00 20.2 C 77 % 16.04 C
309 24-07-2019 01:40:00 20.1 C 77 % 15.94 C
310 24-07-2019 01:45:00 19.9 C 77 % 15.75 C
311 24-07-2019 01:50:00 19.8 C 77 % 15.65 C
312 24-07-2019 01:55:00 19.7 C 78 % 15.76 C
313 24-07-2019 02:00:00 19.7 C 78 % 15.76 C
314 24-07-2019 02:05:00 19.6 C 78 % 15.66 C
315 24-07-2019 02:10:00 19.5 C 78 % 15.56 C
316 24-07-2019 02:15:00 19.5 C 78 % 15.56 C
317 24-07-2019 02:20:00 19.4 C 78 % 15.47 C
318 24-07-2019 02:25:00 19.4 C 79 % 15.66 C
319 24-07-2019 02:30:00 19.3 C 79 % 15.57 C
320 24-07-2019 02:35:00 19.2 C 79 % 15.47 C
321 24-07-2019 02:40:00 19.1 C 80 % 15.57 C
322 24-07-2019 02:45:00 19.1 C 80 % 15.57 C
323 24-07-2019 02:50:00 19 C 80 % 15.47 C
324 24-07-2019 02:55:00 18.9 C 81 % 15.57 C
325 24-07-2019 03:00:00 18.9 C 81 % 15.57 C
Sensor: Nr:Datum:Temp:Feuchte:Taupunkt:
Aussen-T/F 326 24-07-2019 03:05:00 19.1 C 81 % 15.76 C
327 24-07-2019 03:10:00 19.1 C 80 % 15.57 C
328 24-07-2019 03:15:00 18.9 C 80 % 15.38 C
329 24-07-2019 03:20:00 18.8 C 80 % 15.28 C
330 24-07-2019 03:25:00 18.7 C 81 % 15.37 C
331 24-07-2019 03:30:00 18.6 C 82 % 15.47 C
332 24-07-2019 03:35:00 18.5 C 83 % 15.56 C
333 24-07-2019 03:40:00 18.4 C 83 % 15.46 C
334 24-07-2019 03:45:00 18.3 C 83 % 15.36 C
335 24-07-2019 03:50:00 18.2 C 83 % 15.27 C
336 24-07-2019 03:55:00 18.1 C 84 % 15.35 C
337 24-07-2019 04:00:00 18.1 C 84 % 15.35 C
338 24-07-2019 04:05:00 18 C 84 % 15.26 C
339 24-07-2019 04:10:00 17.9 C 84 % 15.16 C
340 24-07-2019 04:15:00 17.9 C 84 % 15.16 C
341 24-07-2019 04:20:00 17.8 C 84 % 15.06 C
342 24-07-2019 04:25:00 17.8 C 84 % 15.06 C
343 24-07-2019 04:30:00 17.8 C 85 % 15.25 C
344 24-07-2019 04:35:00 17.7 C 85 % 15.15 C
345 24-07-2019 04:40:00 17.7 C 85 % 15.15 C
346 24-07-2019 04:45:00 17.6 C 85 % 15.05 C
347 24-07-2019 04:50:00 17.5 C 85 % 14.95 C
348 24-07-2019 04:55:00 17.4 C 86 % 15.03 C
349 24-07-2019 05:00:00 17.4 C 86 % 15.03 C
350 24-07-2019 05:05:00 17.4 C 86 % 15.03 C
Sensor: Nr:Datum:Temp:Feuchte:Taupunkt:
Aussen-T/F 351 24-07-2019 05:10:00 17.3 C 86 % 14.94 C
352 24-07-2019 05:15:00 17.3 C 87 % 15.12 C
353 24-07-2019 05:20:00 17.3 C 87 % 15.12 C
354 24-07-2019 05:25:00 17.2 C 87 % 15.02 C
355 24-07-2019 05:30:00 17.2 C 87 % 15.02 C
356 24-07-2019 05:35:00 17.2 C 88 % 15.2 C
357 24-07-2019 05:40:00 17.2 C 88 % 15.2 C
358 24-07-2019 05:45:00 17.1 C 88 % 15.1 C
359 24-07-2019 05:50:00 17.1 C 87 % 14.92 C
360 24-07-2019 05:55:00 17.1 C 88 % 15.1 C
361 24-07-2019 06:00:00 17.1 C 88 % 15.1 C
362 24-07-2019 06:05:00 17.1 C 88 % 15.1 C
363 24-07-2019 06:10:00 17.1 C 88 % 15.1 C
364 24-07-2019 06:15:00 17.1 C 88 % 15.1 C
365 24-07-2019 06:20:00 17 C 88 % 15 C
366 24-07-2019 06:25:00 17.1 C 88 % 15.1 C
367 24-07-2019 06:30:00 17.1 C 88 % 15.1 C
368 24-07-2019 06:35:00 17 C 88 % 15 C
369 24-07-2019 06:40:00 17 C 88 % 15 C
370 24-07-2019 06:45:00 17.1 C 89 % 15.27 C
371 24-07-2019 06:50:00 17.1 C 89 % 15.27 C
372 24-07-2019 06:55:00 17.1 C 89 % 15.27 C
373 24-07-2019 07:00:00 17.1 C 90 % 15.45 C
374 24-07-2019 07:05:00 17.1 C 90 % 15.45 C
375 24-07-2019 07:10:00 17.1 C 90 % 15.45 C
Sensor: Nr:Datum:Temp:Feuchte:Taupunkt:
Aussen-T/F 376 24-07-2019 07:15:00 17.1 C 90 % 15.45 C
377 24-07-2019 07:20:00 17.2 C 90 % 15.55 C
378 24-07-2019 07:25:00 17.2 C 90 % 15.55 C
379 24-07-2019 07:30:00 17.3 C 90 % 15.64 C
380 24-07-2019 07:35:00 17.3 C 90 % 15.64 C
381 24-07-2019 07:40:00 17.3 C 90 % 15.64 C
382 24-07-2019 07:45:00 17.4 C 90 % 15.74 C
383 24-07-2019 07:50:00 17.5 C 90 % 15.84 C
384 24-07-2019 07:55:00 17.6 C 90 % 15.94 C
385 24-07-2019 08:00:00 17.6 C 90 % 15.94 C
386 24-07-2019 08:05:00 17.7 C 90 % 16.04 C
387 24-07-2019 08:10:00 17.8 C 90 % 16.14 C
388 24-07-2019 08:15:00 18 C 89 % 16.16 C
389 24-07-2019 08:20:00 18.2 C 89 % 16.36 C
390 24-07-2019 08:25:00 18.3 C 89 % 16.46 C
391 24-07-2019 08:30:00 18.4 C 89 % 16.55 C
392 24-07-2019 08:35:00 18.5 C 88 % 16.48 C
393 24-07-2019 08:40:00 18.6 C 88 % 16.57 C
394 24-07-2019 08:45:00 18.8 C 88 % 16.77 C
395 24-07-2019 08:50:00 18.9 C 88 % 16.87 C
396 24-07-2019 08:55:00 19.1 C 88 % 17.07 C
397 24-07-2019 09:00:00 19.2 C 88 % 17.16 C
398 24-07-2019 09:05:00 19.3 C 88 % 17.26 C
399 24-07-2019 09:10:00 19.5 C 88 % 17.46 C
400 24-07-2019 09:15:00 19.6 C 87 % 17.38 C
Sensor: Nr:Datum:Temp:Feuchte:Taupunkt:
Aussen-T/F 401 24-07-2019 09:20:00 19.8 C 87 % 17.57 C
402 24-07-2019 09:25:00 20.1 C 86 % 17.68 C
403 24-07-2019 09:30:00 20.3 C 86 % 17.88 C
404 24-07-2019 09:35:00 20.5 C 85 % 17.89 C
405 24-07-2019 09:40:00 20.7 C 84 % 17.9 C
406 24-07-2019 09:45:00 20.9 C 83 % 17.9 C
407 24-07-2019 09:50:00 21.3 C 82 % 18.1 C
408 24-07-2019 09:55:00 21.6 C 80 % 18 C
409 24-07-2019 10:00:00 21.9 C 78 % 17.89 C
410 24-07-2019 10:05:00 22.3 C 79 % 18.48 C
411 24-07-2019 10:10:00 22.6 C 77 % 18.36 C
412 24-07-2019 10:15:00 22.8 C 75 % 18.14 C
413 24-07-2019 10:20:00 23.1 C 74 % 18.21 C
414 24-07-2019 10:25:00 23.6 C 73 % 18.48 C
415 24-07-2019 10:30:00 24 C 72 % 18.64 C
416 24-07-2019 10:35:00 24.3 C 71 % 18.7 C
417 24-07-2019 10:40:00 24.6 C 69 % 18.53 C
418 24-07-2019 10:45:00 24.9 C 67 % 18.35 C
419 24-07-2019 10:50:00 25.3 C 67 % 18.73 C
420 24-07-2019 10:55:00 25.6 C 67 % 19.01 C
421 24-07-2019 11:00:00 25.8 C 67 % 19.2 C
422 24-07-2019 11:05:00 26 C 64 % 18.66 C
423 24-07-2019 11:10:00 26.3 C 66 % 19.44 C
424 24-07-2019 11:15:00 26.6 C 65 % 19.48 C
425 24-07-2019 11:20:00 26.8 C 60 % 18.38 C
Sensor: Nr:Datum:Temp:Feuchte:Taupunkt:
Aussen-T/F 426 24-07-2019 11:25:00 27.1 C 60 % 18.66 C
427 24-07-2019 11:30:00 27.4 C 59 % 18.68 C
428 24-07-2019 11:35:00 27.9 C 58 % 18.87 C
429 24-07-2019 11:40:00 28.3 C 55 % 18.39 C
430 24-07-2019 11:45:00 28.6 C 54 % 18.38 C
431 24-07-2019 11:50:00 29 C 53 % 18.45 C
432 24-07-2019 11:55:00 29.4 C 53 % 18.82 C
433 24-07-2019 12:00:00 29.8 C 53 % 19.19 C
434 24-07-2019 12:05:00 30.3 C 48 % 18.06 C
435 24-07-2019 12:10:00 30.7 C 47 % 18.09 C
436 24-07-2019 12:15:00 31.2 C 44 % 17.49 C
437 24-07-2019 12:20:00 31.7 C 42 % 17.21 C
438 24-07-2019 12:25:00 32.1 C 43 % 17.94 C
439 24-07-2019 12:30:00 32.4 C 38 % 16.25 C
440 24-07-2019 12:35:00 32.8 C 37 % 16.19 C
441 24-07-2019 12:40:00 33 C 37 % 16.36 C
442 24-07-2019 12:45:00 33.3 C 38 % 17.05 C
443 24-07-2019 12:50:00 33.5 C 37 % 16.81 C
444 24-07-2019 12:55:00 33.7 C 36 % 16.55 C
445 24-07-2019 13:00:00 33.8 C 34 % 15.74 C
446 24-07-2019 13:05:00 33.9 C 31 % 14.39 C
447 24-07-2019 13:10:00 33.9 C 30 % 13.89 C
448 24-07-2019 13:15:00 33.9 C 31 % 14.39 C
449 24-07-2019 13:20:00 34 C 30 % 13.97 C
450 24-07-2019 13:25:00 34.1 C 29 % 13.54 C
Sensor: Nr:Datum:Temp:Feuchte:Taupunkt:
Aussen-T/F 451 24-07-2019 13:30:00 34.2 C 28 % 13.08 C
452 24-07-2019 13:35:00 34.3 C 29 % 13.71 C
453 24-07-2019 13:40:00 34.3 C 27 % 12.61 C
454 24-07-2019 13:45:00 34.4 C 27 % 12.7 C
455 24-07-2019 13:50:00 34.6 C 27 % 12.87 C
456 24-07-2019 13:55:00 34.7 C 26 % 12.38 C
457 24-07-2019 14:00:00 34.8 C 27 % 13.04 C
458 24-07-2019 14:05:00 34.8 C 26 % 12.46 C
459 24-07-2019 14:10:00 34.9 C 27 % 13.12 C
460 24-07-2019 14:15:00 35 C 27 % 13.21 C
461 24-07-2019 14:20:00 35.1 C 26 % 12.71 C
462 24-07-2019 14:25:00 35.3 C 27 % 13.46 C
463 24-07-2019 14:30:00 35.3 C 26 % 12.88 C
464 24-07-2019 14:35:00 35.5 C 26 % 13.05 C
465 24-07-2019 14:40:00 35.6 C 28 % 14.27 C
466 24-07-2019 14:45:00 35.8 C 27 % 13.88 C
467 24-07-2019 14:50:00 35.8 C 27 % 13.88 C
468 24-07-2019 14:55:00 35.9 C 28 % 14.53 C
469 24-07-2019 15:00:00 35.9 C 28 % 14.53 C
470 24-07-2019 15:05:00 36.1 C 30 % 15.77 C
471 24-07-2019 15:10:00 36.2 C 28 % 14.78 C
472 24-07-2019 15:15:00 36.3 C 27 % 14.31 C
473 24-07-2019 15:20:00 36.3 C 26 % 13.72 C
474 24-07-2019 15:25:00 36.4 C 25 % 13.21 C
475 24-07-2019 15:30:00 36.8 C 25 % 13.54 C
Sensor: Nr:Datum:Temp:Feuchte:Taupunkt:
Aussen-T/F 476 24-07-2019 15:35:00 37.2 C 23 % 12.6 C
477 24-07-2019 15:40:00 37.4 C 24 % 13.42 C
478 24-07-2019 15:45:00 37.9 C 26 % 15.07 C
479 24-07-2019 15:50:00 38.4 C 25 % 14.88 C
480 24-07-2019 15:55:00 38.8 C 25 % 15.22 C
481 24-07-2019 16:00:00 39.2 C 23 % 14.26 C
482 24-07-2019 16:05:00 39.3 C 22 % 13.65 C
483 24-07-2019 16:10:00 39.4 C 23 % 14.42 C
484 24-07-2019 16:15:00 39.4 C 25 % 15.72 C
485 24-07-2019 16:20:00 39.5 C 25 % 15.8 C
486 24-07-2019 16:25:00 39.7 C 24 % 15.33 C
487 24-07-2019 16:30:00 39.8 C 22 % 14.06 C
488 24-07-2019 16:35:00 39.7 C 22 % 13.98 C
489 24-07-2019 16:40:00 39.6 C 22 % 13.9 C
490 24-07-2019 16:45:00 39.7 C 23 % 14.67 C
491 24-07-2019 16:50:00 39.9 C 22 % 14.15 C
492 24-07-2019 16:55:00 39.9 C 24 % 15.5 C
493 24-07-2019 17:00:00 39.9 C 23 % 14.83 C
494 24-07-2019 17:05:00 40.1 C 27 % 17.52 C
495 24-07-2019 17:10:00 39.9 C 21 % 13.43 C
496 24-07-2019 17:15:00 39.9 C 23 % 14.83 C
497 24-07-2019 17:20:00 40 C 22 % 14.23 C
498 24-07-2019 17:25:00 39.9 C 22 % 14.15 C
499 24-07-2019 17:30:00 39.8 C 22 % 14.06 C
500 24-07-2019 17:35:00 39.5 C 23 % 14.5 C
Sensor: Nr:Datum:Temp:Feuchte:Taupunkt:
Aussen-T/F 501 24-07-2019 17:40:00 39.3 C 22 % 13.65 C
502 24-07-2019 17:45:00 39 C 23 % 14.09 C
503 24-07-2019 17:50:00 38.9 C 23 % 14.01 C
504 24-07-2019 17:55:00 39.1 C 24 % 14.83 C
505 24-07-2019 18:00:00 39.4 C 23 % 14.42 C
506 24-07-2019 18:05:00 39.6 C 24 % 15.25 C
507 24-07-2019 18:10:00 39.8 C 22 % 14.06 C
508 24-07-2019 18:15:00 39.8 C 22 % 14.06 C
509 24-07-2019 18:20:00 39.4 C 22 % 13.74 C
510 24-07-2019 18:25:00 39.2 C 23 % 14.26 C
511 24-07-2019 18:30:00 39.2 C 22 % 13.57 C
512 24-07-2019 18:35:00 39.2 C 23 % 14.26 C
513 24-07-2019 18:40:00 39.1 C 23 % 14.17 C
514 24-07-2019 18:45:00 39.1 C 22 % 13.49 C
515 24-07-2019 18:50:00 39.1 C 23 % 14.17 C
516 24-07-2019 18:55:00 38.9 C 23 % 14.01 C
517 24-07-2019 19:00:00 38.8 C 22 % 13.24 C
518 24-07-2019 19:05:00 38.7 C 23 % 13.84 C
519 24-07-2019 19:10:00 38.6 C 27 % 16.25 C
520 24-07-2019 19:15:00 38.7 C 26 % 15.74 C
521 24-07-2019 19:20:00 38.8 C 23 % 13.92 C
522 24-07-2019 19:25:00 38.8 C 28 % 16.99 C
523 24-07-2019 19:30:00 38.7 C 29 % 17.46 C
524 24-07-2019 19:35:00 38.7 C 30 % 18 C
525 24-07-2019 19:40:00 38.4 C 31 % 18.26 C
Sensor: Nr:Datum:Temp:Feuchte:Taupunkt:
Aussen-T/F 526 24-07-2019 19:45:00 38.2 C 30 % 17.57 C
527 24-07-2019 19:50:00 37.9 C 31 % 17.83 C
528 24-07-2019 19:55:00 37.6 C 31 % 17.58 C
529 24-07-2019 20:00:00 37.1 C 34 % 18.61 C
530 24-07-2019 20:05:00 36.4 C 33 % 17.53 C
531 24-07-2019 20:10:00 35.6 C 34 % 17.31 C
532 24-07-2019 20:15:00 34.8 C 35 % 17.07 C
533 24-07-2019 20:20:00 33.9 C 38 % 17.58 C
534 24-07-2019 20:25:00 33.1 C 40 % 17.68 C
535 24-07-2019 20:30:00 32.4 C 42 % 17.83 C
536 24-07-2019 20:35:00 31.7 C 44 % 17.94 C
537 24-07-2019 20:40:00 31.2 C 44 % 17.49 C
538 24-07-2019 20:45:00 30.8 C 45 % 17.49 C
539 24-07-2019 20:50:00 30.4 C 45 % 17.13 C
540 24-07-2019 20:55:00 30.2 C 46 % 17.3 C
541 24-07-2019 21:00:00 29.9 C 47 % 17.36 C
542 24-07-2019 21:05:00 29.7 C 47 % 17.18 C
543 24-07-2019 21:10:00 29.4 C 48 % 17.24 C
544 24-07-2019 21:15:00 29.2 C 48 % 17.06 C
545 24-07-2019 21:20:00 29 C 49 % 17.2 C
546 24-07-2019 21:25:00 28.8 C 49 % 17.02 C
547 24-07-2019 21:30:00 28.7 C 49 % 16.93 C
548 24-07-2019 21:35:00 28.5 C 50 % 17.06 C
549 24-07-2019 21:40:00 28.3 C 49 % 16.56 C
550 24-07-2019 21:45:00 28.2 C 50 % 16.79 C
Sensor: Nr:Datum:Temp:Feuchte:Taupunkt:
Aussen-T/F 551 24-07-2019 21:50:00 28.1 C 50 % 16.7 C
552 24-07-2019 21:55:00 28.1 C 50 % 16.7 C
553 24-07-2019 22:00:00 27.9 C 50 % 16.51 C
554 24-07-2019 22:05:00 27.8 C 51 % 16.73 C
555 24-07-2019 22:10:00 27.8 C 51 % 16.73 C
556 24-07-2019 22:15:00 27.7 C 51 % 16.64 C
557 24-07-2019 22:20:00 27.6 C 51 % 16.55 C
558 24-07-2019 22:25:00 27.4 C 52 % 16.67 C
559 24-07-2019 22:30:00 27.3 C 52 % 16.58 C
560 24-07-2019 22:35:00 27.2 C 53 % 16.79 C
561 24-07-2019 22:40:00 27.1 C 53 % 16.7 C
562 24-07-2019 22:45:00 27 C 53 % 16.6 C
563 24-07-2019 22:50:00 26.9 C 53 % 16.51 C
564 24-07-2019 22:55:00 26.8 C 54 % 16.71 C
565 24-07-2019 23:00:00 26.8 C 54 % 16.71 C
566 24-07-2019 23:05:00 26.6 C 55 % 16.82 C
567 24-07-2019 23:10:00 26.4 C 56 % 16.92 C
568 24-07-2019 23:15:00 26.2 C 57 % 17.01 C
569 24-07-2019 23:20:00 25.9 C 58 % 17 C
570 24-07-2019 23:25:00 25.7 C 58 % 16.82 C
571 24-07-2019 23:30:00 25.4 C 58 % 16.54 C
572 24-07-2019 23:35:00 25.2 C 58 % 16.35 C
573 24-07-2019 23:40:00 25 C 60 % 16.7 C
574 24-07-2019 23:45:00 24.8 C 61 % 16.77 C
575 24-07-2019 23:50:00 24.6 C 62 % 16.84 C
Sensor: Nr:Datum:Temp:Feuchte:Taupunkt:
Aussen-T/F 576 24-07-2019 23:55:00 24.4 C 63 % 16.9 C
577 25-07-2019 00:00:00 24.3 C 62 % 16.55 C
578 25-07-2019 00:05:00 24 C 61 % 16.02 C
579 25-07-2019 00:10:00 23.9 C 63 % 16.43 C
580 25-07-2019 00:15:00 23.9 C 63 % 16.43 C
581 25-07-2019 00:20:00 23.8 C 63 % 16.33 C
582 25-07-2019 00:25:00 23.7 C 62 % 15.99 C
583 25-07-2019 00:30:00 23.6 C 62 % 15.89 C
584 25-07-2019 00:35:00 23.6 C 64 % 16.39 C
585 25-07-2019 00:40:00 23.4 C 64 % 16.2 C
586 25-07-2019 00:45:00 23.3 C 63 % 15.86 C
587 25-07-2019 00:50:00 23.4 C 64 % 16.2 C
588 25-07-2019 00:55:00 23.3 C 66 % 16.59 C
589 25-07-2019 01:00:00 23.2 C 65 % 16.26 C
590 25-07-2019 01:05:00 23.1 C 65 % 16.16 C
591 25-07-2019 01:10:00 22.9 C 66 % 16.21 C
592 25-07-2019 01:15:00 22.7 C 66 % 16.02 C
593 25-07-2019 01:20:00 22.6 C 67 % 16.16 C
594 25-07-2019 01:25:00 22.4 C 66 % 15.74 C
595 25-07-2019 01:30:00 22.3 C 67 % 15.88 C
596 25-07-2019 01:35:00 22.3 C 65 % 15.4 C
597 25-07-2019 01:40:00 22.3 C 68 % 16.11 C
598 25-07-2019 01:45:00 22.3 C 68 % 16.11 C
599 25-07-2019 01:50:00 22.2 C 68 % 16.01 C
600 25-07-2019 01:55:00 22.1 C 68 % 15.92 C
Sensor: Nr:Datum:Temp:Feuchte:Taupunkt:
Aussen-T/F 601 25-07-2019 02:00:00 22 C 69 % 16.05 C
602 25-07-2019 02:05:00 21.9 C 70 % 16.18 C
603 25-07-2019 02:10:00 21.8 C 70 % 16.09 C
604 25-07-2019 02:15:00 21.7 C 70 % 15.99 C
605 25-07-2019 02:20:00 21.7 C 70 % 15.99 C
606 25-07-2019 02:25:00 21.7 C 71 % 16.21 C
607 25-07-2019 02:30:00 21.6 C 70 % 15.89 C
608 25-07-2019 02:35:00 21.5 C 70 % 15.8 C
609 25-07-2019 02:40:00 21.4 C 71 % 15.93 C
610 25-07-2019 02:45:00 21.4 C 71 % 15.93 C
611 25-07-2019 02:50:00 21.3 C 72 % 16.05 C
612 25-07-2019 02:55:00 21.2 C 72 % 15.95 C
613 25-07-2019 03:00:00 21.2 C 72 % 15.95 C
614 25-07-2019 03:05:00 21.2 C 73 % 16.17 C
615 25-07-2019 03:10:00 21.2 C 73 % 16.17 C
616 25-07-2019 03:15:00 21.1 C 73 % 16.07 C
617 25-07-2019 03:20:00 20.9 C 74 % 16.09 C
618 25-07-2019 03:25:00 20.8 C 74 % 16 C
619 25-07-2019 03:30:00 20.8 C 74 % 16 C
620 25-07-2019 03:35:00 20.8 C 74 % 16 C
621 25-07-2019 03:40:00 20.8 C 74 % 16 C
622 25-07-2019 03:45:00 20.7 C 75 % 16.11 C
623 25-07-2019 03:50:00 20.6 C 75 % 16.01 C
624 25-07-2019 03:55:00 20.6 C 76 % 16.22 C
625 25-07-2019 04:00:00 20.4 C 76 % 16.03 C
Sensor: Nr:Datum:Temp:Feuchte:Taupunkt:
Aussen-T/F 626 25-07-2019 04:05:00 20.3 C 76 % 15.93 C
627 25-07-2019 04:10:00 20.2 C 77 % 16.04 C
628 25-07-2019 04:15:00 20.1 C 77 % 15.94 C
629 25-07-2019 04:20:00 19.9 C 78 % 15.95 C
630 25-07-2019 04:25:00 20.1 C 78 % 16.14 C
631 25-07-2019 04:30:00 20.1 C 78 % 16.14 C
632 25-07-2019 04:35:00 20.1 C 78 % 16.14 C
633 25-07-2019 04:40:00 20.1 C 78 % 16.14 C
634 25-07-2019 04:45:00 19.9 C 79 % 16.15 C
635 25-07-2019 04:50:00 19.9 C 79 % 16.15 C
636 25-07-2019 04:55:00 19.8 C 79 % 16.05 C
637 25-07-2019 05:00:00 19.7 C 79 % 15.96 C
638 25-07-2019 05:05:00 19.6 C 79 % 15.86 C
639 25-07-2019 05:10:00 19.6 C 80 % 16.06 C
640 25-07-2019 05:15:00 19.4 C 80 % 15.86 C
641 25-07-2019 05:20:00 19.4 C 80 % 15.86 C
642 25-07-2019 05:25:00 19.3 C 80 % 15.76 C
643 25-07-2019 05:30:00 19.3 C 80 % 15.76 C
644 25-07-2019 05:35:00 19.3 C 80 % 15.76 C
645 25-07-2019 05:40:00 19.2 C 80 % 15.67 C
646 25-07-2019 05:45:00 19.2 C 80 % 15.67 C
647 25-07-2019 05:50:00 19.2 C 81 % 15.86 C
648 25-07-2019 05:55:00 19.1 C 81 % 15.76 C
649 25-07-2019 06:00:00 19.1 C 82 % 15.96 C
650 25-07-2019 06:05:00 19.1 C 82 % 15.96 C
Sensor: Nr:Datum:Temp:Feuchte:Taupunkt:
Aussen-T/F 651 25-07-2019 06:10:00 19.1 C 82 % 15.96 C
652 25-07-2019 06:15:00 19.2 C 82 % 16.05 C
653 25-07-2019 06:20:00 19.2 C 82 % 16.05 C
654 25-07-2019 06:25:00 19.1 C 82 % 15.96 C
655 25-07-2019 06:30:00 19.2 C 82 % 16.05 C
656 25-07-2019 06:35:00 19.2 C 82 % 16.05 C
657 25-07-2019 06:40:00 19.2 C 82 % 16.05 C
658 25-07-2019 06:45:00 19.3 C 83 % 16.34 C
659 25-07-2019 06:50:00 19.3 C 83 % 16.34 C
660 25-07-2019 06:55:00 19.3 C 83 % 16.34 C
661 25-07-2019 07:00:00 19.3 C 83 % 16.34 C
662 25-07-2019 07:05:00 19.3 C 83 % 16.34 C
663 25-07-2019 07:10:00 19.4 C 84 % 16.63 C
664 25-07-2019 07:15:00 19.4 C 84 % 16.63 C
665 25-07-2019 07:20:00 19.4 C 84 % 16.63 C
666 25-07-2019 07:25:00 19.5 C 84 % 16.72 C
667 25-07-2019 07:30:00 19.6 C 84 % 16.82 C
668 25-07-2019 07:35:00 19.6 C 84 % 16.82 C
669 25-07-2019 07:40:00 19.7 C 84 % 16.92 C
670 25-07-2019 07:45:00 19.8 C 84 % 17.02 C
671 25-07-2019 07:50:00 19.8 C 84 % 17.02 C
672 25-07-2019 07:55:00 19.9 C 84 % 17.12 C
673 25-07-2019 08:00:00 20 C 83 % 17.02 C
674 25-07-2019 08:05:00 20.1 C 84 % 17.31 C
675 25-07-2019 08:10:00 20.2 C 83 % 17.22 C
Sensor: Nr:Datum:Temp:Feuchte:Taupunkt:
Aussen-T/F 676 25-07-2019 08:15:00 20.3 C 82 % 17.13 C
677 25-07-2019 08:20:00 20.5 C 83 % 17.51 C
678 25-07-2019 08:25:00 20.7 C 83 % 17.71 C
679 25-07-2019 08:30:00 20.8 C 83 % 17.81 C
680 25-07-2019 08:35:00 20.9 C 82 % 17.71 C
681 25-07-2019 08:40:00 21.1 C 83 % 18.1 C
682 25-07-2019 08:45:00 21.2 C 83 % 18.2 C
683 25-07-2019 08:50:00 21.4 C 82 % 18.2 C
684 25-07-2019 08:55:00 21.6 C 82 % 18.39 C
685 25-07-2019 09:00:00 21.7 C 81 % 18.3 C
686 25-07-2019 09:05:00 21.8 C 79 % 18 C
687 25-07-2019 09:10:00 22.1 C 81 % 18.69 C
688 25-07-2019 09:15:00 22.2 C 81 % 18.78 C
689 25-07-2019 09:20:00 22.3 C 78 % 18.28 C
690 25-07-2019 09:25:00 22.6 C 78 % 18.57 C
691 25-07-2019 09:30:00 22.8 C 77 % 18.56 C
692 25-07-2019 09:35:00 23.1 C 77 % 18.85 C
693 25-07-2019 09:40:00 23.3 C 75 % 18.62 C
694 25-07-2019 09:45:00 23.5 C 74 % 18.6 C
695 25-07-2019 09:50:00 23.7 C 72 % 18.35 C
696 25-07-2019 09:55:00 24 C 70 % 18.19 C
697 25-07-2019 10:00:00 24.3 C 70 % 18.48 C
698 25-07-2019 10:05:00 24.6 C 71 % 18.99 C
699 25-07-2019 10:10:00 24.9 C 70 % 19.05 C
700 25-07-2019 10:15:00 25.1 C 69 % 19.01 C
Sensor: Nr:Datum:Temp:Feuchte:Taupunkt:
Aussen-T/F 701 25-07-2019 10:20:00 25.3 C 68 % 18.97 C
702 25-07-2019 10:25:00 25.6 C 69 % 19.49 C
703 25-07-2019 10:30:00 25.9 C 67 % 19.3 C
704 25-07-2019 10:35:00 26.2 C 65 % 19.1 C
705 25-07-2019 10:40:00 26.6 C 63 % 18.97 C
706 25-07-2019 10:45:00 26.9 C 62 % 19 C
707 25-07-2019 10:50:00 27.2 C 63 % 19.54 C
708 25-07-2019 10:55:00 27.5 C 63 % 19.82 C
709 25-07-2019 11:00:00 27.8 C 61 % 19.59 C
710 25-07-2019 11:05:00 28.2 C 60 % 19.69 C
711 25-07-2019 11:10:00 28.6 C 56 % 18.96 C
712 25-07-2019 11:15:00 29.1 C 58 % 19.99 C
713 25-07-2019 11:20:00 29.4 C 54 % 19.12 C
714 25-07-2019 11:25:00 29.8 C 55 % 19.78 C
715 25-07-2019 11:30:00 30.1 C 54 % 19.76 C
716 25-07-2019 11:35:00 30.5 C 53 % 19.83 C
717 25-07-2019 11:40:00 30.8 C 50 % 19.17 C
718 25-07-2019 11:45:00 31.2 C 48 % 18.88 C
719 25-07-2019 11:50:00 31.6 C 47 % 18.91 C
720 25-07-2019 11:55:00 32.1 C 44 % 18.3 C
721 25-07-2019 12:00:00 32.6 C 41 % 17.63 C
722 25-07-2019 12:05:00 33 C 40 % 17.59 C
723 25-07-2019 12:10:00 33.4 C 38 % 17.14 C
724 25-07-2019 12:15:00 33.8 C 38 % 17.49 C
725 25-07-2019 12:20:00 34.3 C 35 % 16.63 C
Sensor: Nr:Datum:Temp:Feuchte:Taupunkt:
Aussen-T/F 726 25-07-2019 12:25:00 34.7 C 35 % 16.98 C
727 25-07-2019 12:30:00 34.9 C 35 % 17.16 C
728 25-07-2019 12:35:00 35.2 C 33 % 16.49 C
729 25-07-2019 12:40:00 35.3 C 33 % 16.58 C
730 25-07-2019 12:45:00 35.5 C 33 % 16.75 C
731 25-07-2019 12:50:00 35.7 C 33 % 16.92 C
732 25-07-2019 12:55:00 35.9 C 31 % 16.11 C
733 25-07-2019 13:00:00 36 C 32 % 16.7 C
734 25-07-2019 13:05:00 36.1 C 32 % 16.79 C
735 25-07-2019 13:10:00 36.2 C 32 % 16.87 C
736 25-07-2019 13:15:00 36.3 C 32 % 16.96 C
737 25-07-2019 13:20:00 36.3 C 30 % 15.94 C
738 25-07-2019 13:25:00 36.4 C 31 % 16.54 C
739 25-07-2019 13:30:00 36.4 C 31 % 16.54 C
740 25-07-2019 13:35:00 36.6 C 31 % 16.72 C
741 25-07-2019 13:40:00 36.7 C 31 % 16.8 C
742 25-07-2019 13:45:00 36.8 C 30 % 16.37 C
743 25-07-2019 13:50:00 36.9 C 31 % 16.97 C
744 25-07-2019 13:55:00 36.9 C 29 % 15.93 C
745 25-07-2019 14:00:00 36.9 C 30 % 16.46 C
746 25-07-2019 14:05:00 37.1 C 30 % 16.63 C
747 25-07-2019 14:10:00 37.2 C 29 % 16.18 C
748 25-07-2019 14:15:00 37.3 C 30 % 16.8 C
749 25-07-2019 14:20:00 37.4 C 29 % 16.35 C
750 25-07-2019 14:25:00 37.4 C 27 % 15.24 C
Sensor: Nr:Datum:Temp:Feuchte:Taupunkt:
Aussen-T/F 751 25-07-2019 14:30:00 37.4 C 30 % 16.89 C
752 25-07-2019 14:35:00 37.6 C 28 % 15.97 C
753 25-07-2019 14:40:00 37.6 C 29 % 16.52 C
754 25-07-2019 14:45:00 37.7 C 27 % 15.49 C
755 25-07-2019 14:50:00 37.7 C 29 % 16.61 C
756 25-07-2019 14:55:00 37.8 C 28 % 16.14 C
757 25-07-2019 15:00:00 37.9 C 28 % 16.23 C
758 25-07-2019 15:05:00 38.2 C 28 % 16.48 C
759 25-07-2019 15:10:00 38.3 C 28 % 16.57 C
760 25-07-2019 15:15:00 38.5 C 27 % 16.16 C
761 25-07-2019 15:20:00 38.7 C 26 % 15.74 C
762 25-07-2019 15:25:00 38.8 C 26 % 15.83 C
763 25-07-2019 15:30:00 38.9 C 26 % 15.91 C
764 25-07-2019 15:35:00 38.7 C 26 % 15.74 C
765 25-07-2019 15:40:00 38.8 C 26 % 15.83 C
766 25-07-2019 15:45:00 39.2 C 25 % 15.55 C
767 25-07-2019 15:50:00 39.6 C 26 % 16.5 C
768 25-07-2019 15:55:00 39.9 C 24 % 15.5 C
769 25-07-2019 16:00:00 40.1 C 23 % 15 C
770 25-07-2019 16:05:00 40.2 C 24 % 15.75 C
771 25-07-2019 16:10:00 40.2 C 25 % 16.39 C
772 25-07-2019 16:15:00 40.3 C 23 % 15.17 C
773 25-07-2019 16:20:00 40.4 C 24 % 15.91 C
774 25-07-2019 16:25:00 40.4 C 25 % 16.55 C
775 25-07-2019 16:30:00 40.4 C 23 % 15.25 C
Sensor: Nr:Datum:Temp:Feuchte:Taupunkt:
Aussen-T/F 776 25-07-2019 16:35:00 40.3 C 23 % 15.17 C
777 25-07-2019 16:40:00 40 C 23 % 14.92 C
778 25-07-2019 16:45:00 39.9 C 23 % 14.83 C
779 25-07-2019 16:50:00 39.9 C 25 % 16.13 C
780 25-07-2019 16:55:00 39.7 C 23 % 14.67 C
781 25-07-2019 17:00:00 39.8 C 24 % 15.41 C
782 25-07-2019 17:05:00 39.9 C 24 % 15.5 C
783 25-07-2019 17:10:00 40.3 C 23 % 15.17 C
784 25-07-2019 17:15:00 40.3 C 22 % 14.48 C
785 25-07-2019 17:20:00 40.1 C 22 % 14.31 C
786 25-07-2019 17:25:00 39.9 C 22 % 14.15 C
787 25-07-2019 17:30:00 39.6 C 22 % 13.9 C
788 25-07-2019 17:35:00 39.5 C 22 % 13.82 C
789 25-07-2019 17:40:00 39.5 C 22 % 13.82 C
790 25-07-2019 17:45:00 39.5 C 22 % 13.82 C
791 25-07-2019 17:50:00 39.6 C 23 % 14.59 C
792 25-07-2019 17:55:00 39.7 C 23 % 14.67 C
793 25-07-2019 18:00:00 39.6 C 23 % 14.59 C
794 25-07-2019 18:05:00 39.4 C 23 % 14.42 C
795 25-07-2019 18:10:00 39.4 C 22 % 13.74 C
796 25-07-2019 18:15:00 39.4 C 23 % 14.42 C
797 25-07-2019 18:20:00 39.3 C 22 % 13.65 C
798 25-07-2019 18:25:00 39.3 C 23 % 14.34 C
799 25-07-2019 18:30:00 39.2 C 23 % 14.26 C
800 25-07-2019 18:35:00 39.1 C 23 % 14.17 C
Sensor: Nr:Datum:Temp:Feuchte:Taupunkt:
Aussen-T/F 801 25-07-2019 18:40:00 38.8 C 23 % 13.92 C
802 25-07-2019 18:45:00 38.6 C 24 % 14.42 C
803 25-07-2019 18:50:00 38.6 C 24 % 14.42 C
804 25-07-2019 18:55:00 38.4 C 29 % 17.2 C
805 25-07-2019 19:00:00 38.3 C 25 % 14.8 C
806 25-07-2019 19:05:00 38.2 C 31 % 18.09 C
807 25-07-2019 19:10:00 38 C 28 % 16.31 C
808 25-07-2019 19:15:00 37.8 C 33 % 18.74 C
809 25-07-2019 19:20:00 37.4 C 32 % 17.91 C
810 25-07-2019 19:25:00 37 C 33 % 18.05 C
811 25-07-2019 19:30:00 36.6 C 33 % 17.7 C
812 25-07-2019 19:35:00 36.2 C 35 % 18.29 C
813 25-07-2019 19:40:00 35.7 C 36 % 18.3 C
814 25-07-2019 19:45:00 35.3 C 39 % 19.23 C
815 25-07-2019 19:50:00 34.9 C 38 % 18.46 C
816 25-07-2019 19:55:00 34.6 C 38 % 18.2 C
817 25-07-2019 20:00:00 34.3 C 41 % 19.15 C
818 25-07-2019 20:05:00 33.9 C 41 % 18.79 C
819 25-07-2019 20:10:00 33.7 C 40 % 18.22 C
820 25-07-2019 20:15:00 33.4 C 40 % 17.95 C
821 25-07-2019 20:20:00 33.2 C 42 % 18.55 C
822 25-07-2019 20:25:00 32.9 C 41 % 17.9 C
823 25-07-2019 20:30:00 32.7 C 42 % 18.1 C
824 25-07-2019 20:35:00 32.4 C 42 % 17.83 C
825 25-07-2019 20:40:00 32.2 C 43 % 18.03 C
Sensor: Nr:Datum:Temp:Feuchte:Taupunkt:
Aussen-T/F 826 25-07-2019 20:45:00 31.9 C 43 % 17.76 C
827 25-07-2019 20:50:00 31.7 C 44 % 17.94 C
828 25-07-2019 20:55:00 31.5 C 43 % 17.4 C
829 25-07-2019 21:00:00 31.3 C 44 % 17.58 C
830 25-07-2019 21:05:00 31.1 C 44 % 17.4 C
831 25-07-2019 21:10:00 30.9 C 45 % 17.58 C
832 25-07-2019 21:15:00 30.7 C 44 % 17.04 C
833 25-07-2019 21:20:00 30.5 C 44 % 16.86 C
834 25-07-2019 21:25:00 30.3 C 45 % 17.04 C
835 25-07-2019 21:30:00 30.2 C 45 % 16.95 C
836 25-07-2019 21:35:00 30.1 C 45 % 16.86 C
837 25-07-2019 21:40:00 29.9 C 45 % 16.68 C
838 25-07-2019 21:45:00 29.8 C 45 % 16.59 C
839 25-07-2019 21:50:00 29.7 C 45 % 16.5 C
840 25-07-2019 21:55:00 29.6 C 45 % 16.41 C
841 25-07-2019 22:00:00 29.4 C 45 % 16.23 C
842 25-07-2019 22:05:00 29.3 C 46 % 16.48 C
843 25-07-2019 22:10:00 29.2 C 46 % 16.39 C
844 25-07-2019 22:15:00 29.1 C 47 % 16.64 C
845 25-07-2019 22:20:00 28.9 C 46 % 16.12 C
846 25-07-2019 22:25:00 28.8 C 48 % 16.69 C
847 25-07-2019 22:30:00 28.7 C 48 % 16.6 C
848 25-07-2019 22:35:00 28.5 C 48 % 16.42 C
849 25-07-2019 22:40:00 28.4 C 48 % 16.33 C
850 25-07-2019 22:45:00 28.3 C 48 % 16.24 C
Sensor: Nr:Datum:Temp:Feuchte:Taupunkt:
Aussen-T/F 851 25-07-2019 22:50:00 28.3 C 49 % 16.56 C
852 25-07-2019 22:55:00 28.2 C 48 % 16.15 C
853 25-07-2019 23:00:00 28.1 C 49 % 16.38 C
854 25-07-2019 23:05:00 28 C 48 % 15.97 C
855 25-07-2019 23:10:00 27.9 C 49 % 16.2 C
856 25-07-2019 23:15:00 27.8 C 48 % 15.78 C
857 25-07-2019 23:20:00 27.8 C 49 % 16.11 C
858 25-07-2019 23:25:00 27.7 C 50 % 16.33 C
859 25-07-2019 23:30:00 27.6 C 49 % 15.92 C
860 25-07-2019 23:35:00 27.4 C 50 % 16.06 C
861 25-07-2019 23:40:00 27.3 C 50 % 15.97 C
862 25-07-2019 23:45:00 27.2 C 50 % 15.87 C
863 25-07-2019 23:50:00 27.1 C 51 % 16.09 C
864 25-07-2019 23:55:00 26.9 C 53 % 16.51 C
865 26-07-2019 00:00:00 26.8 C 53 % 16.42 C
866 26-07-2019 00:05:00 26.7 C 53 % 16.33 C
867 26-07-2019 00:10:00 26.5 C 52 % 15.84 C
868 26-07-2019 00:15:00 26.4 C 53 % 16.05 C
869 26-07-2019 00:20:00 26.3 C 53 % 15.96 C
870 26-07-2019 00:25:00 26.2 C 54 % 16.16 C
871 26-07-2019 00:30:00 26.1 C 54 % 16.07 C
872 26-07-2019 00:35:00 26 C 53 % 15.68 C
873 26-07-2019 00:40:00 25.9 C 54 % 15.88 C
874 26-07-2019 00:45:00 25.9 C 54 % 15.88 C
875 26-07-2019 00:50:00 25.8 C 54 % 15.79 C
Sensor: Nr:Datum:Temp:Feuchte:Taupunkt:
Aussen-T/F 876 26-07-2019 00:55:00 25.7 C 54 % 15.7 C
877 26-07-2019 01:00:00 25.6 C 54 % 15.6 C
878 26-07-2019 01:05:00 25.5 C 55 % 15.8 C
879 26-07-2019 01:10:00 25.4 C 54 % 15.42 C
880 26-07-2019 01:15:00 25.3 C 56 % 15.89 C
881 26-07-2019 01:20:00 25.2 C 56 % 15.8 C
882 26-07-2019 01:25:00 25.2 C 57 % 16.08 C
883 26-07-2019 01:30:00 25.1 C 56 % 15.71 C
884 26-07-2019 01:35:00 24.9 C 58 % 16.07 C
885 26-07-2019 01:40:00 24.8 C 59 % 16.24 C
886 26-07-2019 01:45:00 24.6 C 60 % 16.32 C
887 26-07-2019 01:50:00 24.3 C 60 % 16.04 C
888 26-07-2019 01:55:00 24.1 C 60 % 15.85 C
889 26-07-2019 02:00:00 23.8 C 62 % 16.08 C
890 26-07-2019 02:05:00 23.6 C 64 % 16.39 C
891 26-07-2019 02:10:00 23.3 C 65 % 16.35 C
892 26-07-2019 02:15:00 23 C 66 % 16.31 C
893 26-07-2019 02:20:00 22.8 C 67 % 16.35 C
894 26-07-2019 02:25:00 22.6 C 68 % 16.39 C
895 26-07-2019 02:30:00 22.3 C 69 % 16.34 C
896 26-07-2019 02:35:00 22.2 C 69 % 16.24 C
897 26-07-2019 02:40:00 21.9 C 69 % 15.96 C
898 26-07-2019 02:45:00 21.7 C 68 % 15.54 C
899 26-07-2019 02:50:00 21.6 C 69 % 15.67 C
900 26-07-2019 02:55:00 21.4 C 68 % 15.25 C
Sensor: Nr:Datum:Temp:Feuchte:Taupunkt:
Aussen-T/F 901 26-07-2019 03:00:00 21.3 C 70 % 15.61 C
902 26-07-2019 03:05:00 21.2 C 71 % 15.73 C
903 26-07-2019 03:10:00 21.2 C 71 % 15.73 C
904 26-07-2019 03:15:00 21.1 C 70 % 15.42 C
905 26-07-2019 03:20:00 21.1 C 71 % 15.64 C
906 26-07-2019 03:25:00 21 C 71 % 15.54 C
907 26-07-2019 03:30:00 21 C 72 % 15.76 C
908 26-07-2019 03:35:00 20.9 C 72 % 15.66 C
909 26-07-2019 03:40:00 20.8 C 72 % 15.57 C
910 26-07-2019 03:45:00 20.8 C 72 % 15.57 C
911 26-07-2019 03:50:00 20.8 C 74 % 16 C
912 26-07-2019 03:55:00 20.7 C 74 % 15.9 C
913 26-07-2019 04:00:00 20.7 C 74 % 15.9 C
914 26-07-2019 04:05:00 20.6 C 75 % 16.01 C
915 26-07-2019 04:10:00 20.4 C 75 % 15.82 C
916 26-07-2019 04:15:00 20.3 C 75 % 15.72 C
917 26-07-2019 04:20:00 20.3 C 76 % 15.93 C
918 26-07-2019 04:25:00 20.2 C 77 % 16.04 C
919 26-07-2019 04:30:00 20.1 C 77 % 15.94 C
920 26-07-2019 04:35:00 19.9 C 77 % 15.75 C
921 26-07-2019 04:40:00 19.9 C 78 % 15.95 C
922 26-07-2019 04:45:00 19.8 C 78 % 15.85 C
923 26-07-2019 04:50:00 19.7 C 78 % 15.76 C
924 26-07-2019 04:55:00 19.6 C 79 % 15.86 C
925 26-07-2019 05:00:00 19.6 C 79 % 15.86 C
Sensor: Nr:Datum:Temp:Feuchte:Taupunkt:
Aussen-T/F 926 26-07-2019 05:05:00 19.5 C 78 % 15.56 C
927 26-07-2019 05:10:00 19.4 C 78 % 15.47 C
928 26-07-2019 05:15:00 19.3 C 78 % 15.37 C
929 26-07-2019 05:20:00 19.3 C 79 % 15.57 C
930 26-07-2019 05:25:00 19.3 C 78 % 15.37 C
931 26-07-2019 05:30:00 19.3 C 80 % 15.76 C
932 26-07-2019 05:35:00 19.3 C 80 % 15.76 C
933 26-07-2019 05:40:00 19.2 C 80 % 15.67 C
934 26-07-2019 05:45:00 19.2 C 80 % 15.67 C
935 26-07-2019 05:50:00 19.1 C 79 % 15.37 C
936 26-07-2019 05:55:00 19 C 79 % 15.28 C
937 26-07-2019 06:00:00 18.9 C 80 % 15.38 C
938 26-07-2019 06:05:00 19 C 79 % 15.28 C
939 26-07-2019 06:10:00 19 C 79 % 15.28 C
940 26-07-2019 06:15:00 18.9 C 80 % 15.38 C
941 26-07-2019 06:20:00 18.9 C 80 % 15.38 C
942 26-07-2019 06:25:00 18.9 C 80 % 15.38 C
943 26-07-2019 06:30:00 18.9 C 80 % 15.38 C
944 26-07-2019 06:35:00 18.9 C 81 % 15.57 C
945 26-07-2019 06:40:00 18.9 C 81 % 15.57 C
946 26-07-2019 06:45:00 19 C 81 % 15.67 C
947 26-07-2019 06:50:00 19.1 C 81 % 15.76 C
948 26-07-2019 06:55:00 19.1 C 82 % 15.96 C
949 26-07-2019 07:00:00 19.2 C 83 % 16.24 C
950 26-07-2019 07:05:00 19.3 C 83 % 16.34 C
Sensor: Nr:Datum:Temp:Feuchte:Taupunkt:
Aussen-T/F 951 26-07-2019 07:10:00 19.3 C 83 % 16.34 C
952 26-07-2019 07:15:00 19.4 C 83 % 16.44 C
953 26-07-2019 07:20:00 19.4 C 82 % 16.25 C
954 26-07-2019 07:25:00 19.5 C 83 % 16.54 C
955 26-07-2019 07:30:00 19.6 C 83 % 16.63 C
956 26-07-2019 07:35:00 19.7 C 83 % 16.73 C
957 26-07-2019 07:40:00 19.8 C 83 % 16.83 C
958 26-07-2019 07:45:00 19.9 C 82 % 16.74 C
959 26-07-2019 07:50:00 20.1 C 81 % 16.74 C
960 26-07-2019 07:55:00 20.2 C 81 % 16.84 C
961 26-07-2019 08:00:00 20.4 C 81 % 17.03 C
962 26-07-2019 08:05:00 20.5 C 82 % 17.32 C
963 26-07-2019 08:10:00 20.6 C 81 % 17.22 C
964 26-07-2019 08:15:00 20.7 C 82 % 17.52 C
965 26-07-2019 08:20:00 20.8 C 81 % 17.42 C
966 26-07-2019 08:25:00 20.9 C 80 % 17.32 C
967 26-07-2019 08:30:00 21.1 C 79 % 17.32 C
968 26-07-2019 08:35:00 21.3 C 79 % 17.51 C
969 26-07-2019 08:40:00 21.5 C 78 % 17.5 C
970 26-07-2019 08:45:00 21.7 C 79 % 17.9 C
971 26-07-2019 08:50:00 21.9 C 80 % 18.29 C
972 26-07-2019 08:55:00 21.9 C 78 % 17.89 C
973 26-07-2019 09:00:00 22.1 C 76 % 17.67 C
974 26-07-2019 09:05:00 22.3 C 76 % 17.86 C
975 26-07-2019 09:10:00 22.4 C 74 % 17.54 C
Sensor: Nr:Datum:Temp:Feuchte:Taupunkt:
Aussen-T/F 976 26-07-2019 09:15:00 22.7 C 73 % 17.61 C
977 26-07-2019 09:20:00 22.9 C 74 % 18.02 C
978 26-07-2019 09:25:00 23.1 C 70 % 17.33 C
979 26-07-2019 09:30:00 23.4 C 70 % 17.62 C
980 26-07-2019 09:35:00 23.7 C 67 % 17.21 C
981 26-07-2019 09:40:00 24.2 C 67 % 17.68 C
982 26-07-2019 09:45:00 24.6 C 66 % 17.83 C
983 26-07-2019 09:50:00 25 C 58 % 16.16 C
984 26-07-2019 09:55:00 25.7 C 60 % 17.35 C
985 26-07-2019 10:00:00 25.9 C 60 % 17.54 C
986 26-07-2019 10:05:00 26.3 C 58 % 17.38 C
987 26-07-2019 10:10:00 26.4 C 57 % 17.19 C
988 26-07-2019 10:15:00 26.8 C 55 % 17 C
989 26-07-2019 10:20:00 27.2 C 54 % 17.08 C
990 26-07-2019 10:25:00 27.6 C 48 % 15.6 C
991 26-07-2019 10:30:00 28.4 C 46 % 15.66 C
992 26-07-2019 10:35:00 29.1 C 46 % 16.3 C
993 26-07-2019 10:40:00 29.6 C 44 % 16.05 C
994 26-07-2019 10:45:00 30.1 C 43 % 16.14 C
995 26-07-2019 10:50:00 30.5 C 42 % 16.13 C
996 26-07-2019 10:55:00 30.8 C 41 % 16.02 C
997 26-07-2019 11:00:00 31 C 39 % 15.42 C
998 26-07-2019 11:05:00 31.2 C 39 % 15.6 C
999 26-07-2019 11:10:00 31.4 C 41 % 16.56 C
1000 26-07-2019 11:15:00 31.5 C 40 % 16.26 C
Sensor: Nr:Datum:Temp:Feuchte:Taupunkt:
Aussen-T/F 1001 26-07-2019 11:20:00 31.7 C 39 % 16.04 C
1002 26-07-2019 11:25:00 31.9 C 40 % 16.62 C
1003 26-07-2019 11:30:00 32.1 C 38 % 15.99 C
1004 26-07-2019 11:35:00 32.3 C 40 % 16.97 C
1005 26-07-2019 11:40:00 32.6 C 39 % 16.84 C
1006 26-07-2019 11:45:00 32.8 C 37 % 16.19 C
1007 26-07-2019 11:50:00 32.9 C 37 % 16.28 C
1008 26-07-2019 11:55:00 33.2 C 37 % 16.54 C
1009 26-07-2019 12:00:00 33.4 C 36 % 16.29 C
1010 26-07-2019 12:05:00 33.6 C 35 % 16.02 C
1011 26-07-2019 12:10:00 33.7 C 37 % 16.98 C
1012 26-07-2019 12:15:00 33.8 C 35 % 16.19 C
1013 26-07-2019 12:20:00 34.1 C 35 % 16.46 C
1014 26-07-2019 12:25:00 34.2 C 36 % 16.99 C
1015 26-07-2019 12:30:00 34.3 C 34 % 16.18 C
1016 26-07-2019 12:35:00 34.5 C 34 % 16.35 C
1017 26-07-2019 12:40:00 34.8 C 34 % 16.61 C
1018 26-07-2019 12:45:00 35.1 C 33 % 16.4 C
1019 26-07-2019 12:50:00 35.3 C 33 % 16.58 C
1020 26-07-2019 12:55:00 35.4 C 32 % 16.18 C
1021 26-07-2019 13:00:00 35.5 C 32 % 16.27 C
1022 26-07-2019 13:05:00 35.6 C 31 % 15.86 C
1023 26-07-2019 13:10:00 35.7 C 31 % 15.94 C
1024 26-07-2019 13:15:00 35.7 C 32 % 16.44 C
1025 26-07-2019 13:20:00 35.8 C 32 % 16.53 C
Sensor: Nr:Datum:Temp:Feuchte:Taupunkt:
Aussen-T/F 1026 26-07-2019 13:25:00 35.8 C 31 % 16.03 C
1027 26-07-2019 13:30:00 35.9 C 30 % 15.6 C
1028 26-07-2019 13:35:00 36.1 C 31 % 16.29 C
1029 26-07-2019 13:40:00 36.2 C 31 % 16.37 C
1030 26-07-2019 13:45:00 36.4 C 31 % 16.54 C
1031 26-07-2019 13:50:00 36.6 C 30 % 16.2 C
1032 26-07-2019 13:55:00 36.8 C 29 % 15.84 C
1033 26-07-2019 14:00:00 36.9 C 29 % 15.93 C
1034 26-07-2019 14:05:00 36.9 C 28 % 15.38 C
1035 26-07-2019 14:10:00 36.8 C 28 % 15.29 C
1036 26-07-2019 14:15:00 36.9 C 28 % 15.38 C
1037 26-07-2019 14:20:00 37.1 C 29 % 16.1 C
1038 26-07-2019 14:25:00 37.4 C 27 % 15.24 C
1039 26-07-2019 14:30:00 37.6 C 26 % 14.82 C
1040 26-07-2019 14:35:00 37.8 C 26 % 14.99 C
1041 26-07-2019 14:40:00 37.8 C 26 % 14.99 C
1042 26-07-2019 14:45:00 37.7 C 24 % 13.67 C
1043 26-07-2019 14:50:00 37.7 C 26 % 14.9 C
1044 26-07-2019 14:55:00 37.7 C 24 % 13.67 C
1045 26-07-2019 15:00:00 38.1 C 25 % 14.63 C
1046 26-07-2019 15:05:00 38.3 C 25 % 14.8 C
1047 26-07-2019 15:10:00 38.6 C 24 % 14.42 C
1048 26-07-2019 15:15:00 38.7 C 25 % 15.13 C
1049 26-07-2019 15:20:00 38.3 C 27 % 16 C
1050 26-07-2019 15:25:00 37.3 C 30 % 16.8 C
Sensor: Nr:Datum:Temp:Feuchte:Taupunkt:
Aussen-T/F 1051 26-07-2019 15:30:00 36.8 C 30 % 16.37 C
1052 26-07-2019 15:35:00 36.3 C 31 % 16.46 C
1053 26-07-2019 15:40:00 35.9 C 31 % 16.11 C
1054 26-07-2019 15:45:00 35.6 C 32 % 16.35 C
1055 26-07-2019 15:50:00 35.7 C 30 % 15.43 C
1056 26-07-2019 15:55:00 35.6 C 30 % 15.34 C
1057 26-07-2019 16:00:00 35.4 C 31 % 15.68 C
1058 26-07-2019 16:05:00 35.3 C 32 % 16.09 C
1059 26-07-2019 16:10:00 35.4 C 32 % 16.18 C
1060 26-07-2019 16:15:00 35.4 C 31 % 15.68 C
1061 26-07-2019 16:20:00 35.5 C 32 % 16.27 C
1062 26-07-2019 16:25:00 35.6 C 37 % 18.65 C
1063 26-07-2019 16:30:00 35.6 C 39 % 19.5 C
1064 26-07-2019 16:35:00 35.6 C 40 % 19.91 C
1065 26-07-2019 16:40:00 35.3 C 32 % 16.09 C
1066 26-07-2019 16:45:00 34.9 C 34 % 16.7 C
1067 26-07-2019 16:50:00 34.8 C 35 % 17.07 C
1068 26-07-2019 16:55:00 34.6 C 33 % 15.97 C
1069 26-07-2019 17:00:00 34.2 C 35 % 16.54 C
1070 26-07-2019 17:05:00 34.1 C 42 % 19.35 C
1071 26-07-2019 17:10:00 33.5 C 39 % 17.64 C
1072 26-07-2019 17:15:00 32.9 C 40 % 17.51 C
1073 26-07-2019 17:20:00 32.6 C 42 % 18.01 C
1074 26-07-2019 17:25:00 32.4 C 44 % 18.57 C
1075 26-07-2019 17:30:00 32.2 C 45 % 18.75 C
Sensor: Nr:Datum:Temp:Feuchte:Taupunkt:
Aussen-T/F 1076 26-07-2019 17:35:00 31.9 C 46 % 18.83 C
1077 26-07-2019 17:40:00 31.8 C 43 % 17.67 C
1078 26-07-2019 17:45:00 31.7 C 44 % 17.94 C
1079 26-07-2019 17:50:00 31.4 C 45 % 18.03 C
1080 26-07-2019 17:55:00 31.3 C 44 % 17.58 C
1081 26-07-2019 18:00:00 31.2 C 45 % 17.85 C
1082 26-07-2019 18:05:00 31.1 C 45 % 17.76 C
1083 26-07-2019 18:10:00 30.9 C 44 % 17.22 C
1084 26-07-2019 18:15:00 30.9 C 44 % 17.22 C
1085 26-07-2019 18:20:00 30.8 C 44 % 17.13 C
1086 26-07-2019 18:25:00 30.7 C 45 % 17.4 C
1087 26-07-2019 18:30:00 30.6 C 45 % 17.31 C
1088 26-07-2019 18:35:00 30.3 C 46 % 17.39 C
1089 26-07-2019 18:40:00 30.1 C 46 % 17.2 C
1090 26-07-2019 18:45:00 29.7 C 46 % 16.84 C
1091 26-07-2019 18:50:00 29.6 C 48 % 17.42 C
1092 26-07-2019 18:55:00 29.4 C 48 % 17.24 C
1093 26-07-2019 19:00:00 29.3 C 49 % 17.48 C
1094 26-07-2019 19:05:00 29.3 C 50 % 17.8 C
1095 26-07-2019 19:10:00 29.2 C 50 % 17.71 C
1096 26-07-2019 19:15:00 29.1 C 50 % 17.61 C
1097 26-07-2019 19:20:00 29.1 C 52 % 18.24 C
1098 26-07-2019 19:25:00 28.9 C 51 % 17.74 C
1099 26-07-2019 19:30:00 28.8 C 53 % 18.26 C
1100 26-07-2019 19:35:00 28.7 C 53 % 18.17 C
Sensor: Nr:Datum:Temp:Feuchte:Taupunkt:
Aussen-T/F 1101 26-07-2019 19:40:00 28.6 C 54 % 18.38 C
1102 26-07-2019 19:45:00 28.4 C 54 % 18.19 C
1103 26-07-2019 19:50:00 28.3 C 54 % 18.1 C
1104 26-07-2019 19:55:00 28.2 C 56 % 18.59 C
1105 26-07-2019 20:00:00 28.1 C 56 % 18.49 C
1106 26-07-2019 20:05:00 28 C 56 % 18.4 C
1107 26-07-2019 20:10:00 27.9 C 57 % 18.59 C
1108 26-07-2019 20:15:00 27.8 C 57 % 18.5 C
1109 26-07-2019 20:20:00 27.7 C 58 % 18.68 C
1110 26-07-2019 20:25:00 27.6 C 57 % 18.31 C
1111 26-07-2019 20:30:00 27.5 C 59 % 18.77 C
1112 26-07-2019 20:35:00 27.4 C 57 % 18.13 C
1113 26-07-2019 20:40:00 27.2 C 59 % 18.49 C
1114 26-07-2019 20:45:00 27.1 C 59 % 18.4 C
1115 26-07-2019 20:50:00 27.1 C 59 % 18.4 C
1116 26-07-2019 20:55:00 26.9 C 59 % 18.21 C
1117 26-07-2019 21:00:00 26.8 C 59 % 18.11 C
1118 26-07-2019 21:05:00 26.7 C 59 % 18.02 C
1119 26-07-2019 21:10:00 26.7 C 59 % 18.02 C
1120 26-07-2019 21:15:00 26.6 C 60 % 18.2 C
1121 26-07-2019 21:20:00 26.4 C 59 % 17.74 C
1122 26-07-2019 21:25:00 26.3 C 59 % 17.65 C
1123 26-07-2019 21:30:00 26.2 C 59 % 17.55 C
1124 26-07-2019 21:35:00 26.2 C 59 % 17.55 C
1125 26-07-2019 21:40:00 26.1 C 59 % 17.46 C
Sensor: Nr:Datum:Temp:Feuchte:Taupunkt:
Aussen-T/F 1126 26-07-2019 21:45:00 26.1 C 60 % 17.73 C
1127 26-07-2019 21:50:00 26 C 60 % 17.63 C
1128 26-07-2019 21:55:00 25.9 C 60 % 17.54 C
1129 26-07-2019 22:00:00 25.9 C 60 % 17.54 C
1130 26-07-2019 22:05:00 25.8 C 61 % 17.71 C
1131 26-07-2019 22:10:00 25.7 C 61 % 17.61 C
1132 26-07-2019 22:15:00 25.7 C 61 % 17.61 C
1133 26-07-2019 22:20:00 25.7 C 62 % 17.87 C
1134 26-07-2019 22:25:00 25.7 C 62 % 17.87 C
1135 26-07-2019 22:30:00 25.6 C 63 % 18.03 C
1136 26-07-2019 22:35:00 25.4 C 63 % 17.84 C
1137 26-07-2019 22:40:00 25.3 C 62 % 17.5 C
1138 26-07-2019 22:45:00 25.2 C 63 % 17.65 C
1139 26-07-2019 22:50:00 25.1 C 63 % 17.56 C
1140 26-07-2019 22:55:00 24.9 C 64 % 17.62 C
1141 26-07-2019 23:00:00 24.8 C 65 % 17.77 C
1142 26-07-2019 23:05:00 24.8 C 65 % 17.77 C
1143 26-07-2019 23:10:00 24.7 C 66 % 17.92 C
1144 26-07-2019 23:15:00 24.6 C 66 % 17.83 C
1145 26-07-2019 23:20:00 24.5 C 67 % 17.97 C
1146 26-07-2019 23:25:00 24.4 C 67 % 17.87 C
1147 26-07-2019 23:30:00 24.3 C 67 % 17.78 C
1148 26-07-2019 23:35:00 24.2 C 67 % 17.68 C
1149 26-07-2019 23:40:00 24.2 C 67 % 17.68 C
1150 26-07-2019 23:45:00 24.1 C 68 % 17.82 C
Sensor: Nr:Datum:Temp:Feuchte:Taupunkt:
Aussen-T/F 1151 26-07-2019 23:50:00 23.9 C 68 % 17.63 C
1152 26-07-2019 23:55:00 23.8 C 68 % 17.54 C
1153 27-07-2019 00:00:00 23.6 C 69 % 17.58 C
1154 27-07-2019 00:05:00 23.4 C 69 % 17.39 C
1155 27-07-2019 00:10:00 23.3 C 69 % 17.29 C
1156 27-07-2019 00:15:00 23.3 C 70 % 17.52 C
1157 27-07-2019 00:20:00 23.2 C 70 % 17.42 C
1158 27-07-2019 00:25:00 23.2 C 70 % 17.42 C
1159 27-07-2019 00:30:00 23.1 C 70 % 17.33 C
1160 27-07-2019 00:35:00 23.1 C 71 % 17.55 C
1161 27-07-2019 00:40:00 23 C 71 % 17.46 C
1162 27-07-2019 00:45:00 22.9 C 71 % 17.36 C
1163 27-07-2019 00:50:00 22.9 C 71 % 17.36 C
1164 27-07-2019 00:55:00 22.8 C 72 % 17.49 C
1165 27-07-2019 01:00:00 22.8 C 72 % 17.49 C
1166 27-07-2019 01:05:00 22.7 C 72 % 17.39 C
1167 27-07-2019 01:10:00 22.7 C 73 % 17.61 C
1168 27-07-2019 01:15:00 22.6 C 73 % 17.51 C
1169 27-07-2019 01:20:00 22.7 C 74 % 17.83 C
1170 27-07-2019 01:25:00 22.7 C 73 % 17.61 C
1171 27-07-2019 01:30:00 22.7 C 73 % 17.61 C
1172 27-07-2019 01:35:00 22.7 C 73 % 17.61 C
1173 27-07-2019 01:40:00 22.7 C 74 % 17.83 C
1174 27-07-2019 01:45:00 22.6 C 74 % 17.73 C
1175 27-07-2019 01:50:00 22.4 C 74 % 17.54 C
Sensor: Nr:Datum:Temp:Feuchte:Taupunkt:
Aussen-T/F 1176 27-07-2019 01:55:00 22.3 C 74 % 17.44 C
1177 27-07-2019 02:00:00 22.3 C 74 % 17.44 C
1178 27-07-2019 02:05:00 22.3 C 73 % 17.23 C
1179 27-07-2019 02:10:00 22.3 C 73 % 17.23 C
1180 27-07-2019 02:15:00 22.3 C 75 % 17.65 C
1181 27-07-2019 02:20:00 22.4 C 75 % 17.75 C
1182 27-07-2019 02:25:00 22.4 C 76 % 17.96 C
1183 27-07-2019 02:30:00 22.4 C 76 % 17.96 C
1184 27-07-2019 02:35:00 22.4 C 76 % 17.96 C
1185 27-07-2019 02:40:00 22.3 C 76 % 17.86 C
1186 27-07-2019 02:45:00 22.3 C 76 % 17.86 C
1187 27-07-2019 02:50:00 22.3 C 76 % 17.86 C
1188 27-07-2019 02:55:00 22.3 C 76 % 17.86 C
1189 27-07-2019 03:00:00 22.3 C 76 % 17.86 C
1190 27-07-2019 03:05:00 22.3 C 76 % 17.86 C
1191 27-07-2019 03:10:00 22.3 C 74 % 17.44 C
1192 27-07-2019 03:15:00 22.4 C 74 % 17.54 C
1193 27-07-2019 03:20:00 22.5 C 73 % 17.42 C
1194 27-07-2019 03:25:00 22.6 C 72 % 17.3 C
1195 27-07-2019 03:30:00 22.6 C 71 % 17.07 C
1196 27-07-2019 03:35:00 22.8 C 69 % 16.82 C
1197 27-07-2019 03:40:00 23.2 C 75 % 18.52 C
1198 27-07-2019 03:45:00 23.1 C 78 % 19.05 C
1199 27-07-2019 03:50:00 22.7 C 79 % 18.87 C
1200 27-07-2019 03:55:00 22.3 C 80 % 18.68 C
Sensor: Nr:Datum:Temp:Feuchte:Taupunkt:
Aussen-T/F 1201 27-07-2019 04:00:00 21.9 C 83 % 18.88 C
1202 27-07-2019 04:05:00 21.7 C 84 % 18.88 C
1203 27-07-2019 04:10:00 21.4 C 85 % 18.77 C
1204 27-07-2019 04:15:00 21.1 C 85 % 18.48 C
1205 27-07-2019 04:20:00 20.9 C 86 % 18.47 C
1206 27-07-2019 04:25:00 20.8 C 87 % 18.56 C
1207 27-07-2019 04:30:00 20.7 C 87 % 18.46 C
1208 27-07-2019 04:35:00 20.6 C 87 % 18.36 C
1209 27-07-2019 04:40:00 20.5 C 88 % 18.44 C
1210 27-07-2019 04:45:00 20.4 C 88 % 18.34 C
1211 27-07-2019 04:50:00 20.4 C 88 % 18.34 C
1212 27-07-2019 04:55:00 20.4 C 89 % 18.53 C
1213 27-07-2019 05:00:00 20.4 C 88 % 18.34 C
1214 27-07-2019 05:05:00 20.4 C 88 % 18.34 C
1215 27-07-2019 05:10:00 20.3 C 89 % 18.43 C
1216 27-07-2019 05:15:00 20.3 C 89 % 18.43 C
1217 27-07-2019 05:20:00 20.3 C 89 % 18.43 C
1218 27-07-2019 05:25:00 20.3 C 89 % 18.43 C
1219 27-07-2019 05:30:00 20.2 C 89 % 18.33 C
1220 27-07-2019 05:35:00 20.3 C 89 % 18.43 C
1221 27-07-2019 05:40:00 20.2 C 89 % 18.33 C
1222 27-07-2019 05:45:00 20.2 C 89 % 18.33 C
1223 27-07-2019 05:50:00 20.2 C 89 % 18.33 C
1224 27-07-2019 05:55:00 20.2 C 88 % 18.15 C
1225 27-07-2019 06:00:00 20.2 C 88 % 18.15 C
Sensor: Nr:Datum:Temp:Feuchte:Taupunkt:
Aussen-T/F 1226 27-07-2019 06:05:00 20.3 C 89 % 18.43 C
1227 27-07-2019 06:10:00 20.3 C 88 % 18.25 C
1228 27-07-2019 06:15:00 20.3 C 89 % 18.43 C
1229 27-07-2019 06:20:00 20.3 C 88 % 18.25 C
1230 27-07-2019 06:25:00 20.4 C 89 % 18.53 C
1231 27-07-2019 06:30:00 20.6 C 89 % 18.72 C
1232 27-07-2019 06:35:00 20.7 C 89 % 18.82 C
1233 27-07-2019 06:40:00 20.7 C 88 % 18.64 C
1234 27-07-2019 06:45:00 20.8 C 88 % 18.74 C
1235 27-07-2019 06:50:00 20.8 C 89 % 18.92 C
1236 27-07-2019 06:55:00 20.9 C 89 % 19.02 C
1237 27-07-2019 07:00:00 20.9 C 89 % 19.02 C
1238 27-07-2019 07:05:00 21 C 89 % 19.12 C
1239 27-07-2019 07:10:00 20.9 C 88 % 18.84 C
1240 27-07-2019 07:15:00 21 C 89 % 19.12 C
1241 27-07-2019 07:20:00 21.1 C 88 % 19.03 C
1242 27-07-2019 07:25:00 21.2 C 88 % 19.13 C
1243 27-07-2019 07:30:00 21.3 C 89 % 19.41 C
1244 27-07-2019 07:35:00 21.4 C 89 % 19.51 C
1245 27-07-2019 07:40:00 21.4 C 88 % 19.33 C
1246 27-07-2019 07:45:00 21.5 C 88 % 19.43 C
1247 27-07-2019 07:50:00 21.6 C 87 % 19.34 C
1248 27-07-2019 07:55:00 21.7 C 86 % 19.25 C
1249 27-07-2019 08:00:00 21.8 C 86 % 19.35 C
1250 27-07-2019 08:05:00 21.9 C 86 % 19.45 C
Sensor: Nr:Datum:Temp:Feuchte:Taupunkt:
Aussen-T/F 1251 27-07-2019 08:10:00 22.1 C 86 % 19.65 C
1252 27-07-2019 08:15:00 22.1 C 84 % 19.27 C
1253 27-07-2019 08:20:00 22.2 C 83 % 19.17 C
1254 27-07-2019 08:25:00 22.3 C 82 % 19.08 C
1255 27-07-2019 08:30:00 22.5 C 81 % 19.08 C
1256 27-07-2019 08:35:00 22.8 C 80 % 19.17 C
1257 27-07-2019 08:40:00 23 C 78 % 18.96 C
1258 27-07-2019 08:45:00 23.2 C 78 % 19.15 C
1259 27-07-2019 08:50:00 23.4 C 77 % 19.14 C
1260 27-07-2019 08:55:00 23.6 C 76 % 19.12 C
1261 27-07-2019 09:00:00 23.8 C 76 % 19.31 C
1262 27-07-2019 09:05:00 24.1 C 76 % 19.6 C
1263 27-07-2019 09:10:00 24.3 C 76 % 19.8 C
1264 27-07-2019 09:15:00 24.4 C 74 % 19.46 C
1265 27-07-2019 09:20:00 24.6 C 73 % 19.44 C
1266 27-07-2019 09:25:00 24.8 C 73 % 19.63 C
1267 27-07-2019 09:30:00 24.9 C 73 % 19.72 C
1268 27-07-2019 09:35:00 25.1 C 73 % 19.92 C
1269 27-07-2019 09:40:00 25.1 C 72 % 19.69 C
1270 27-07-2019 09:45:00 25.2 C 72 % 19.79 C
1271 27-07-2019 09:50:00 25.2 C 72 % 19.79 C
1272 27-07-2019 09:55:00 25.2 C 72 % 19.79 C
1273 27-07-2019 10:00:00 25.2 C 72 % 19.79 C
1274 27-07-2019 10:05:00 25.3 C 71 % 19.66 C
1275 27-07-2019 10:10:00 25.3 C 71 % 19.66 C
Sensor: Nr:Datum:Temp:Feuchte:Taupunkt:
Aussen-T/F 1276 27-07-2019 10:15:00 25.3 C 80 % 21.6 C
1277 27-07-2019 10:20:00 25 C 82 % 21.71 C
1278 27-07-2019 10:25:00 24.7 C 84 % 21.81 C
1279 27-07-2019 10:30:00 24.4 C 85 % 21.71 C
1280 27-07-2019 10:35:00 24.2 C 86 % 21.71 C
1281 27-07-2019 10:40:00 24.1 C 87 % 21.8 C
1282 27-07-2019 10:45:00 24.1 C 88 % 21.99 C
1283 27-07-2019 10:50:00 24.1 C 87 % 21.8 C
1284 27-07-2019 10:55:00 24 C 87 % 21.7 C
1285 27-07-2019 11:00:00 24 C 88 % 21.89 C
1286 27-07-2019 11:05:00 24.1 C 88 % 21.99 C
1287 27-07-2019 11:10:00 24.1 C 88 % 21.99 C
1288 27-07-2019 11:15:00 24.1 C 88 % 21.99 C
1289 27-07-2019 11:20:00 24.2 C 88 % 22.08 C
1290 27-07-2019 11:25:00 24.2 C 88 % 22.08 C
1291 27-07-2019 11:30:00 24.2 C 87 % 21.9 C
1292 27-07-2019 11:35:00 24 C 85 % 21.32 C
1293 27-07-2019 11:40:00 23.9 C 85 % 21.22 C
1294 27-07-2019 11:45:00 23.7 C 85 % 21.03 C
1295 27-07-2019 11:50:00 23.5 C 84 % 20.64 C
1296 27-07-2019 11:55:00 23.3 C 85 % 20.63 C
1297 27-07-2019 12:00:00 23.2 C 85 % 20.54 C
1298 27-07-2019 12:05:00 23.2 C 87 % 20.91 C
1299 27-07-2019 12:10:00 23.2 C 88 % 21.1 C
1300 27-07-2019 12:15:00 23.2 C 88 % 21.1 C
Sensor: Nr:Datum:Temp:Feuchte:Taupunkt:
Aussen-T/F 1301 27-07-2019 12:20:00 23.2 C 86 % 20.73 C
1302 27-07-2019 12:25:00 23.3 C 85 % 20.63 C
1303 27-07-2019 12:30:00 23.5 C 84 % 20.64 C
1304 27-07-2019 12:35:00 23.8 C 81 % 20.34 C
1305 27-07-2019 12:40:00 24.1 C 80 % 20.43 C
1306 27-07-2019 12:45:00 24.4 C 82 % 21.12 C
1307 27-07-2019 12:50:00 24.8 C 78 % 20.7 C
1308 27-07-2019 12:55:00 25.1 C 78 % 20.99 C
1309 27-07-2019 13:00:00 25.3 C 75 % 20.55 C
1310 27-07-2019 13:05:00 25.5 C 76 % 20.95 C
1311 27-07-2019 13:10:00 25.7 C 74 % 20.71 C
1312 27-07-2019 13:15:00 26 C 75 % 21.22 C
1313 27-07-2019 13:20:00 26.2 C 74 % 21.2 C
1314 27-07-2019 13:25:00 26.2 C 74 % 21.2 C
1315 27-07-2019 13:30:00 26.1 C 75 % 21.32 C
1316 27-07-2019 13:35:00 26.2 C 75 % 21.41 C
1317 27-07-2019 13:40:00 26.2 C 74 % 21.2 C
1318 27-07-2019 13:45:00 26.2 C 72 % 20.75 C
1319 27-07-2019 13:50:00 26.2 C 70 % 20.29 C
1320 27-07-2019 13:55:00 26.2 C 72 % 20.75 C
1321 27-07-2019 14:00:00 26.2 C 69 % 20.06 C
1322 27-07-2019 14:05:00 26.1 C 70 % 20.2 C
1323 27-07-2019 14:10:00 25.9 C 70 % 20.01 C
1324 27-07-2019 14:15:00 25.9 C 68 % 19.54 C
1325 27-07-2019 14:20:00 25.8 C 70 % 19.91 C
Sensor: Nr:Datum:Temp:Feuchte:Taupunkt:
Aussen-T/F 1326 27-07-2019 14:25:00 25.7 C 69 % 19.58 C
1327 27-07-2019 14:30:00 25.6 C 71 % 19.95 C
1328 27-07-2019 14:35:00 25.5 C 71 % 19.85 C
1329 27-07-2019 14:40:00 25.5 C 73 % 20.3 C
1330 27-07-2019 14:45:00 25.5 C 73 % 20.3 C
1331 27-07-2019 14:50:00 25.5 C 75 % 20.74 C
1332 27-07-2019 14:55:00 25.5 C 74 % 20.52 C
1333 27-07-2019 15:00:00 25.3 C 74 % 20.33 C
1334 27-07-2019 15:05:00 25.1 C 74 % 20.14 C
1335 27-07-2019 15:10:00 24.8 C 74 % 19.85 C
1336 27-07-2019 15:15:00 24.7 C 75 % 19.97 C
1337 27-07-2019 15:20:00 24.7 C 75 % 19.97 C
1338 27-07-2019 15:25:00 24.8 C 75 % 20.06 C
1339 27-07-2019 15:30:00 24.8 C 74 % 19.85 C
1340 27-07-2019 15:35:00 25 C 74 % 20.04 C
1341 27-07-2019 15:40:00 25.1 C 74 % 20.14 C
1342 27-07-2019 15:45:00 25.2 C 73 % 20.01 C
1343 27-07-2019 15:50:00 25.4 C 73 % 20.21 C
1344 27-07-2019 15:55:00 25.6 C 74 % 20.62 C
1345 27-07-2019 16:00:00 25.8 C 72 % 20.37 C
1346 27-07-2019 16:05:00 26.1 C 70 % 20.2 C
1347 27-07-2019 16:10:00 26.2 C 68 % 19.82 C
1348 27-07-2019 16:15:00 26.2 C 67 % 19.59 C
1349 27-07-2019 16:20:00 26.2 C 68 % 19.82 C
1350 27-07-2019 16:25:00 26.3 C 68 % 19.92 C
Sensor: Nr:Datum:Temp:Feuchte:Taupunkt:
Aussen-T/F 1351 27-07-2019 16:30:00 26.3 C 67 % 19.68 C
1352 27-07-2019 16:35:00 26.2 C 67 % 19.59 C
1353 27-07-2019 16:40:00 25.9 C 68 % 19.54 C
1354 27-07-2019 16:45:00 25.7 C 67 % 19.11 C
1355 27-07-2019 16:50:00 25.5 C 69 % 19.39 C
1356 27-07-2019 16:55:00 25.2 C 71 % 19.56 C
1357 27-07-2019 17:00:00 24.9 C 73 % 19.72 C
1358 27-07-2019 17:05:00 24.6 C 74 % 19.66 C
1359 27-07-2019 17:10:00 24.5 C 76 % 19.99 C
1360 27-07-2019 17:15:00 24.5 C 77 % 20.2 C
1361 27-07-2019 17:20:00 24.5 C 77 % 20.2 C
1362 27-07-2019 17:25:00 24.5 C 77 % 20.2 C
1363 27-07-2019 17:30:00 24.4 C 76 % 19.89 C
1364 27-07-2019 17:35:00 24.4 C 76 % 19.89 C
1365 27-07-2019 17:40:00 24.4 C 77 % 20.1 C
1366 27-07-2019 17:45:00 24.4 C 76 % 19.89 C
1367 27-07-2019 17:50:00 24.4 C 76 % 19.89 C
1368 27-07-2019 17:55:00 24.4 C 76 % 19.89 C
1369 27-07-2019 18:00:00 24.4 C 77 % 20.1 C
1370 27-07-2019 18:05:00 24.4 C 77 % 20.1 C
1371 27-07-2019 18:10:00 24.4 C 76 % 19.89 C
1372 27-07-2019 18:15:00 24.6 C 77 % 20.3 C
1373 27-07-2019 18:20:00 24.8 C 76 % 20.28 C
1374 27-07-2019 18:25:00 25.1 C 75 % 20.35 C
1375 27-07-2019 18:30:00 25.4 C 75 % 20.64 C
Sensor: Nr:Datum:Temp:Feuchte:Taupunkt:
Aussen-T/F 1376 27-07-2019 18:35:00 25.3 C 75 % 20.55 C
1377 27-07-2019 18:40:00 25.3 C 75 % 20.55 C
1378 27-07-2019 18:45:00 25.2 C 75 % 20.45 C
1379 27-07-2019 18:50:00 25.1 C 75 % 20.35 C
1380 27-07-2019 18:55:00 24.9 C 76 % 20.38 C
1381 27-07-2019 19:00:00 24.7 C 77 % 20.39 C
1382 27-07-2019 19:05:00 24.5 C 77 % 20.2 C
1383 27-07-2019 19:10:00 24.3 C 76 % 19.8 C
1384 27-07-2019 19:15:00 24.1 C 77 % 19.81 C
1385 27-07-2019 19:20:00 23.9 C 79 % 20.03 C
1386 27-07-2019 19:25:00 23.8 C 81 % 20.34 C
1387 27-07-2019 19:30:00 23.7 C 82 % 20.44 C
1388 27-07-2019 19:35:00 23.6 C 83 % 20.54 C
1389 27-07-2019 19:40:00 23.4 C 84 % 20.54 C
1390 27-07-2019 19:45:00 23.4 C 84 % 20.54 C
1391 27-07-2019 19:50:00 23.4 C 85 % 20.73 C
1392 27-07-2019 19:55:00 23.3 C 84 % 20.44 C
1393 27-07-2019 20:00:00 23.2 C 84 % 20.34 C
1394 27-07-2019 20:05:00 23.1 C 85 % 20.44 C
1395 27-07-2019 20:10:00 23.1 C 85 % 20.44 C
1396 27-07-2019 20:15:00 23 C 85 % 20.34 C
1397 27-07-2019 20:20:00 23 C 85 % 20.34 C
1398 27-07-2019 20:25:00 22.9 C 85 % 20.24 C
1399 27-07-2019 20:30:00 22.8 C 85 % 20.14 C
1400 27-07-2019 20:35:00 22.8 C 85 % 20.14 C
Sensor: Nr:Datum:Temp:Feuchte:Taupunkt:
Aussen-T/F 1401 27-07-2019 20:40:00 22.8 C 85 % 20.14 C
1402 27-07-2019 20:45:00 22.7 C 85 % 20.05 C
1403 27-07-2019 20:50:00 22.6 C 85 % 19.95 C
1404 27-07-2019 20:55:00 22.6 C 85 % 19.95 C
1405 27-07-2019 21:00:00 22.4 C 85 % 19.75 C
1406 27-07-2019 21:05:00 22.4 C 85 % 19.75 C
1407 27-07-2019 21:10:00 22.3 C 85 % 19.65 C
1408 27-07-2019 21:15:00 22.3 C 85 % 19.65 C
1409 27-07-2019 21:20:00 22.2 C 86 % 19.75 C
1410 27-07-2019 21:25:00 22.1 C 86 % 19.65 C
1411 27-07-2019 21:30:00 22.1 C 86 % 19.65 C
1412 27-07-2019 21:35:00 21.9 C 86 % 19.45 C
1413 27-07-2019 21:40:00 21.9 C 86 % 19.45 C
1414 27-07-2019 21:45:00 21.8 C 86 % 19.35 C
1415 27-07-2019 21:50:00 21.8 C 86 % 19.35 C
1416 27-07-2019 21:55:00 21.7 C 86 % 19.25 C
1417 27-07-2019 22:00:00 21.7 C 86 % 19.25 C
1418 27-07-2019 22:05:00 21.6 C 87 % 19.34 C
1419 27-07-2019 22:10:00 21.6 C 87 % 19.34 C
1420 27-07-2019 22:15:00 21.6 C 87 % 19.34 C
1421 27-07-2019 22:20:00 21.5 C 87 % 19.24 C
1422 27-07-2019 22:25:00 21.4 C 87 % 19.15 C
1423 27-07-2019 22:30:00 21.4 C 87 % 19.15 C
1424 27-07-2019 22:35:00 21.4 C 87 % 19.15 C
1425 27-07-2019 22:40:00 21.3 C 87 % 19.05 C
Sensor: Nr:Datum:Temp:Feuchte:Taupunkt:
Aussen-T/F 1426 27-07-2019 22:45:00 21.3 C 88 % 19.23 C
1427 27-07-2019 22:50:00 21.3 C 88 % 19.23 C
1428 27-07-2019 22:55:00 21.3 C 88 % 19.23 C
1429 27-07-2019 23:00:00 21.3 C 88 % 19.23 C
1430 27-07-2019 23:05:00 21.2 C 88 % 19.13 C
1431 27-07-2019 23:10:00 21.2 C 88 % 19.13 C
1432 27-07-2019 23:15:00 21.2 C 89 % 19.31 C
1433 27-07-2019 23:20:00 21.2 C 89 % 19.31 C
1434 27-07-2019 23:25:00 21.2 C 89 % 19.31 C
1435 27-07-2019 23:30:00 21.1 C 89 % 19.22 C
1436 27-07-2019 23:35:00 21.1 C 89 % 19.22 C
1437 27-07-2019 23:40:00 21.1 C 89 % 19.22 C
1438 27-07-2019 23:45:00 21.1 C 89 % 19.22 C
1439 27-07-2019 23:50:00 21 C 89 % 19.12 C
1440 27-07-2019 23:55:00 21 C 89 % 19.12 C
1441 28-07-2019 00:00:00 20.9 C 89 % 19.02 C
1442 28-07-2019 00:05:00 20.9 C 90 % 19.2 C
1443 28-07-2019 00:10:00 20.9 C 90 % 19.2 C
1444 28-07-2019 00:15:00 20.9 C 90 % 19.2 C
1445 28-07-2019 00:20:00 20.8 C 90 % 19.1 C
1446 28-07-2019 00:25:00 20.8 C 90 % 19.1 C
1447 28-07-2019 00:30:00 20.8 C 90 % 19.1 C
1448 28-07-2019 00:35:00 20.8 C 90 % 19.1 C
1449 28-07-2019 00:40:00 20.8 C 90 % 19.1 C
1450 28-07-2019 00:45:00 20.8 C 90 % 19.1 C
Sensor: Nr:Datum:Temp:Feuchte:Taupunkt:
Aussen-T/F 1451 28-07-2019 00:50:00 20.8 C 90 % 19.1 C
1452 28-07-2019 00:55:00 20.8 C 90 % 19.1 C
1453 28-07-2019 01:00:00 20.8 C 90 % 19.1 C
1454 28-07-2019 01:05:00 20.7 C 90 % 19 C
1455 28-07-2019 01:10:00 20.7 C 90 % 19 C
1456 28-07-2019 01:15:00 20.7 C 90 % 19 C
1457 28-07-2019 01:20:00 20.7 C 90 % 19 C
1458 28-07-2019 01:25:00 20.7 C 90 % 19 C
1459 28-07-2019 01:30:00 20.7 C 90 % 19 C
1460 28-07-2019 01:35:00 20.7 C 90 % 19 C
1461 28-07-2019 01:40:00 20.7 C 90 % 19 C
1462 28-07-2019 01:45:00 20.7 C 90 % 19 C
1463 28-07-2019 01:50:00 20.7 C 90 % 19 C
1464 28-07-2019 01:55:00 20.7 C 90 % 19 C
1465 28-07-2019 02:00:00 20.7 C 90 % 19 C
1466 28-07-2019 02:05:00 20.7 C 90 % 19 C
1467 28-07-2019 02:10:00 20.7 C 90 % 19 C
1468 28-07-2019 02:15:00 20.7 C 90 % 19 C
1469 28-07-2019 02:20:00 20.7 C 90 % 19 C
1470 28-07-2019 02:25:00 20.7 C 90 % 19 C
1471 28-07-2019 02:30:00 20.7 C 90 % 19 C
1472 28-07-2019 02:35:00 20.7 C 90 % 19 C
1473 28-07-2019 02:40:00 20.7 C 90 % 19 C
1474 28-07-2019 02:45:00 20.7 C 90 % 19 C
1475 28-07-2019 02:50:00 20.7 C 90 % 19 C
Sensor: Nr:Datum:Temp:Feuchte:Taupunkt:
Aussen-T/F 1476 28-07-2019 02:55:00 20.7 C 90 % 19 C
1477 28-07-2019 03:00:00 20.7 C 90 % 19 C
1478 28-07-2019 03:05:00 20.7 C 90 % 19 C
1479 28-07-2019 03:10:00 20.7 C 90 % 19 C
1480 28-07-2019 03:15:00 20.7 C 90 % 19 C
1481 28-07-2019 03:20:00 20.7 C 90 % 19 C
1482 28-07-2019 03:25:00 20.7 C 90 % 19 C
1483 28-07-2019 03:30:00 20.7 C 90 % 19 C
1484 28-07-2019 03:35:00 20.7 C 90 % 19 C
1485 28-07-2019 03:40:00 20.7 C 90 % 19 C
1486 28-07-2019 03:45:00 20.7 C 90 % 19 C
1487 28-07-2019 03:50:00 20.6 C 90 % 18.9 C
1488 28-07-2019 03:55:00 20.6 C 90 % 18.9 C
1489 28-07-2019 04:00:00 20.7 C 90 % 19 C
1490 28-07-2019 04:05:00 20.6 C 90 % 18.9 C
1491 28-07-2019 04:10:00 20.6 C 91 % 19.08 C
1492 28-07-2019 04:15:00 20.6 C 91 % 19.08 C
1493 28-07-2019 04:20:00 20.6 C 91 % 19.08 C
1494 28-07-2019 04:25:00 20.6 C 91 % 19.08 C
1495 28-07-2019 04:30:00 20.6 C 91 % 19.08 C
1496 28-07-2019 04:35:00 20.6 C 91 % 19.08 C
1497 28-07-2019 04:40:00 20.6 C 91 % 19.08 C
1498 28-07-2019 04:45:00 20.6 C 91 % 19.08 C
1499 28-07-2019 04:50:00 20.6 C 91 % 19.08 C
1500 28-07-2019 04:55:00 20.6 C 91 % 19.08 C
Sensor: Nr:Datum:Temp:Feuchte:Taupunkt:
Aussen-T/F 1501 28-07-2019 05:00:00 20.6 C 91 % 19.08 C
1502 28-07-2019 05:05:00 20.6 C 91 % 19.08 C
1503 28-07-2019 05:10:00 20.6 C 91 % 19.08 C
1504 28-07-2019 05:15:00 20.6 C 91 % 19.08 C
1505 28-07-2019 05:20:00 20.6 C 91 % 19.08 C
1506 28-07-2019 05:25:00 20.6 C 91 % 19.08 C
1507 28-07-2019 05:30:00 20.5 C 91 % 18.98 C
1508 28-07-2019 05:35:00 20.5 C 91 % 18.98 C
1509 28-07-2019 05:40:00 20.5 C 91 % 18.98 C
1510 28-07-2019 05:45:00 20.5 C 91 % 18.98 C
1511 28-07-2019 05:50:00 20.5 C 91 % 18.98 C
1512 28-07-2019 05:55:00 20.5 C 91 % 18.98 C
1513 28-07-2019 06:00:00 20.5 C 91 % 18.98 C
1514 28-07-2019 06:05:00 20.5 C 91 % 18.98 C
1515 28-07-2019 06:10:00 20.5 C 91 % 18.98 C
1516 28-07-2019 06:15:00 20.5 C 91 % 18.98 C
1517 28-07-2019 06:20:00 20.5 C 91 % 18.98 C
1518 28-07-2019 06:25:00 20.5 C 91 % 18.98 C
1519 28-07-2019 06:30:00 20.5 C 91 % 18.98 C
1520 28-07-2019 06:35:00 20.6 C 91 % 19.08 C
1521 28-07-2019 06:40:00 20.6 C 91 % 19.08 C
1522 28-07-2019 06:45:00 20.6 C 91 % 19.08 C
1523 28-07-2019 06:50:00 20.6 C 91 % 19.08 C
1524 28-07-2019 06:55:00 20.6 C 91 % 19.08 C
1525 28-07-2019 07:00:00 20.6 C 91 % 19.08 C
Sensor: Nr:Datum:Temp:Feuchte:Taupunkt:
Aussen-T/F 1526 28-07-2019 07:05:00 20.7 C 91 % 19.18 C
1527 28-07-2019 07:10:00 20.7 C 91 % 19.18 C
1528 28-07-2019 07:15:00 20.7 C 90 % 19 C
1529 28-07-2019 07:20:00 20.7 C 90 % 19 C
1530 28-07-2019 07:25:00 20.7 C 90 % 19 C
1531 28-07-2019 07:30:00 20.7 C 90 % 19 C
1532 28-07-2019 07:35:00 20.7 C 90 % 19 C
1533 28-07-2019 07:40:00 20.7 C 90 % 19 C
1534 28-07-2019 07:45:00 20.7 C 89 % 18.82 C
1535 28-07-2019 07:50:00 20.7 C 89 % 18.82 C
1536 28-07-2019 07:55:00 20.7 C 89 % 18.82 C
1537 28-07-2019 08:00:00 20.7 C 89 % 18.82 C
1538 28-07-2019 08:05:00 20.7 C 89 % 18.82 C
1539 28-07-2019 08:10:00 20.8 C 89 % 18.92 C
1540 28-07-2019 08:15:00 20.8 C 89 % 18.92 C
1541 28-07-2019 08:20:00 20.7 C 89 % 18.82 C
1542 28-07-2019 08:25:00 20.7 C 89 % 18.82 C
1543 28-07-2019 08:30:00 20.7 C 89 % 18.82 C
1544 28-07-2019 08:35:00 20.7 C 89 % 18.82 C
1545 28-07-2019 08:40:00 20.7 C 89 % 18.82 C
1546 28-07-2019 08:45:00 20.7 C 89 % 18.82 C
1547 28-07-2019 08:50:00 20.7 C 89 % 18.82 C
1548 28-07-2019 08:55:00 20.7 C 90 % 19 C
1549 28-07-2019 09:00:00 20.6 C 90 % 18.9 C
1550 28-07-2019 09:05:00 20.6 C 90 % 18.9 C
Sensor: Nr:Datum:Temp:Feuchte:Taupunkt:
Aussen-T/F 1551 28-07-2019 09:10:00 20.6 C 90 % 18.9 C
1552 28-07-2019 09:15:00 20.6 C 90 % 18.9 C
1553 28-07-2019 09:20:00 20.5 C 90 % 18.8 C
1554 28-07-2019 09:25:00 20.4 C 90 % 18.7 C
1555 28-07-2019 09:30:00 20.4 C 90 % 18.7 C
1556 28-07-2019 09:35:00 20.3 C 90 % 18.61 C
1557 28-07-2019 09:40:00 20.3 C 91 % 18.78 C
1558 28-07-2019 09:45:00 20.3 C 91 % 18.78 C
1559 28-07-2019 09:50:00 20.3 C 91 % 18.78 C
1560 28-07-2019 09:55:00 20.2 C 91 % 18.68 C
1561 28-07-2019 10:00:00 20.2 C 91 % 18.68 C
1562 28-07-2019 10:05:00 20.2 C 91 % 18.68 C
1563 28-07-2019 10:10:00 20.2 C 91 % 18.68 C
1564 28-07-2019 10:15:00 20.2 C 91 % 18.68 C
1565 28-07-2019 10:20:00 20.1 C 91 % 18.58 C
1566 28-07-2019 10:25:00 20.1 C 92 % 18.76 C
1567 28-07-2019 10:30:00 19.9 C 92 % 18.56 C
1568 28-07-2019 10:35:00 19.9 C 92 % 18.56 C
1569 28-07-2019 10:40:00 19.9 C 92 % 18.56 C
1570 28-07-2019 10:45:00 19.9 C 93 % 18.73 C
1571 28-07-2019 10:50:00 19.8 C 93 % 18.63 C
1572 28-07-2019 10:55:00 19.9 C 93 % 18.73 C
1573 28-07-2019 11:00:00 19.8 C 93 % 18.63 C
1574 28-07-2019 11:05:00 19.8 C 93 % 18.63 C
1575 28-07-2019 11:10:00 19.8 C 93 % 18.63 C
Sensor: Nr:Datum:Temp:Feuchte:Taupunkt:
Aussen-T/F 1576 28-07-2019 11:15:00 19.8 C 93 % 18.63 C
1577 28-07-2019 11:20:00 19.9 C 93 % 18.73 C
1578 28-07-2019 11:25:00 19.9 C 93 % 18.73 C
1579 28-07-2019 11:30:00 20.1 C 92 % 18.76 C
1580 28-07-2019 11:35:00 20.2 C 92 % 18.86 C
1581 28-07-2019 11:40:00 20.3 C 91 % 18.78 C
1582 28-07-2019 11:45:00 20.4 C 90 % 18.7 C
1583 28-07-2019 11:50:00 20.4 C 90 % 18.7 C
1584 28-07-2019 11:55:00 20.6 C 89 % 18.72 C
1585 28-07-2019 12:00:00 20.6 C 89 % 18.72 C
1586 28-07-2019 12:05:00 20.5 C 89 % 18.62 C
1587 28-07-2019 12:10:00 20.5 C 89 % 18.62 C
1588 28-07-2019 12:15:00 20.5 C 88 % 18.44 C
1589 28-07-2019 12:20:00 20.5 C 88 % 18.44 C
1590 28-07-2019 12:25:00 20.5 C 88 % 18.44 C
1591 28-07-2019 12:30:00 20.4 C 87 % 18.16 C
1592 28-07-2019 12:35:00 20.5 C 87 % 18.26 C
1593 28-07-2019 12:40:00 20.6 C 88 % 18.54 C
1594 28-07-2019 12:45:00 20.5 C 87 % 18.26 C
1595 28-07-2019 12:50:00 20.5 C 87 % 18.26 C
1596 28-07-2019 12:55:00 20.5 C 87 % 18.26 C
1597 28-07-2019 13:00:00 20.5 C 87 % 18.26 C
1598 28-07-2019 13:05:00 20.6 C 87 % 18.36 C
1599 28-07-2019 13:10:00 20.5 C 86 % 18.08 C
1600 28-07-2019 13:15:00 20.5 C 86 % 18.08 C
Sensor: Nr:Datum:Temp:Feuchte:Taupunkt:
Aussen-T/F 1601 28-07-2019 13:20:00 20.4 C 86 % 17.98 C
1602 28-07-2019 13:25:00 20.4 C 87 % 18.16 C
1603 28-07-2019 13:30:00 20.4 C 87 % 18.16 C
1604 28-07-2019 13:35:00 20.3 C 87 % 18.06 C
1605 28-07-2019 13:40:00 20.2 C 88 % 18.15 C
1606 28-07-2019 13:45:00 20.1 C 89 % 18.23 C
1607 28-07-2019 13:50:00 19.9 C 89 % 18.03 C
1608 28-07-2019 13:55:00 19.9 C 89 % 18.03 C
1609 28-07-2019 14:00:00 19.9 C 89 % 18.03 C
1610 28-07-2019 14:05:00 19.9 C 89 % 18.03 C
1611 28-07-2019 14:10:00 19.9 C 90 % 18.21 C
1612 28-07-2019 14:15:00 19.9 C 90 % 18.21 C
1613 28-07-2019 14:20:00 19.9 C 90 % 18.21 C
1614 28-07-2019 14:25:00 20 C 89 % 18.13 C
1615 28-07-2019 14:30:00 20.1 C 89 % 18.23 C
1616 28-07-2019 14:35:00 20.1 C 89 % 18.23 C
1617 28-07-2019 14:40:00 20.1 C 89 % 18.23 C
1618 28-07-2019 14:45:00 20.1 C 89 % 18.23 C
1619 28-07-2019 14:50:00 20 C 89 % 18.13 C
1620 28-07-2019 14:55:00 19.9 C 89 % 18.03 C
1621 28-07-2019 15:00:00 20 C 89 % 18.13 C
1622 28-07-2019 15:05:00 19.9 C 89 % 18.03 C
1623 28-07-2019 15:10:00 19.9 C 88 % 17.85 C
1624 28-07-2019 15:15:00 19.9 C 88 % 17.85 C
1625 28-07-2019 15:20:00 19.9 C 89 % 18.03 C
Sensor: Nr:Datum:Temp:Feuchte:Taupunkt:
Aussen-T/F 1626 28-07-2019 15:25:00 19.9 C 88 % 17.85 C
1627 28-07-2019 15:30:00 19.9 C 88 % 17.85 C
1628 28-07-2019 15:35:00 19.9 C 88 % 17.85 C
1629 28-07-2019 15:40:00 19.9 C 88 % 17.85 C
1630 28-07-2019 15:45:00 19.9 C 88 % 17.85 C
1631 28-07-2019 15:50:00 19.9 C 88 % 17.85 C
1632 28-07-2019 15:55:00 19.9 C 87 % 17.67 C
1633 28-07-2019 16:00:00 19.9 C 88 % 17.85 C
1634 28-07-2019 16:05:00 19.9 C 87 % 17.67 C
1635 28-07-2019 16:10:00 19.9 C 87 % 17.67 C
1636 28-07-2019 16:15:00 19.9 C 87 % 17.67 C
1637 28-07-2019 16:20:00 19.8 C 87 % 17.57 C
1638 28-07-2019 16:25:00 19.8 C 88 % 17.75 C
1639 28-07-2019 16:30:00 19.8 C 88 % 17.75 C
1640 28-07-2019 16:35:00 19.8 C 88 % 17.75 C
1641 28-07-2019 16:40:00 19.8 C 88 % 17.75 C
1642 28-07-2019 16:45:00 19.7 C 88 % 17.66 C
1643 28-07-2019 16:50:00 19.7 C 88 % 17.66 C
1644 28-07-2019 16:55:00 19.8 C 88 % 17.75 C
1645 28-07-2019 17:00:00 19.7 C 88 % 17.66 C
1646 28-07-2019 17:05:00 19.8 C 89 % 17.93 C
1647 28-07-2019 17:10:00 19.7 C 89 % 17.84 C
1648 28-07-2019 17:15:00 19.6 C 89 % 17.74 C
1649 28-07-2019 17:20:00 19.4 C 89 % 17.54 C
1650 28-07-2019 17:25:00 19.4 C 90 % 17.72 C
Sensor: Nr:Datum:Temp:Feuchte:Taupunkt:
Aussen-T/F 1651 28-07-2019 17:30:00 19.4 C 90 % 17.72 C
1652 28-07-2019 17:35:00 19.3 C 90 % 17.62 C
1653 28-07-2019 17:40:00 19.3 C 90 % 17.62 C
1654 28-07-2019 17:45:00 19.3 C 91 % 17.79 C
1655 28-07-2019 17:50:00 19.3 C 91 % 17.79 C
1656 28-07-2019 17:55:00 19.3 C 92 % 17.97 C
1657 28-07-2019 18:00:00 19.2 C 91 % 17.69 C
1658 28-07-2019 18:05:00 19.2 C 91 % 17.69 C
1659 28-07-2019 18:10:00 19.2 C 91 % 17.69 C
1660 28-07-2019 18:15:00 19.3 C 91 % 17.79 C
1661 28-07-2019 18:20:00 19.2 C 90 % 17.52 C
1662 28-07-2019 18:25:00 19.2 C 90 % 17.52 C
1663 28-07-2019 18:30:00 19.2 C 90 % 17.52 C
1664 28-07-2019 18:35:00 19.2 C 90 % 17.52 C
1665 28-07-2019 18:40:00 19.1 C 90 % 17.42 C
1666 28-07-2019 18:45:00 19.1 C 90 % 17.42 C
1667 28-07-2019 18:50:00 19.1 C 90 % 17.42 C
1668 28-07-2019 18:55:00 19.1 C 91 % 17.6 C
1669 28-07-2019 19:00:00 19.1 C 91 % 17.6 C
1670 28-07-2019 19:05:00 19.1 C 91 % 17.6 C
1671 28-07-2019 19:10:00 19 C 91 % 17.5 C
1672 28-07-2019 19:15:00 18.9 C 91 % 17.4 C
1673 28-07-2019 19:20:00 18.9 C 91 % 17.4 C
1674 28-07-2019 19:25:00 18.9 C 92 % 17.57 C
1675 28-07-2019 19:30:00 18.9 C 92 % 17.57 C
Sensor: Nr:Datum:Temp:Feuchte:Taupunkt:
Aussen-T/F 1676 28-07-2019 19:35:00 18.8 C 92 % 17.47 C
1677 28-07-2019 19:40:00 18.8 C 92 % 17.47 C
1678 28-07-2019 19:45:00 18.7 C 92 % 17.37 C
1679 28-07-2019 19:50:00 18.7 C 92 % 17.37 C
1680 28-07-2019 19:55:00 18.7 C 92 % 17.37 C
1681 28-07-2019 20:00:00 18.7 C 92 % 17.37 C
1682 28-07-2019 20:05:00 18.7 C 92 % 17.37 C
1683 28-07-2019 20:10:00 18.6 C 92 % 17.27 C
1684 28-07-2019 20:15:00 18.6 C 93 % 17.45 C
1685 28-07-2019 20:20:00 18.6 C 93 % 17.45 C
1686 28-07-2019 20:25:00 18.6 C 93 % 17.45 C
1687 28-07-2019 20:30:00 18.5 C 93 % 17.35 C
1688 28-07-2019 20:35:00 18.4 C 93 % 17.25 C
1689 28-07-2019 20:40:00 18.4 C 93 % 17.25 C
1690 28-07-2019 20:45:00 18.3 C 93 % 17.15 C
1691 28-07-2019 20:50:00 18.3 C 93 % 17.15 C
1692 28-07-2019 20:55:00 18.3 C 93 % 17.15 C
1693 28-07-2019 21:00:00 18.2 C 93 % 17.05 C
1694 28-07-2019 21:05:00 18.2 C 93 % 17.05 C
1695 28-07-2019 21:10:00 18.2 C 94 % 17.22 C
1696 28-07-2019 21:15:00 18.2 C 94 % 17.22 C
1697 28-07-2019 21:20:00 18.2 C 94 % 17.22 C
1698 28-07-2019 21:25:00 18.2 C 94 % 17.22 C
1699 28-07-2019 21:30:00 18.2 C 94 % 17.22 C
1700 28-07-2019 21:35:00 18.2 C 94 % 17.22 C
Sensor: Nr:Datum:Temp:Feuchte:Taupunkt:
Aussen-T/F 1701 28-07-2019 21:40:00 18.2 C 94 % 17.22 C
1702 28-07-2019 21:45:00 18.1 C 94 % 17.12 C
1703 28-07-2019 21:50:00 18.1 C 94 % 17.12 C
1704 28-07-2019 21:55:00 18.1 C 94 % 17.12 C
1705 28-07-2019 22:00:00 18.1 C 94 % 17.12 C
1706 28-07-2019 22:05:00 18.1 C 94 % 17.12 C
1707 28-07-2019 22:10:00 18 C 94 % 17.02 C
1708 28-07-2019 22:15:00 17.9 C 95 % 17.09 C
1709 28-07-2019 22:20:00 17.9 C 95 % 17.09 C
1710 28-07-2019 22:25:00 17.9 C 95 % 17.09 C
1711 28-07-2019 22:30:00 17.9 C 95 % 17.09 C
1712 28-07-2019 22:35:00 17.9 C 95 % 17.09 C
1713 28-07-2019 22:40:00 17.8 C 95 % 16.99 C
1714 28-07-2019 22:45:00 17.8 C 95 % 16.99 C
1715 28-07-2019 22:50:00 17.8 C 95 % 16.99 C
1716 28-07-2019 22:55:00 17.8 C 95 % 16.99 C
1717 28-07-2019 23:00:00 17.7 C 95 % 16.89 C
1718 28-07-2019 23:05:00 17.7 C 95 % 16.89 C
1719 28-07-2019 23:10:00 17.7 C 95 % 16.89 C
1720 28-07-2019 23:15:00 17.7 C 95 % 16.89 C
1721 28-07-2019 23:20:00 17.7 C 95 % 16.89 C
1722 28-07-2019 23:25:00 17.6 C 95 % 16.79 C
1723 28-07-2019 23:30:00 17.6 C 95 % 16.79 C
1724 28-07-2019 23:35:00 17.6 C 95 % 16.79 C
1725 28-07-2019 23:40:00 17.5 C 95 % 16.69 C
Sensor: Nr:Datum:Temp:Feuchte:Taupunkt:
Aussen-T/F 1726 28-07-2019 23:45:00 17.5 C 95 % 16.69 C
1727 28-07-2019 23:50:00 17.4 C 95 % 16.59 C
1728 28-07-2019 23:55:00 17.5 C 95 % 16.69 C
1729 29-07-2019 00:00:00 17.4 C 95 % 16.59 C
1730 29-07-2019 00:05:00 17.4 C 95 % 16.59 C
1731 29-07-2019 00:10:00 17.4 C 95 % 16.59 C
1732 29-07-2019 00:15:00 17.4 C 95 % 16.59 C
1733 29-07-2019 00:20:00 17.4 C 95 % 16.59 C
1734 29-07-2019 00:25:00 17.4 C 95 % 16.59 C
1735 29-07-2019 00:30:00 17.3 C 95 % 16.49 C
1736 29-07-2019 00:35:00 17.3 C 95 % 16.49 C
1737 29-07-2019 00:40:00 17.3 C 95 % 16.49 C
1738 29-07-2019 00:45:00 17.2 C 95 % 16.39 C
1739 29-07-2019 00:50:00 17.2 C 95 % 16.39 C
1740 29-07-2019 00:55:00 17.2 C 95 % 16.39 C
1741 29-07-2019 01:00:00 17.1 C 95 % 16.29 C
1742 29-07-2019 01:05:00 17.2 C 95 % 16.39 C
1743 29-07-2019 01:10:00 17.1 C 95 % 16.29 C
1744 29-07-2019 01:15:00 17.1 C 95 % 16.29 C
1745 29-07-2019 01:20:00 17.1 C 95 % 16.29 C
1746 29-07-2019 01:25:00 17.1 C 95 % 16.29 C
1747 29-07-2019 01:30:00 17.1 C 95 % 16.29 C
1748 29-07-2019 01:35:00 17.1 C 95 % 16.29 C
1749 29-07-2019 01:40:00 17.1 C 95 % 16.29 C
1750 29-07-2019 01:45:00 17.1 C 95 % 16.29 C
Sensor: Nr:Datum:Temp:Feuchte:Taupunkt:
Aussen-T/F 1751 29-07-2019 01:50:00 17.1 C 95 % 16.29 C
1752 29-07-2019 01:55:00 17.1 C 95 % 16.29 C
1753 29-07-2019 02:00:00 17.1 C 95 % 16.29 C
1754 29-07-2019 02:05:00 17 C 95 % 16.19 C
1755 29-07-2019 02:10:00 17 C 95 % 16.19 C
1756 29-07-2019 02:15:00 17 C 96 % 16.36 C
1757 29-07-2019 02:20:00 17 C 96 % 16.36 C
1758 29-07-2019 02:25:00 17 C 96 % 16.36 C
1759 29-07-2019 02:30:00 17 C 96 % 16.36 C
1760 29-07-2019 02:35:00 17 C 96 % 16.36 C
1761 29-07-2019 02:40:00 16.9 C 96 % 16.26 C
1762 29-07-2019 02:45:00 16.9 C 96 % 16.26 C
1763 29-07-2019 02:50:00 16.9 C 96 % 16.26 C
1764 29-07-2019 02:55:00 16.9 C 96 % 16.26 C
1765 29-07-2019 03:00:00 16.9 C 96 % 16.26 C
1766 29-07-2019 03:05:00 16.9 C 96 % 16.26 C
1767 29-07-2019 03:10:00 16.9 C 96 % 16.26 C
1768 29-07-2019 03:15:00 16.9 C 96 % 16.26 C
1769 29-07-2019 03:20:00 16.9 C 96 % 16.26 C
1770 29-07-2019 03:25:00 16.8 C 96 % 16.16 C
1771 29-07-2019 03:30:00 16.8 C 96 % 16.16 C
1772 29-07-2019 03:35:00 16.8 C 96 % 16.16 C
1773 29-07-2019 03:40:00 16.8 C 96 % 16.16 C
1774 29-07-2019 03:45:00 16.8 C 96 % 16.16 C
1775 29-07-2019 03:50:00 16.8 C 96 % 16.16 C
Sensor: Nr:Datum:Temp:Feuchte:Taupunkt:
Aussen-T/F 1776 29-07-2019 03:55:00 16.8 C 96 % 16.16 C
1777 29-07-2019 04:00:00 16.9 C 96 % 16.26 C
1778 29-07-2019 04:05:00 16.8 C 96 % 16.16 C
1779 29-07-2019 04:10:00 16.8 C 96 % 16.16 C
1780 29-07-2019 04:15:00 16.8 C 96 % 16.16 C
1781 29-07-2019 04:20:00 16.8 C 96 % 16.16 C
1782 29-07-2019 04:25:00 16.8 C 96 % 16.16 C
1783 29-07-2019 04:30:00 16.8 C 96 % 16.16 C
1784 29-07-2019 04:35:00 16.8 C 96 % 16.16 C
1785 29-07-2019 04:40:00 16.8 C 96 % 16.16 C
1786 29-07-2019 04:45:00 16.8 C 96 % 16.16 C
1787 29-07-2019 04:50:00 16.8 C 96 % 16.16 C
1788 29-07-2019 04:55:00 16.8 C 96 % 16.16 C
1789 29-07-2019 05:00:00 16.8 C 96 % 16.16 C
1790 29-07-2019 05:05:00 16.8 C 96 % 16.16 C
1791 29-07-2019 05:10:00 16.8 C 96 % 16.16 C
1792 29-07-2019 05:15:00 16.8 C 96 % 16.16 C
1793 29-07-2019 05:20:00 16.8 C 96 % 16.16 C
1794 29-07-2019 05:25:00 16.7 C 96 % 16.06 C
1795 29-07-2019 05:30:00 16.7 C 96 % 16.06 C
1796 29-07-2019 05:35:00 16.7 C 96 % 16.06 C
1797 29-07-2019 05:40:00 16.7 C 96 % 16.06 C
1798 29-07-2019 05:45:00 16.7 C 96 % 16.06 C
1799 29-07-2019 05:50:00 16.7 C 96 % 16.06 C
1800 29-07-2019 05:55:00 16.7 C 96 % 16.06 C
Sensor: Nr:Datum:Temp:Feuchte:Taupunkt:
Aussen-T/F 1801 29-07-2019 06:00:00 16.7 C 96 % 16.06 C
1802 29-07-2019 06:05:00 16.7 C 96 % 16.06 C
1803 29-07-2019 06:10:00 16.7 C 96 % 16.06 C
1804 29-07-2019 06:15:00 16.7 C 96 % 16.06 C
1805 29-07-2019 06:20:00 16.7 C 96 % 16.06 C
1806 29-07-2019 06:25:00 16.7 C 96 % 16.06 C
1807 29-07-2019 06:30:00 16.7 C 96 % 16.06 C
1808 29-07-2019 06:35:00 16.7 C 96 % 16.06 C
1809 29-07-2019 06:40:00 16.7 C 96 % 16.06 C
1810 29-07-2019 06:45:00 16.8 C 96 % 16.16 C
1811 29-07-2019 06:50:00 16.8 C 96 % 16.16 C
1812 29-07-2019 06:55:00 16.8 C 96 % 16.16 C
1813 29-07-2019 07:00:00 16.9 C 96 % 16.26 C
1814 29-07-2019 07:05:00 16.9 C 96 % 16.26 C
1815 29-07-2019 07:10:00 16.9 C 96 % 16.26 C
1816 29-07-2019 07:15:00 17 C 96 % 16.36 C
1817 29-07-2019 07:20:00 17.1 C 96 % 16.46 C
1818 29-07-2019 07:25:00 17.1 C 96 % 16.46 C
1819 29-07-2019 07:30:00 16.9 C 96 % 16.26 C
1820 29-07-2019 07:35:00 16.9 C 96 % 16.26 C
1821 29-07-2019 07:40:00 17 C 96 % 16.36 C
1822 29-07-2019 07:45:00 17 C 95 % 16.19 C
1823 29-07-2019 07:50:00 17.1 C 95 % 16.29 C
1824 29-07-2019 07:55:00 17.1 C 95 % 16.29 C
1825 29-07-2019 08:00:00 17.2 C 95 % 16.39 C
Sensor: Nr:Datum:Temp:Feuchte:Taupunkt:
Aussen-T/F 1826 29-07-2019 08:05:00 17.2 C 94 % 16.23 C
1827 29-07-2019 08:10:00 17.3 C 94 % 16.33 C
1828 29-07-2019 08:15:00 17.3 C 93 % 16.16 C
1829 29-07-2019 08:20:00 17.4 C 94 % 16.42 C
1830 29-07-2019 08:25:00 17.4 C 93 % 16.26 C
1831 29-07-2019 08:30:00 17.4 C 92 % 16.09 C
1832 29-07-2019 08:35:00 17.6 C 92 % 16.28 C
1833 29-07-2019 08:40:00 17.6 C 92 % 16.28 C
1834 29-07-2019 08:45:00 17.6 C 91 % 16.11 C
1835 29-07-2019 08:50:00 17.7 C 90 % 16.04 C
1836 29-07-2019 08:55:00 17.9 C 91 % 16.41 C
1837 29-07-2019 09:00:00 18 C 90 % 16.34 C
1838 29-07-2019 09:05:00 18.2 C 90 % 16.53 C
1839 29-07-2019 09:10:00 18.2 C 88 % 16.18 C
1840 29-07-2019 09:15:00 18.3 C 88 % 16.28 C
1841 29-07-2019 09:20:00 18.3 C 88 % 16.28 C
1842 29-07-2019 09:25:00 18.4 C 87 % 16.2 C
1843 29-07-2019 09:30:00 18.6 C 86 % 16.21 C
1844 29-07-2019 09:35:00 18.7 C 86 % 16.31 C
1845 29-07-2019 09:40:00 18.8 C 84 % 16.04 C
1846 29-07-2019 09:45:00 18.8 C 83 % 15.85 C
1847 29-07-2019 09:50:00 18.8 C 83 % 15.85 C
1848 29-07-2019 09:55:00 18.8 C 83 % 15.85 C
1849 29-07-2019 10:00:00 18.8 C 82 % 15.66 C
1850 29-07-2019 10:05:00 18.8 C 83 % 15.85 C
Sensor: Nr:Datum:Temp:Feuchte:Taupunkt:
Aussen-T/F 1851 29-07-2019 10:10:00 18.9 C 83 % 15.95 C
1852 29-07-2019 10:15:00 19.1 C 81 % 15.76 C
1853 29-07-2019 10:20:00 19.3 C 80 % 15.76 C
1854 29-07-2019 10:25:00 19.4 C 79 % 15.66 C
1855 29-07-2019 10:30:00 19.5 C 79 % 15.76 C
1856 29-07-2019 10:35:00 19.7 C 79 % 15.96 C
1857 29-07-2019 10:40:00 19.7 C 77 % 15.56 C
1858 29-07-2019 10:45:00 19.8 C 78 % 15.85 C
1859 29-07-2019 10:50:00 19.8 C 76 % 15.45 C
1860 29-07-2019 10:55:00 19.9 C 75 % 15.34 C
1861 29-07-2019 11:00:00 19.9 C 75 % 15.34 C
1862 29-07-2019 11:05:00 20 C 76 % 15.64 C
1863 29-07-2019 11:10:00 20 C 75 % 15.43 C
1864 29-07-2019 11:15:00 20.1 C 75 % 15.53 C
1865 29-07-2019 11:20:00 20.2 C 75 % 15.63 C
1866 29-07-2019 11:25:00 20.3 C 76 % 15.93 C
1867 29-07-2019 11:30:00 20.4 C 74 % 15.61 C
1868 29-07-2019 11:35:00 20.6 C 73 % 15.59 C
1869 29-07-2019 11:40:00 20.8 C 72 % 15.57 C
1870 29-07-2019 11:45:00 21 C 72 % 15.76 C
1871 29-07-2019 11:50:00 21.2 C 72 % 15.95 C
1872 29-07-2019 11:55:00 21.2 C 70 % 15.51 C
1873 29-07-2019 12:00:00 21.4 C 68 % 15.25 C
1874 29-07-2019 12:05:00 21.5 C 67 % 15.12 C
1875 29-07-2019 12:10:00 21.6 C 69 % 15.67 C
Sensor: Nr:Datum:Temp:Feuchte:Taupunkt:
Aussen-T/F 1876 29-07-2019 12:15:00 21.6 C 68 % 15.44 C
1877 29-07-2019 12:20:00 21.8 C 68 % 15.63 C
1878 29-07-2019 12:25:00 21.9 C 66 % 15.26 C
1879 29-07-2019 12:30:00 22.1 C 66 % 15.45 C
1880 29-07-2019 12:35:00 22.1 C 65 % 15.21 C
1881 29-07-2019 12:40:00 22.2 C 66 % 15.55 C
1882 29-07-2019 12:45:00 22.3 C 65 % 15.4 C
1883 29-07-2019 12:50:00 22.4 C 65 % 15.5 C
1884 29-07-2019 12:55:00 22.5 C 64 % 15.35 C
1885 29-07-2019 13:00:00 22.6 C 65 % 15.69 C
1886 29-07-2019 13:05:00 22.7 C 63 % 15.3 C
1887 29-07-2019 13:10:00 22.8 C 64 % 15.64 C
1888 29-07-2019 13:15:00 23 C 61 % 15.08 C
1889 29-07-2019 13:20:00 23.2 C 61 % 15.26 C
1890 29-07-2019 13:25:00 23.3 C 62 % 15.61 C
1891 29-07-2019 13:30:00 23.5 C 61 % 15.55 C
1892 29-07-2019 13:35:00 23.6 C 62 % 15.89 C
1893 29-07-2019 13:40:00 23.5 C 62 % 15.8 C
1894 29-07-2019 13:45:00 23.5 C 62 % 15.8 C
1895 29-07-2019 13:50:00 23.6 C 61 % 15.64 C
1896 29-07-2019 13:55:00 23.7 C 60 % 15.48 C
1897 29-07-2019 14:00:00 23.7 C 60 % 15.48 C
1898 29-07-2019 14:05:00 23.8 C 60 % 15.57 C
1899 29-07-2019 14:10:00 23.9 C 61 % 15.92 C
1900 29-07-2019 14:15:00 24.2 C 59 % 15.68 C
Sensor: Nr:Datum:Temp:Feuchte:Taupunkt:
Aussen-T/F 1901 29-07-2019 14:20:00 24.4 C 58 % 15.6 C
1902 29-07-2019 14:25:00 24.5 C 58 % 15.7 C
1903 29-07-2019 14:30:00 24.7 C 56 % 15.33 C
1904 29-07-2019 14:35:00 24.7 C 57 % 15.61 C
1905 29-07-2019 14:40:00 24.7 C 57 % 15.61 C
1906 29-07-2019 14:45:00 24.8 C 54 % 14.86 C
1907 29-07-2019 14:50:00 24.8 C 55 % 15.15 C
1908 29-07-2019 14:55:00 24.8 C 55 % 15.15 C
1909 29-07-2019 15:00:00 24.8 C 54 % 14.86 C
1910 29-07-2019 15:05:00 24.9 C 54 % 14.95 C
1911 29-07-2019 15:10:00 25.1 C 54 % 15.14 C
1912 29-07-2019 15:15:00 25.4 C 53 % 15.13 C
1913 29-07-2019 15:20:00 25.6 C 52 % 15.02 C
1914 29-07-2019 15:25:00 25.7 C 51 % 14.81 C
1915 29-07-2019 15:30:00 25.9 C 51 % 14.99 C
1916 29-07-2019 15:35:00 26.1 C 51 % 15.17 C
1917 29-07-2019 15:40:00 26.1 C 50 % 14.87 C
1918 29-07-2019 15:45:00 26.4 C 50 % 15.14 C
1919 29-07-2019 15:50:00 26.8 C 49 % 15.19 C
1920 29-07-2019 15:55:00 27.2 C 48 % 15.24 C
1921 29-07-2019 16:00:00 27.3 C 47 % 15 C
1922 29-07-2019 16:05:00 27.4 C 47 % 15.09 C
1923 29-07-2019 16:10:00 27.6 C 46 % 14.94 C
1924 29-07-2019 16:15:00 27.3 C 47 % 15 C
1925 29-07-2019 16:20:00 27.2 C 47 % 14.91 C
Sensor: Nr:Datum:Temp:Feuchte:Taupunkt:
Aussen-T/F 1926 29-07-2019 16:25:00 27.2 C 46 % 14.58 C
1927 29-07-2019 16:30:00 27.3 C 47 % 15 C
1928 29-07-2019 16:35:00 27.7 C 45 % 14.69 C
1929 29-07-2019 16:40:00 27.9 C 45 % 14.87 C
1930 29-07-2019 16:45:00 28.2 C 44 % 14.79 C
1931 29-07-2019 16:50:00 28.2 C 44 % 14.79 C
1932 29-07-2019 16:55:00 27.9 C 44 % 14.52 C
1933 29-07-2019 17:00:00 27.9 C 45 % 14.87 C
1934 29-07-2019 17:05:00 28 C 45 % 14.96 C
1935 29-07-2019 17:10:00 28.3 C 44 % 14.88 C
1936 29-07-2019 17:15:00 28.4 C 43 % 14.62 C
1937 29-07-2019 17:20:00 28.3 C 42 % 14.16 C
1938 29-07-2019 17:25:00 28.4 C 43 % 14.62 C
1939 29-07-2019 17:30:00 28.4 C 42 % 14.25 C
1940 29-07-2019 17:35:00 28.4 C 43 % 14.62 C
1941 29-07-2019 17:40:00 28.6 C 43 % 14.8 C
1942 29-07-2019 17:45:00 28.3 C 43 % 14.53 C
1943 29-07-2019 17:50:00 28.1 C 43 % 14.35 C
1944 29-07-2019 17:55:00 27.7 C 43 % 13.99 C
1945 29-07-2019 18:00:00 27.4 C 44 % 14.07 C
1946 29-07-2019 18:05:00 27.2 C 44 % 13.89 C
1947 29-07-2019 18:10:00 27.1 C 45 % 14.15 C
1948 29-07-2019 18:15:00 27.3 C 45 % 14.33 C
1949 29-07-2019 18:20:00 27.4 C 44 % 14.07 C
1950 29-07-2019 18:25:00 27.4 C 44 % 14.07 C
Sensor: Nr:Datum:Temp:Feuchte:Taupunkt:
Aussen-T/F 1951 29-07-2019 18:30:00 27.4 C 44 % 14.07 C
1952 29-07-2019 18:35:00 27.7 C 44 % 14.34 C
1953 29-07-2019 18:40:00 28 C 43 % 14.26 C
1954 29-07-2019 18:45:00 28.3 C 42 % 14.16 C
1955 29-07-2019 18:50:00 28.6 C 42 % 14.43 C
1956 29-07-2019 18:55:00 28.7 C 41 % 14.15 C
1957 29-07-2019 19:00:00 28.8 C 41 % 14.24 C
1958 29-07-2019 19:05:00 28.9 C 42 % 14.7 C
1959 29-07-2019 19:10:00 28.9 C 41 % 14.33 C
1960 29-07-2019 19:15:00 28.8 C 41 % 14.24 C
1961 29-07-2019 19:20:00 28.6 C 42 % 14.43 C
1962 29-07-2019 19:25:00 28.1 C 43 % 14.35 C
1963 29-07-2019 19:30:00 27.9 C 44 % 14.52 C
1964 29-07-2019 19:35:00 27.7 C 44 % 14.34 C
1965 29-07-2019 19:40:00 27.6 C 45 % 14.6 C
1966 29-07-2019 19:45:00 27.4 C 46 % 14.76 C
1967 29-07-2019 19:50:00 27.3 C 45 % 14.33 C
1968 29-07-2019 19:55:00 27.2 C 46 % 14.58 C
1969 29-07-2019 20:00:00 27.1 C 46 % 14.49 C
1970 29-07-2019 20:05:00 27 C 47 % 14.73 C
1971 29-07-2019 20:10:00 26.8 C 47 % 14.55 C
1972 29-07-2019 20:15:00 26.6 C 48 % 14.69 C
1973 29-07-2019 20:20:00 26.4 C 49 % 14.83 C
1974 29-07-2019 20:25:00 26.3 C 49 % 14.74 C
1975 29-07-2019 20:30:00 26.3 C 50 % 15.05 C
Sensor: Nr:Datum:Temp:Feuchte:Taupunkt:
Aussen-T/F 1976 29-07-2019 20:35:00 26.2 C 50 % 14.96 C
1977 29-07-2019 20:40:00 26 C 50 % 14.77 C
1978 29-07-2019 20:45:00 25.9 C 51 % 14.99 C
1979 29-07-2019 20:50:00 25.8 C 51 % 14.9 C
1980 29-07-2019 20:55:00 25.6 C 52 % 15.02 C
1981 29-07-2019 21:00:00 25.3 C 55 % 15.61 C
1982 29-07-2019 21:05:00 24.9 C 56 % 15.52 C
1983 29-07-2019 21:10:00 24.5 C 59 % 15.96 C
1984 29-07-2019 21:15:00 24 C 59 % 15.5 C
1985 29-07-2019 21:20:00 23.5 C 60 % 15.29 C
1986 29-07-2019 21:25:00 23 C 61 % 15.08 C
1987 29-07-2019 21:30:00 22.6 C 63 % 15.2 C
1988 29-07-2019 21:35:00 22.2 C 64 % 15.07 C
1989 29-07-2019 21:40:00 21.9 C 65 % 15.02 C
1990 29-07-2019 21:45:00 21.8 C 66 % 15.17 C
1991 29-07-2019 21:50:00 21.6 C 66 % 14.98 C
1992 29-07-2019 21:55:00 21.4 C 66 % 14.79 C
1993 29-07-2019 22:00:00 21.3 C 67 % 14.93 C
1994 29-07-2019 22:05:00 21.2 C 68 % 15.06 C
1995 29-07-2019 22:10:00 21.1 C 68 % 14.97 C
1996 29-07-2019 22:15:00 21 C 68 % 14.87 C
1997 29-07-2019 22:20:00 20.9 C 68 % 14.77 C
1998 29-07-2019 22:25:00 20.8 C 69 % 14.91 C
1999 29-07-2019 22:30:00 20.8 C 70 % 15.13 C
2000 29-07-2019 22:35:00 20.7 C 71 % 15.25 C
Sensor: Nr:Datum:Temp:Feuchte:Taupunkt:
Aussen-T/F 2001 29-07-2019 22:40:00 20.6 C 71 % 15.16 C
2002 29-07-2019 22:45:00 20.4 C 71 % 14.97 C
2003 29-07-2019 22:50:00 20.2 C 72 % 14.99 C
2004 29-07-2019 22:55:00 20.1 C 73 % 15.11 C
2005 29-07-2019 23:00:00 20 C 73 % 15.01 C
2006 29-07-2019 23:05:00 19.9 C 73 % 14.92 C
2007 29-07-2019 23:10:00 19.8 C 74 % 15.03 C
2008 29-07-2019 23:15:00 19.7 C 75 % 15.15 C
2009 29-07-2019 23:20:00 19.6 C 75 % 15.05 C
2010 29-07-2019 23:25:00 19.4 C 75 % 14.86 C
2011 29-07-2019 23:30:00 19.3 C 76 % 14.97 C
2012 29-07-2019 23:35:00 19.1 C 76 % 14.77 C
2013 29-07-2019 23:40:00 19 C 77 % 14.88 C
2014 29-07-2019 23:45:00 18.8 C 77 % 14.68 C
2015 29-07-2019 23:50:00 18.8 C 78 % 14.88 C
2016 29-07-2019 23:55:00 18.7 C 78 % 14.79 C
2017 30-07-2019 00:00:00 18.5 C 79 % 14.79 C
2018 30-07-2019 00:05:00 18.3 C 79 % 14.6 C
2019 30-07-2019 00:10:00 18.2 C 80 % 14.69 C
2020 30-07-2019 00:15:00 18.1 C 80 % 14.6 C
2021 30-07-2019 00:20:00 18 C 81 % 14.69 C
2022 30-07-2019 00:25:00 17.9 C 81 % 14.59 C
2023 30-07-2019 00:30:00 17.8 C 81 % 14.5 C
2024 30-07-2019 00:35:00 17.8 C 82 % 14.69 C
2025 30-07-2019 00:40:00 17.7 C 82 % 14.59 C
Sensor: Nr:Datum:Temp:Feuchte:Taupunkt:
Aussen-T/F 2026 30-07-2019 00:45:00 17.7 C 82 % 14.59 C
2027 30-07-2019 00:50:00 17.7 C 83 % 14.78 C
2028 30-07-2019 00:55:00 17.7 C 83 % 14.78 C
2029 30-07-2019 01:00:00 17.7 C 83 % 14.78 C
2030 30-07-2019 01:05:00 17.7 C 84 % 14.96 C
2031 30-07-2019 01:10:00 17.7 C 83 % 14.78 C
2032 30-07-2019 01:15:00 17.7 C 83 % 14.78 C
2033 30-07-2019 01:20:00 17.6 C 83 % 14.68 C
2034 30-07-2019 01:25:00 17.5 C 83 % 14.58 C
2035 30-07-2019 01:30:00 17.4 C 83 % 14.48 C
2036 30-07-2019 01:35:00 17.3 C 84 % 14.57 C
2037 30-07-2019 01:40:00 17.2 C 84 % 14.47 C
2038 30-07-2019 01:45:00 17.2 C 84 % 14.47 C
2039 30-07-2019 01:50:00 17.1 C 84 % 14.38 C
2040 30-07-2019 01:55:00 17 C 84 % 14.28 C
2041 30-07-2019 02:00:00 16.9 C 84 % 14.18 C
2042 30-07-2019 02:05:00 16.9 C 85 % 14.36 C
2043 30-07-2019 02:10:00 16.8 C 85 % 14.26 C
2044 30-07-2019 02:15:00 16.8 C 85 % 14.26 C
2045 30-07-2019 02:20:00 16.7 C 85 % 14.17 C
2046 30-07-2019 02:25:00 16.6 C 85 % 14.07 C
2047 30-07-2019 02:30:00 16.6 C 86 % 14.25 C
2048 30-07-2019 02:35:00 16.5 C 86 % 14.15 C
2049 30-07-2019 02:40:00 16.4 C 86 % 14.05 C
2050 30-07-2019 02:45:00 16.4 C 86 % 14.05 C
Sensor: Nr:Datum:Temp:Feuchte:Taupunkt:
Aussen-T/F 2051 30-07-2019 02:50:00 16.3 C 86 % 13.95 C
2052 30-07-2019 02:55:00 16.3 C 87 % 14.13 C
2053 30-07-2019 03:00:00 16.2 C 87 % 14.03 C
2054 30-07-2019 03:05:00 16.1 C 87 % 13.94 C
2055 30-07-2019 03:10:00 16 C 87 % 13.84 C
2056 30-07-2019 03:15:00 15.9 C 88 % 13.92 C
2057 30-07-2019 03:20:00 15.9 C 88 % 13.92 C
2058 30-07-2019 03:25:00 15.9 C 88 % 13.92 C
2059 30-07-2019 03:30:00 15.9 C 88 % 13.92 C
2060 30-07-2019 03:35:00 15.8 C 89 % 13.99 C
2061 30-07-2019 03:40:00 15.8 C 89 % 13.99 C
2062 30-07-2019 03:45:00 15.7 C 89 % 13.89 C
2063 30-07-2019 03:50:00 15.7 C 89 % 13.89 C
2064 30-07-2019 03:55:00 15.6 C 89 % 13.79 C
2065 30-07-2019 04:00:00 15.6 C 89 % 13.79 C
2066 30-07-2019 04:05:00 15.6 C 89 % 13.79 C
2067 30-07-2019 04:10:00 15.5 C 90 % 13.87 C
2068 30-07-2019 04:15:00 15.5 C 90 % 13.87 C
2069 30-07-2019 04:20:00 15.4 C 90 % 13.77 C
2070 30-07-2019 04:25:00 15.4 C 90 % 13.77 C
2071 30-07-2019 04:30:00 15.4 C 90 % 13.77 C
2072 30-07-2019 04:35:00 15.3 C 90 % 13.67 C
2073 30-07-2019 04:40:00 15.3 C 90 % 13.67 C
2074 30-07-2019 04:45:00 15.3 C 91 % 13.84 C
2075 30-07-2019 04:50:00 15.3 C 91 % 13.84 C
Sensor: Nr:Datum:Temp:Feuchte:Taupunkt:
Aussen-T/F 2076 30-07-2019 04:55:00 15.2 C 91 % 13.74 C
2077 30-07-2019 05:00:00 15.2 C 91 % 13.74 C
2078 30-07-2019 05:05:00 15.1 C 91 % 13.64 C
2079 30-07-2019 05:10:00 15.1 C 91 % 13.64 C
2080 30-07-2019 05:15:00 15.1 C 91 % 13.64 C
2081 30-07-2019 05:20:00 15.1 C 91 % 13.64 C
2082 30-07-2019 05:25:00 15.1 C 91 % 13.64 C
2083 30-07-2019 05:30:00 15.1 C 92 % 13.81 C
2084 30-07-2019 05:35:00 15 C 92 % 13.71 C
2085 30-07-2019 05:40:00 15 C 92 % 13.71 C
2086 30-07-2019 05:45:00 14.9 C 92 % 13.61 C
2087 30-07-2019 05:50:00 14.9 C 92 % 13.61 C
2088 30-07-2019 05:55:00 14.8 C 92 % 13.51 C
2089 30-07-2019 06:00:00 14.8 C 92 % 13.51 C
2090 30-07-2019 06:05:00 14.8 C 92 % 13.51 C
2091 30-07-2019 06:10:00 14.7 C 93 % 13.58 C
2092 30-07-2019 06:15:00 14.7 C 93 % 13.58 C
2093 30-07-2019 06:20:00 14.7 C 93 % 13.58 C
2094 30-07-2019 06:25:00 14.7 C 93 % 13.58 C
2095 30-07-2019 06:30:00 14.7 C 93 % 13.58 C
2096 30-07-2019 06:35:00 14.7 C 93 % 13.58 C
2097 30-07-2019 06:40:00 14.8 C 93 % 13.68 C
2098 30-07-2019 06:45:00 14.7 C 93 % 13.58 C
2099 30-07-2019 06:50:00 14.7 C 93 % 13.58 C
2100 30-07-2019 06:55:00 14.7 C 93 % 13.58 C
Sensor: Nr:Datum:Temp:Feuchte:Taupunkt:
Aussen-T/F 2101 30-07-2019 07:00:00 14.7 C 93 % 13.58 C
2102 30-07-2019 07:05:00 14.7 C 93 % 13.58 C
2103 30-07-2019 07:10:00 14.8 C 94 % 13.84 C
2104 30-07-2019 07:15:00 14.8 C 94 % 13.84 C
2105 30-07-2019 07:20:00 14.8 C 94 % 13.84 C
2106 30-07-2019 07:25:00 14.9 C 94 % 13.94 C
2107 30-07-2019 07:30:00 15 C 94 % 14.04 C
2108 30-07-2019 07:35:00 15 C 94 % 14.04 C
2109 30-07-2019 07:40:00 15.1 C 94 % 14.14 C
2110 30-07-2019 07:45:00 15.1 C 94 % 14.14 C
2111 30-07-2019 07:50:00 15.1 C 94 % 14.14 C
2112 30-07-2019 07:55:00 15.2 C 94 % 14.24 C
2113 30-07-2019 08:00:00 15.3 C 94 % 14.34 C
2114 30-07-2019 08:05:00 15.6 C 94 % 14.64 C
2115 30-07-2019 08:10:00 15.7 C 94 % 14.74 C
2116 30-07-2019 08:15:00 15.7 C 94 % 14.74 C
2117 30-07-2019 08:20:00 15.7 C 94 % 14.74 C
2118 30-07-2019 08:25:00 15.8 C 94 % 14.84 C
2119 30-07-2019 08:30:00 15.9 C 94 % 14.94 C
2120 30-07-2019 08:35:00 15.9 C 94 % 14.94 C
2121 30-07-2019 08:40:00 16.1 C 94 % 15.13 C
2122 30-07-2019 08:45:00 16.2 C 94 % 15.23 C
2123 30-07-2019 08:50:00 16.3 C 94 % 15.33 C
2124 30-07-2019 08:55:00 16.4 C 93 % 15.27 C
2125 30-07-2019 09:00:00 16.6 C 93 % 15.46 C
Sensor: Nr:Datum:Temp:Feuchte:Taupunkt:
Aussen-T/F 2126 30-07-2019 09:05:00 16.7 C 93 % 15.56 C
2127 30-07-2019 09:10:00 16.8 C 93 % 15.66 C
2128 30-07-2019 09:15:00 16.9 C 93 % 15.76 C
2129 30-07-2019 09:20:00 17.1 C 93 % 15.96 C
2130 30-07-2019 09:25:00 17.2 C 92 % 15.89 C
2131 30-07-2019 09:30:00 17.4 C 92 % 16.09 C
2132 30-07-2019 09:35:00 17.7 C 92 % 16.38 C
2133 30-07-2019 09:40:00 17.8 C 91 % 16.31 C
2134 30-07-2019 09:45:00 18 C 91 % 16.51 C
2135 30-07-2019 09:50:00 18.2 C 90 % 16.53 C
2136 30-07-2019 09:55:00 18.4 C 89 % 16.55 C
2137 30-07-2019 10:00:00 18.6 C 89 % 16.75 C
2138 30-07-2019 10:05:00 18.8 C 88 % 16.77 C
2139 30-07-2019 10:10:00 19.2 C 87 % 16.98 C
2140 30-07-2019 10:15:00 19.4 C 86 % 17 C
2141 30-07-2019 10:20:00 19.7 C 84 % 16.92 C
2142 30-07-2019 10:25:00 20.1 C 83 % 17.12 C
2143 30-07-2019 10:30:00 20.3 C 82 % 17.13 C
2144 30-07-2019 10:35:00 20.7 C 81 % 17.32 C
2145 30-07-2019 10:40:00 21.1 C 79 % 17.32 C
2146 30-07-2019 10:45:00 21.4 C 79 % 17.61 C
2147 30-07-2019 10:50:00 21.8 C 75 % 17.17 C
2148 30-07-2019 10:55:00 22.2 C 74 % 17.34 C
2149 30-07-2019 11:00:00 22.6 C 72 % 17.3 C
2150 30-07-2019 11:05:00 22.9 C 70 % 17.14 C
Sensor: Nr:Datum:Temp:Feuchte:Taupunkt:
Aussen-T/F 2151 30-07-2019 11:10:00 23.4 C 63 % 15.96 C
2152 30-07-2019 11:15:00 24.3 C 61 % 16.3 C
2153 30-07-2019 11:20:00 24.7 C 58 % 15.88 C
2154 30-07-2019 11:25:00 25.3 C 55 % 15.61 C
2155 30-07-2019 11:30:00 25.7 C 54 % 15.7 C
2156 30-07-2019 11:35:00 26.1 C 53 % 15.77 C
2157 30-07-2019 11:40:00 26.2 C 53 % 15.87 C
2158 30-07-2019 11:45:00 26.1 C 52 % 15.48 C
2159 30-07-2019 11:50:00 26.1 C 52 % 15.48 C
2160 30-07-2019 11:55:00 26.2 C 52 % 15.57 C
2161 30-07-2019 12:00:00 26.3 C 51 % 15.36 C
2162 30-07-2019 12:05:00 26.5 C 49 % 14.92 C
2163 30-07-2019 12:10:00 26.6 C 49 % 15.01 C
2164 30-07-2019 12:15:00 26.8 C 46 % 14.21 C
2165 30-07-2019 12:20:00 26.9 C 48 % 14.96 C
2166 30-07-2019 12:25:00 27.1 C 45 % 14.15 C
2167 30-07-2019 12:30:00 27.2 C 44 % 13.89 C
2168 30-07-2019 12:35:00 27.2 C 43 % 13.54 C
2169 30-07-2019 12:40:00 27.2 C 44 % 13.89 C
2170 30-07-2019 12:45:00 27.3 C 42 % 13.27 C
2171 30-07-2019 12:50:00 27.5 C 44 % 14.16 C
2172 30-07-2019 12:55:00 27.7 C 41 % 13.25 C
2173 30-07-2019 13:00:00 27.7 C 43 % 13.99 C
2174 30-07-2019 13:05:00 27.7 C 41 % 13.25 C
2175 30-07-2019 13:10:00 27.9 C 42 % 13.8 C
Sensor: Nr:Datum:Temp:Feuchte:Taupunkt:
Aussen-T/F 2176 30-07-2019 13:15:00 28.1 C 40 % 13.23 C
2177 30-07-2019 13:20:00 28.1 C 39 % 12.85 C
2178 30-07-2019 13:25:00 28.1 C 39 % 12.85 C
2179 30-07-2019 13:30:00 28.3 C 39 % 13.02 C
2180 30-07-2019 13:35:00 28.4 C 39 % 13.11 C
2181 30-07-2019 13:40:00 28.5 C 39 % 13.2 C
2182 30-07-2019 13:45:00 28.6 C 39 % 13.29 C
2183 30-07-2019 13:50:00 28.7 C 36 % 12.16 C
2184 30-07-2019 13:55:00 28.8 C 35 % 11.82 C
2185 30-07-2019 14:00:00 28.8 C 36 % 12.25 C
2186 30-07-2019 14:05:00 28.9 C 36 % 12.33 C
2187 30-07-2019 14:10:00 29.1 C 37 % 12.93 C
2188 30-07-2019 14:15:00 29.2 C 39 % 13.82 C
2189 30-07-2019 14:20:00 29.3 C 37 % 13.1 C
2190 30-07-2019 14:25:00 29.3 C 39 % 13.91 C
2191 30-07-2019 14:30:00 29.6 C 39 % 14.18 C
2192 30-07-2019 14:35:00 29.8 C 37 % 13.54 C
2193 30-07-2019 14:40:00 29.9 C 39 % 14.44 C
2194 30-07-2019 14:45:00 29.9 C 37 % 13.63 C
2195 30-07-2019 14:50:00 30 C 39 % 14.53 C
2196 30-07-2019 14:55:00 30.1 C 37 % 13.81 C
2197 30-07-2019 15:00:00 30.1 C 38 % 14.22 C
2198 30-07-2019 15:05:00 30.3 C 38 % 14.4 C
2199 30-07-2019 15:10:00 30.4 C 36 % 13.65 C
2200 30-07-2019 15:15:00 30.4 C 37 % 14.07 C
Sensor: Nr:Datum:Temp:Feuchte:Taupunkt:
Aussen-T/F 2201 30-07-2019 15:20:00 30.5 C 36 % 13.74 C
2202 30-07-2019 15:25:00 30.5 C 37 % 14.16 C
2203 30-07-2019 15:30:00 30.8 C 36 % 14 C
2204 30-07-2019 15:35:00 31 C 35 % 13.75 C
2205 30-07-2019 15:40:00 31.3 C 34 % 13.56 C
2206 30-07-2019 15:45:00 30.9 C 35 % 13.66 C
2207 30-07-2019 15:50:00 31 C 36 % 14.18 C
2208 30-07-2019 15:55:00 31.1 C 35 % 13.83 C
2209 30-07-2019 16:00:00 31.2 C 33 % 13.02 C
2210 30-07-2019 16:05:00 31.3 C 34 % 13.56 C
2211 30-07-2019 16:10:00 31.6 C 33 % 13.36 C
2212 30-07-2019 16:15:00 32 C 32 % 13.24 C
2213 30-07-2019 16:20:00 31.9 C 31 % 12.67 C
2214 30-07-2019 16:25:00 31.3 C 34 % 13.56 C
2215 30-07-2019 16:30:00 31.3 C 35 % 14.01 C
2216 30-07-2019 16:35:00 31.6 C 35 % 14.27 C
2217 30-07-2019 16:40:00 31.1 C 35 % 13.83 C
2218 30-07-2019 16:45:00 30.7 C 36 % 13.92 C
2219 30-07-2019 16:50:00 30.4 C 36 % 13.65 C
2220 30-07-2019 16:55:00 30.1 C 37 % 13.81 C
2221 30-07-2019 17:00:00 29.8 C 38 % 13.95 C
2222 30-07-2019 17:05:00 29.9 C 38 % 14.04 C
2223 30-07-2019 17:10:00 30.5 C 37 % 14.16 C
2224 30-07-2019 17:15:00 30.6 C 37 % 14.25 C
2225 30-07-2019 17:20:00 30.3 C 37 % 13.99 C
Sensor: Nr:Datum:Temp:Feuchte:Taupunkt:
Aussen-T/F 2226 30-07-2019 17:25:00 29.7 C 38 % 13.87 C
2227 30-07-2019 17:30:00 29.1 C 39 % 13.73 C
2228 30-07-2019 17:35:00 28.8 C 39 % 13.47 C
2229 30-07-2019 17:40:00 28.6 C 40 % 13.68 C
2230 30-07-2019 17:45:00 28.4 C 38 % 12.72 C
2231 30-07-2019 17:50:00 28.2 C 36 % 11.72 C
2232 30-07-2019 17:55:00 27.8 C 37 % 11.78 C
2233 30-07-2019 18:00:00 27.4 C 37 % 11.43 C
2234 30-07-2019 18:05:00 27.2 C 38 % 11.65 C
2235 30-07-2019 18:10:00 27.1 C 39 % 11.96 C
2236 30-07-2019 18:15:00 26.9 C 39 % 11.78 C
2237 30-07-2019 18:20:00 26.8 C 40 % 12.07 C
2238 30-07-2019 18:25:00 26.7 C 40 % 11.99 C
2239 30-07-2019 18:30:00 26.6 C 41 % 12.27 C
2240 30-07-2019 18:35:00 26.4 C 42 % 12.46 C
2241 30-07-2019 18:40:00 26.3 C 42 % 12.37 C
2242 30-07-2019 18:45:00 26.2 C 43 % 12.64 C
2243 30-07-2019 18:50:00 26 C 44 % 12.81 C
2244 30-07-2019 18:55:00 25.9 C 44 % 12.72 C
2245 30-07-2019 19:00:00 25.8 C 45 % 12.97 C
2246 30-07-2019 19:05:00 25.7 C 45 % 12.88 C
2247 30-07-2019 19:10:00 25.6 C 45 % 12.79 C
2248 30-07-2019 19:15:00 25.6 C 45 % 12.79 C
2249 30-07-2019 19:20:00 25.5 C 46 % 13.03 C
2250 30-07-2019 19:25:00 24.9 C 53 % 14.66 C
Sensor: Nr:Datum:Temp:Feuchte:Taupunkt:
Aussen-T/F 2251 30-07-2019 19:30:00 23.8 C 56 % 14.5 C
2252 30-07-2019 19:35:00 23.4 C 56 % 14.13 C
2253 30-07-2019 19:40:00 23.4 C 55 % 13.85 C
2254 30-07-2019 19:45:00 23.6 C 56 % 14.31 C
2255 30-07-2019 19:50:00 23.7 C 56 % 14.4 C
2256 30-07-2019 19:55:00 23.7 C 55 % 14.13 C
2257 30-07-2019 20:00:00 23.7 C 56 % 14.4 C
2258 30-07-2019 20:05:00 23.8 C 56 % 14.5 C
2259 30-07-2019 20:10:00 23.9 C 55 % 14.31 C
2260 30-07-2019 20:15:00 23.9 C 55 % 14.31 C
2261 30-07-2019 20:20:00 24 C 55 % 14.41 C
2262 30-07-2019 20:25:00 24 C 55 % 14.41 C
2263 30-07-2019 20:30:00 24.1 C 55 % 14.5 C
2264 30-07-2019 20:35:00 24.2 C 55 % 14.59 C
2265 30-07-2019 20:40:00 24.3 C 55 % 14.68 C
2266 30-07-2019 20:45:00 24.4 C 55 % 14.78 C
2267 30-07-2019 20:50:00 24.4 C 55 % 14.78 C
2268 30-07-2019 20:55:00 24.4 C 55 % 14.78 C
2269 30-07-2019 21:00:00 24.3 C 55 % 14.68 C
2270 30-07-2019 21:05:00 24.3 C 54 % 14.4 C
2271 30-07-2019 21:10:00 24.2 C 54 % 14.31 C
2272 30-07-2019 21:15:00 24.1 C 55 % 14.5 C
2273 30-07-2019 21:20:00 23.9 C 56 % 14.59 C
2274 30-07-2019 21:25:00 23.8 C 57 % 14.77 C
2275 30-07-2019 21:30:00 23.6 C 57 % 14.59 C
Sensor: Nr:Datum:Temp:Feuchte:Taupunkt:
Aussen-T/F 2276 30-07-2019 21:35:00 23.4 C 58 % 14.67 C
2277 30-07-2019 21:40:00 23.3 C 58 % 14.58 C
2278 30-07-2019 21:45:00 23.2 C 59 % 14.75 C
2279 30-07-2019 21:50:00 23.1 C 59 % 14.65 C
2280 30-07-2019 21:55:00 22.9 C 59 % 14.47 C
2281 30-07-2019 22:00:00 22.7 C 60 % 14.54 C
2282 30-07-2019 22:05:00 22.6 C 60 % 14.44 C
2283 30-07-2019 22:10:00 22.5 C 61 % 14.61 C
2284 30-07-2019 22:15:00 22.4 C 62 % 14.76 C
2285 30-07-2019 22:20:00 22.3 C 62 % 14.67 C
2286 30-07-2019 22:25:00 22.2 C 63 % 14.82 C
2287 30-07-2019 22:30:00 22.1 C 63 % 14.73 C
2288 30-07-2019 22:35:00 22.1 C 63 % 14.73 C
2289 30-07-2019 22:40:00 22 C 63 % 14.63 C
2290 30-07-2019 22:45:00 21.9 C 64 % 14.78 C
2291 30-07-2019 22:50:00 21.9 C 66 % 15.26 C
2292 30-07-2019 22:55:00 21.8 C 66 % 15.17 C
2293 30-07-2019 23:00:00 21.7 C 66 % 15.07 C
2294 30-07-2019 23:05:00 21.6 C 66 % 14.98 C
2295 30-07-2019 23:10:00 21.5 C 67 % 15.12 C
2296 30-07-2019 23:15:00 21.4 C 67 % 15.02 C
2297 30-07-2019 23:20:00 21.3 C 68 % 15.16 C
2298 30-07-2019 23:25:00 21.2 C 69 % 15.29 C
2299 30-07-2019 23:30:00 21.1 C 69 % 15.19 C
2300 30-07-2019 23:35:00 21 C 69 % 15.1 C
Sensor: Nr:Datum:Temp:Feuchte:Taupunkt:
Aussen-T/F 2301 30-07-2019 23:40:00 20.9 C 68 % 14.77 C
2302 30-07-2019 23:45:00 20.8 C 69 % 14.91 C
2303 30-07-2019 23:50:00 20.8 C 69 % 14.91 C
2304 30-07-2019 23:55:00 20.8 C 69 % 14.91 C
2305 31-07-2019 00:00:00 20.7 C 69 % 14.81 C
2306 31-07-2019 00:05:00 20.7 C 69 % 14.81 C
2307 31-07-2019 00:10:00 20.7 C 69 % 14.81 C
2308 31-07-2019 00:15:00 20.6 C 69 % 14.71 C
2309 31-07-2019 00:20:00 20.6 C 70 % 14.94 C
2310 31-07-2019 00:25:00 20.6 C 70 % 14.94 C
2311 31-07-2019 00:30:00 20.6 C 69 % 14.71 C
2312 31-07-2019 00:35:00 20.5 C 70 % 14.84 C
2313 31-07-2019 00:40:00 20.4 C 70 % 14.75 C
2314 31-07-2019 00:45:00 20.4 C 71 % 14.97 C
2315 31-07-2019 00:50:00 20.4 C 71 % 14.97 C
2316 31-07-2019 00:55:00 20.4 C 71 % 14.97 C
2317 31-07-2019 01:00:00 20.3 C 71 % 14.87 C
2318 31-07-2019 01:05:00 20.3 C 71 % 14.87 C
2319 31-07-2019 01:10:00 20.3 C 71 % 14.87 C
2320 31-07-2019 01:15:00 20.3 C 71 % 14.87 C
2321 31-07-2019 01:20:00 20.3 C 71 % 14.87 C
2322 31-07-2019 01:25:00 20.3 C 71 % 14.87 C
2323 31-07-2019 01:30:00 20.3 C 71 % 14.87 C
2324 31-07-2019 01:35:00 20.3 C 71 % 14.87 C
2325 31-07-2019 01:40:00 20.4 C 71 % 14.97 C
Sensor: Nr:Datum:Temp:Feuchte:Taupunkt:
Aussen-T/F 2326 31-07-2019 01:45:00 20.4 C 71 % 14.97 C
2327 31-07-2019 01:50:00 20.4 C 71 % 14.97 C
2328 31-07-2019 01:55:00 20.3 C 71 % 14.87 C
2329 31-07-2019 02:00:00 20.2 C 71 % 14.78 C
2330 31-07-2019 02:05:00 20.1 C 71 % 14.68 C
2331 31-07-2019 02:10:00 19.9 C 71 % 14.49 C
2332 31-07-2019 02:15:00 19.8 C 71 % 14.39 C
2333 31-07-2019 02:20:00 19.8 C 72 % 14.61 C
2334 31-07-2019 02:25:00 19.7 C 72 % 14.51 C
2335 31-07-2019 02:30:00 19.7 C 72 % 14.51 C
2336 31-07-2019 02:35:00 19.6 C 72 % 14.42 C
2337 31-07-2019 02:40:00 19.6 C 72 % 14.42 C
2338 31-07-2019 02:45:00 19.4 C 72 % 14.22 C
2339 31-07-2019 02:50:00 19.4 C 72 % 14.22 C
2340 31-07-2019 02:55:00 19.3 C 72 % 14.13 C
2341 31-07-2019 03:00:00 19.2 C 72 % 14.03 C
2342 31-07-2019 03:05:00 19.1 C 73 % 14.15 C
2343 31-07-2019 03:10:00 18.9 C 73 % 13.96 C
2344 31-07-2019 03:15:00 18.8 C 74 % 14.07 C
2345 31-07-2019 03:20:00 18.7 C 74 % 13.97 C
2346 31-07-2019 03:25:00 18.6 C 75 % 14.08 C
2347 31-07-2019 03:30:00 18.6 C 76 % 14.29 C
2348 31-07-2019 03:35:00 18.4 C 76 % 14.1 C
2349 31-07-2019 03:40:00 18.4 C 76 % 14.1 C
2350 31-07-2019 03:45:00 18.3 C 77 % 14.2 C
Sensor: Nr:Datum:Temp:Feuchte:Taupunkt:
Aussen-T/F 2351 31-07-2019 03:50:00 18.3 C 77 % 14.2 C
2352 31-07-2019 03:55:00 18.3 C 78 % 14.4 C
2353 31-07-2019 04:00:00 18.3 C 78 % 14.4 C
2354 31-07-2019 04:05:00 18.3 C 79 % 14.6 C
2355 31-07-2019 04:10:00 18.3 C 78 % 14.4 C
2356 31-07-2019 04:15:00 18.4 C 78 % 14.5 C
2357 31-07-2019 04:20:00 18.6 C 77 % 14.49 C
2358 31-07-2019 04:25:00 18.7 C 77 % 14.59 C
2359 31-07-2019 04:30:00 18.7 C 76 % 14.39 C
2360 31-07-2019 04:35:00 18.7 C 76 % 14.39 C
2361 31-07-2019 04:40:00 18.8 C 76 % 14.48 C
2362 31-07-2019 04:45:00 18.8 C 77 % 14.68 C
2363 31-07-2019 04:50:00 18.7 C 76 % 14.39 C
2364 31-07-2019 04:55:00 18.6 C 76 % 14.29 C
2365 31-07-2019 05:00:00 18.4 C 76 % 14.1 C
2366 31-07-2019 05:05:00 18.3 C 76 % 14 C
2367 31-07-2019 05:10:00 18.1 C 76 % 13.81 C
2368 31-07-2019 05:15:00 17.9 C 77 % 13.81 C
2369 31-07-2019 05:20:00 17.8 C 78 % 13.91 C
2370 31-07-2019 05:25:00 17.7 C 78 % 13.82 C
2371 31-07-2019 05:30:00 17.7 C 79 % 14.01 C
2372 31-07-2019 05:35:00 17.6 C 79 % 13.92 C
2373 31-07-2019 05:40:00 17.6 C 79 % 13.92 C
2374 31-07-2019 05:45:00 17.6 C 79 % 13.92 C
2375 31-07-2019 05:50:00 17.6 C 80 % 14.11 C
Sensor: Nr:Datum:Temp:Feuchte:Taupunkt:
Aussen-T/F 2376 31-07-2019 05:55:00 17.7 C 79 % 14.01 C
2377 31-07-2019 06:00:00 17.7 C 79 % 14.01 C
2378 31-07-2019 06:05:00 17.7 C 79 % 14.01 C
2379 31-07-2019 06:10:00 17.7 C 79 % 14.01 C
2380 31-07-2019 06:15:00 17.8 C 78 % 13.91 C
2381 31-07-2019 06:20:00 17.8 C 78 % 13.91 C
2382 31-07-2019 06:25:00 17.7 C 78 % 13.82 C
2383 31-07-2019 06:30:00 17.7 C 78 % 13.82 C
2384 31-07-2019 06:35:00 17.7 C 78 % 13.82 C
2385 31-07-2019 06:40:00 17.6 C 78 % 13.72 C
2386 31-07-2019 06:45:00 17.5 C 78 % 13.62 C
2387 31-07-2019 06:50:00 17.4 C 79 % 13.72 C
2388 31-07-2019 06:55:00 17.4 C 79 % 13.72 C
2389 31-07-2019 07:00:00 17.3 C 79 % 13.63 C
2390 31-07-2019 07:05:00 17.3 C 80 % 13.82 C
2391 31-07-2019 07:10:00 17.3 C 80 % 13.82 C
2392 31-07-2019 07:15:00 17.3 C 80 % 13.82 C
2393 31-07-2019 07:20:00 17.3 C 80 % 13.82 C
2394 31-07-2019 07:25:00 17.3 C 80 % 13.82 C
2395 31-07-2019 07:30:00 17.3 C 80 % 13.82 C
2396 31-07-2019 07:35:00 17.4 C 80 % 13.92 C
2397 31-07-2019 07:40:00 17.4 C 80 % 13.92 C
2398 31-07-2019 07:45:00 17.4 C 80 % 13.92 C
2399 31-07-2019 07:50:00 17.6 C 80 % 14.11 C
2400 31-07-2019 07:55:00 17.6 C 80 % 14.11 C
Sensor: Nr:Datum:Temp:Feuchte:Taupunkt:
Aussen-T/F 2401 31-07-2019 08:00:00 17.7 C 79 % 14.01 C
2402 31-07-2019 08:05:00 17.8 C 78 % 13.91 C
2403 31-07-2019 08:10:00 17.9 C 78 % 14.01 C
2404 31-07-2019 08:15:00 18 C 78 % 14.11 C
2405 31-07-2019 08:20:00 18.1 C 79 % 14.4 C
2406 31-07-2019 08:25:00 18.2 C 76 % 13.9 C
2407 31-07-2019 08:30:00 18.4 C 75 % 13.89 C
2408 31-07-2019 08:35:00 18.7 C 74 % 13.97 C
2409 31-07-2019 08:40:00 18.9 C 73 % 13.96 C
2410 31-07-2019 08:45:00 19.1 C 72 % 13.94 C
2411 31-07-2019 08:50:00 19.2 C 72 % 14.03 C
2412 31-07-2019 08:55:00 19.3 C 71 % 13.91 C
2413 31-07-2019 09:00:00 19.4 C 72 % 14.22 C
2414 31-07-2019 09:05:00 19.5 C 71 % 14.1 C
2415 31-07-2019 09:10:00 19.6 C 70 % 13.98 C
2416 31-07-2019 09:15:00 19.8 C 70 % 14.17 C
2417 31-07-2019 09:20:00 19.8 C 69 % 13.95 C
2418 31-07-2019 09:25:00 19.9 C 68 % 13.82 C
2419 31-07-2019 09:30:00 20.1 C 67 % 13.78 C
2420 31-07-2019 09:35:00 20.2 C 67 % 13.88 C
2421 31-07-2019 09:40:00 20.4 C 66 % 13.84 C
2422 31-07-2019 09:45:00 20.4 C 65 % 13.6 C
2423 31-07-2019 09:50:00 20.5 C 64 % 13.46 C
2424 31-07-2019 09:55:00 20.6 C 63 % 13.31 C
2425 31-07-2019 10:00:00 20.7 C 64 % 13.65 C
Sensor: Nr:Datum:Temp:Feuchte:Taupunkt:
Aussen-T/F 2426 31-07-2019 10:05:00 20.8 C 62 % 13.26 C
2427 31-07-2019 10:10:00 20.9 C 61 % 13.1 C
2428 31-07-2019 10:15:00 21.2 C 61 % 13.38 C
2429 31-07-2019 10:20:00 21.4 C 59 % 13.06 C
2430 31-07-2019 10:25:00 21.4 C 57 % 12.53 C
2431 31-07-2019 10:30:00 21.4 C 57 % 12.53 C
2432 31-07-2019 10:35:00 21.5 C 56 % 12.36 C
2433 31-07-2019 10:40:00 21.7 C 57 % 12.81 C
2434 31-07-2019 10:45:00 21.8 C 58 % 13.17 C
2435 31-07-2019 10:50:00 21.8 C 56 % 12.64 C
2436 31-07-2019 10:55:00 21.7 C 57 % 12.81 C
2437 31-07-2019 11:00:00 21.5 C 56 % 12.36 C
2438 31-07-2019 11:05:00 21.3 C 56 % 12.17 C
2439 31-07-2019 11:10:00 21.1 C 58 % 12.52 C
2440 31-07-2019 11:15:00 21.1 C 57 % 12.25 C
2441 31-07-2019 11:20:00 21.2 C 57 % 12.35 C
2442 31-07-2019 11:25:00 21.4 C 56 % 12.27 C
2443 31-07-2019 11:30:00 21.6 C 55 % 12.18 C
2444 31-07-2019 11:35:00 21.8 C 54 % 12.08 C
2445 31-07-2019 11:40:00 21.9 C 54 % 12.18 C
2446 31-07-2019 11:45:00 22 C 54 % 12.27 C
2447 31-07-2019 11:50:00 22.2 C 53 % 12.17 C
2448 31-07-2019 11:55:00 22.2 C 53 % 12.17 C
2449 31-07-2019 12:00:00 22.1 C 52 % 11.79 C
2450 31-07-2019 12:05:00 22.2 C 52 % 11.88 C
Sensor: Nr:Datum:Temp:Feuchte:Taupunkt:
Aussen-T/F 2451 31-07-2019 12:10:00 22.3 C 52 % 11.97 C
2452 31-07-2019 12:15:00 22.6 C 53 % 12.54 C
2453 31-07-2019 12:20:00 22.8 C 52 % 12.43 C
2454 31-07-2019 12:25:00 22.9 C 51 % 12.23 C
2455 31-07-2019 12:30:00 22.9 C 48 % 11.31 C
2456 31-07-2019 12:35:00 22.7 C 49 % 11.44 C
2457 31-07-2019 12:40:00 22.8 C 49 % 11.53 C
2458 31-07-2019 12:45:00 22.8 C 50 % 11.84 C
2459 31-07-2019 12:50:00 22.9 C 51 % 12.23 C
2460 31-07-2019 12:55:00 23 C 51 % 12.32 C
2461 31-07-2019 13:00:00 23.1 C 52 % 12.71 C
2462 31-07-2019 13:05:00 23.2 C 51 % 12.51 C
2463 31-07-2019 13:10:00 23.3 C 49 % 11.99 C
2464 31-07-2019 13:15:00 23.3 C 47 % 11.36 C
2465 31-07-2019 13:20:00 23.4 C 47 % 11.45 C
2466 31-07-2019 13:25:00 23.6 C 47 % 11.63 C
2467 31-07-2019 13:30:00 23.9 C 46 % 11.58 C
2468 31-07-2019 13:35:00 24 C 45 % 11.34 C
2469 31-07-2019 13:40:00 24 C 46 % 11.67 C
2470 31-07-2019 13:45:00 24.1 C 45 % 11.43 C
2471 31-07-2019 13:50:00 24.2 C 44 % 11.18 C
2472 31-07-2019 13:55:00 24.2 C 45 % 11.52 C
2473 31-07-2019 14:00:00 24.3 C 44 % 11.27 C
2474 31-07-2019 14:05:00 24.4 C 44 % 11.36 C
2475 31-07-2019 14:10:00 24.3 C 43 % 10.93 C
Sensor: Nr:Datum:Temp:Feuchte:Taupunkt:
Aussen-T/F 2476 31-07-2019 14:15:00 24.4 C 43 % 11.02 C
2477 31-07-2019 14:20:00 24.5 C 44 % 11.45 C
2478 31-07-2019 14:25:00 24.7 C 44 % 11.63 C
2479 31-07-2019 14:30:00 25 C 42 % 11.2 C
2480 31-07-2019 14:35:00 25.1 C 41 % 10.93 C
2481 31-07-2019 14:40:00 24.9 C 41 % 10.75 C
2482 31-07-2019 14:45:00 25.1 C 41 % 10.93 C
2483 31-07-2019 14:50:00 25.2 C 41 % 11.02 C
2484 31-07-2019 14:55:00 25.3 C 41 % 11.11 C
2485 31-07-2019 15:00:00 25.4 C 39 % 10.45 C
2486 31-07-2019 15:05:00 25.4 C 40 % 10.83 C
2487 31-07-2019 15:10:00 25.1 C 41 % 10.93 C
2488 31-07-2019 15:15:00 25.1 C 43 % 11.65 C
2489 31-07-2019 15:20:00 25.4 C 40 % 10.83 C
2490 31-07-2019 15:25:00 25.8 C 40 % 11.18 C
2491 31-07-2019 15:30:00 26 C 39 % 10.98 C
2492 31-07-2019 15:35:00 26 C 39 % 10.98 C
2493 31-07-2019 15:40:00 25.6 C 40 % 11 C
2494 31-07-2019 15:45:00 25.7 C 40 % 11.09 C
2495 31-07-2019 15:50:00 25.6 C 40 % 11 C
2496 31-07-2019 15:55:00 25.5 C 40 % 10.91 C
2497 31-07-2019 16:00:00 25.9 C 40 % 11.27 C
2498 31-07-2019 16:05:00 26.3 C 38 % 10.86 C
2499 31-07-2019 16:10:00 25.8 C 39 % 10.8 C
2500 31-07-2019 16:15:00 25.2 C 41 % 11.02 C
Sensor: Nr:Datum:Temp:Feuchte:Taupunkt:
Aussen-T/F 2501 31-07-2019 16:20:00 24.8 C 42 % 11.02 C
2502 31-07-2019 16:25:00 24.7 C 43 % 11.29 C
2503 31-07-2019 16:30:00 24.6 C 43 % 11.2 C
2504 31-07-2019 16:35:00 24.4 C 43 % 11.02 C
2505 31-07-2019 16:40:00 24.3 C 44 % 11.27 C
2506 31-07-2019 16:45:00 24.3 C 45 % 11.61 C
2507 31-07-2019 16:50:00 24.4 C 45 % 11.7 C
2508 31-07-2019 16:55:00 24.8 C 45 % 12.06 C
2509 31-07-2019 17:00:00 24.8 C 44 % 11.72 C
2510 31-07-2019 17:05:00 25.1 C 44 % 12 C
2511 31-07-2019 17:10:00 25.4 C 43 % 11.92 C
2512 31-07-2019 17:15:00 25.6 C 43 % 12.1 C
2513 31-07-2019 17:20:00 25.7 C 43 % 12.19 C
2514 31-07-2019 17:25:00 25.4 C 43 % 11.92 C
2515 31-07-2019 17:30:00 25.2 C 41 % 11.02 C
2516 31-07-2019 17:35:00 25.2 C 42 % 11.38 C
2517 31-07-2019 17:40:00 25.1 C 43 % 11.65 C
2518 31-07-2019 17:45:00 25.1 C 43 % 11.65 C
2519 31-07-2019 17:50:00 25.2 C 43 % 11.74 C
2520 31-07-2019 17:55:00 25.2 C 43 % 11.74 C
2521 31-07-2019 18:00:00 24.8 C 44 % 11.72 C
2522 31-07-2019 18:05:00 24.4 C 45 % 11.7 C
2523 31-07-2019 18:10:00 24.2 C 46 % 11.85 C
2524 31-07-2019 18:15:00 23.9 C 46 % 11.58 C
2525 31-07-2019 18:20:00 23.8 C 48 % 12.14 C
Sensor: Nr:Datum:Temp:Feuchte:Taupunkt:
Aussen-T/F 2526 31-07-2019 18:25:00 23.7 C 47 % 11.73 C
2527 31-07-2019 18:30:00 23.7 C 47 % 11.73 C
2528 31-07-2019 18:35:00 23.6 C 48 % 11.95 C
2529 31-07-2019 18:40:00 23.6 C 50 % 12.57 C
2530 31-07-2019 18:45:00 23.6 C 48 % 11.95 C
2531 31-07-2019 18:50:00 23.6 C 48 % 11.95 C
2532 31-07-2019 18:55:00 23.6 C 48 % 11.95 C
2533 31-07-2019 19:00:00 23.6 C 48 % 11.95 C
2534 31-07-2019 19:05:00 23.7 C 47 % 11.73 C
2535 31-07-2019 19:10:00 23.9 C 48 % 12.23 C
2536 31-07-2019 19:15:00 24 C 48 % 12.32 C
2537 31-07-2019 19:20:00 23.9 C 50 % 12.85 C
2538 31-07-2019 19:25:00 23.7 C 50 % 12.67 C
2539 31-07-2019 19:30:00 23.4 C 50 % 12.39 C
2540 31-07-2019 19:35:00 23.3 C 46 % 11.04 C
2541 31-07-2019 19:40:00 23.2 C 45 % 10.62 C
2542 31-07-2019 19:45:00 23.2 C 46 % 10.95 C
2543 31-07-2019 19:50:00 23.1 C 51 % 12.42 C
2544 31-07-2019 19:55:00 22.9 C 53 % 12.82 C
2545 31-07-2019 20:00:00 22.8 C 53 % 12.73 C
2546 31-07-2019 20:05:00 22.7 C 53 % 12.63 C
2547 31-07-2019 20:10:00 22.4 C 53 % 12.36 C
2548 31-07-2019 20:15:00 22.3 C 54 % 12.55 C
2549 31-07-2019 20:20:00 22.2 C 54 % 12.45 C
2550 31-07-2019 20:25:00 22.2 C 56 % 13.01 C
Sensor: Nr:Datum:Temp:Feuchte:Taupunkt:
Aussen-T/F 2551 31-07-2019 20:30:00 22.2 C 57 % 13.28 C
2552 31-07-2019 20:35:00 22.1 C 57 % 13.19 C
2553 31-07-2019 20:40:00 21.9 C 57 % 13 C
2554 31-07-2019 20:45:00 21.7 C 58 % 13.08 C
2555 31-07-2019 20:50:00 21.4 C 58 % 12.8 C
2556 31-07-2019 20:55:00 21.2 C 59 % 12.87 C
2557 31-07-2019 21:00:00 21 C 60 % 12.94 C
2558 31-07-2019 21:05:00 20.8 C 60 % 12.76 C
2559 31-07-2019 21:10:00 20.7 C 61 % 12.91 C
2560 31-07-2019 21:15:00 20.4 C 60 % 12.38 C
2561 31-07-2019 21:20:00 20.2 C 60 % 12.19 C
2562 31-07-2019 21:25:00 20 C 60 % 12 C
2563 31-07-2019 21:30:00 19.8 C 59 % 11.56 C
2564 31-07-2019 21:35:00 19.6 C 59 % 11.37 C
2565 31-07-2019 21:40:00 19.4 C 59 % 11.19 C
2566 31-07-2019 21:45:00 19.2 C 59 % 11 C
2567 31-07-2019 21:50:00 19.1 C 59 % 10.91 C
2568 31-07-2019 21:55:00 18.9 C 60 % 10.97 C
2569 31-07-2019 22:00:00 18.8 C 60 % 10.88 C
2570 31-07-2019 22:05:00 18.7 C 61 % 11.03 C
2571 31-07-2019 22:10:00 18.7 C 60 % 10.78 C
2572 31-07-2019 22:15:00 18.6 C 61 % 10.94 C
2573 31-07-2019 22:20:00 18.6 C 61 % 10.94 C
2574 31-07-2019 22:25:00 18.6 C 61 % 10.94 C
2575 31-07-2019 22:30:00 18.6 C 61 % 10.94 C
Sensor: Nr:Datum:Temp:Feuchte:Taupunkt:
Aussen-T/F 2576 31-07-2019 22:35:00 18.6 C 61 % 10.94 C
2577 31-07-2019 22:40:00 18.7 C 62 % 11.28 C
2578 31-07-2019 22:45:00 18.7 C 62 % 11.28 C
2579 31-07-2019 22:50:00 18.8 C 61 % 11.13 C
2580 31-07-2019 22:55:00 18.8 C 61 % 11.13 C
2581 31-07-2019 23:00:00 18.9 C 61 % 11.22 C
2582 31-07-2019 23:05:00 18.9 C 61 % 11.22 C
2583 31-07-2019 23:10:00 18.9 C 61 % 11.22 C
2584 31-07-2019 23:15:00 18.8 C 62 % 11.37 C
2585 31-07-2019 23:20:00 18.8 C 62 % 11.37 C
2586 31-07-2019 23:25:00 18.7 C 62 % 11.28 C
2587 31-07-2019 23:30:00 18.5 C 63 % 11.33 C
2588 31-07-2019 23:35:00 18.4 C 63 % 11.23 C
2589 31-07-2019 23:40:00 18.2 C 64 % 11.28 C
2590 31-07-2019 23:45:00 17.9 C 65 % 11.23 C
2591 31-07-2019 23:50:00 17.8 C 66 % 11.37 C
2592 31-07-2019 23:55:00 17.6 C 67 % 11.4 C
2593 01-08-2019 00:00:00 17.4 C 68 % 11.44 C
2594 01-08-2019 00:05:00 17.3 C 69 % 11.56 C
2595 01-08-2019 00:10:00 17.2 C 69 % 11.47 C
2596 01-08-2019 00:15:00 17.1 C 70 % 11.59 C
2597 01-08-2019 00:20:00 17 C 70 % 11.49 C
2598 01-08-2019 00:25:00 16.9 C 71 % 11.61 C
2599 01-08-2019 00:30:00 16.9 C 71 % 11.61 C
2600 01-08-2019 00:35:00 16.8 C 70 % 11.3 C
Sensor: Nr:Datum:Temp:Feuchte:Taupunkt:
Aussen-T/F 2601 01-08-2019 00:40:00 16.7 C 71 % 11.42 C
2602 01-08-2019 00:45:00 16.6 C 71 % 11.32 C
2603 01-08-2019 00:50:00 16.4 C 71 % 11.13 C
2604 01-08-2019 00:55:00 16.3 C 72 % 11.25 C
2605 01-08-2019 01:00:00 16.1 C 73 % 11.26 C
2606 01-08-2019 01:05:00 15.9 C 73 % 11.07 C
2607 01-08-2019 01:10:00 15.8 C 74 % 11.18 C
2608 01-08-2019 01:15:00 15.7 C 75 % 11.28 C
2609 01-08-2019 01:20:00 15.6 C 75 % 11.19 C
2610 01-08-2019 01:25:00 15.6 C 75 % 11.19 C
2611 01-08-2019 01:30:00 15.4 C 75 % 11 C
2612 01-08-2019 01:35:00 15.4 C 75 % 11 C
2613 01-08-2019 01:40:00 15.3 C 76 % 11.1 C
2614 01-08-2019 01:45:00 15.2 C 76 % 11 C
2615 01-08-2019 01:50:00 15.2 C 76 % 11 C
2616 01-08-2019 01:55:00 15.1 C 77 % 11.1 C
2617 01-08-2019 02:00:00 15.1 C 77 % 11.1 C
2618 01-08-2019 02:05:00 14.9 C 77 % 10.91 C
2619 01-08-2019 02:10:00 14.9 C 78 % 11.1 C
2620 01-08-2019 02:15:00 14.8 C 78 % 11 C
2621 01-08-2019 02:20:00 14.8 C 79 % 11.2 C
2622 01-08-2019 02:25:00 14.7 C 79 % 11.1 C
2623 01-08-2019 02:30:00 14.6 C 79 % 11 C
2624 01-08-2019 02:35:00 14.6 C 80 % 11.19 C
2625 01-08-2019 02:40:00 14.6 C 80 % 11.19 C
Sensor: Nr:Datum:Temp:Feuchte:Taupunkt:
Aussen-T/F 2626 01-08-2019 02:45:00 14.6 C 80 % 11.19 C
2627 01-08-2019 02:50:00 14.6 C 80 % 11.19 C
2628 01-08-2019 02:55:00 14.6 C 80 % 11.19 C
2629 01-08-2019 03:00:00 14.6 C 81 % 11.38 C
2630 01-08-2019 03:05:00 14.6 C 81 % 11.38 C
2631 01-08-2019 03:10:00 14.7 C 80 % 11.29 C
2632 01-08-2019 03:15:00 14.6 C 80 % 11.19 C
2633 01-08-2019 03:20:00 14.5 C 80 % 11.09 C
2634 01-08-2019 03:25:00 14.3 C 80 % 10.9 C
2635 01-08-2019 03:30:00 14.2 C 81 % 10.99 C
2636 01-08-2019 03:35:00 14 C 81 % 10.79 C
2637 01-08-2019 03:40:00 13.8 C 81 % 10.6 C
2638 01-08-2019 03:45:00 13.7 C 82 % 10.69 C
2639 01-08-2019 03:50:00 13.5 C 82 % 10.49 C
2640 01-08-2019 03:55:00 13.4 C 83 % 10.57 C
2641 01-08-2019 04:00:00 13.3 C 83 % 10.48 C
2642 01-08-2019 04:05:00 13.2 C 83 % 10.38 C
2643 01-08-2019 04:10:00 13.1 C 84 % 10.46 C
2644 01-08-2019 04:15:00 13 C 84 % 10.36 C
2645 01-08-2019 04:20:00 13 C 85 % 10.54 C
2646 01-08-2019 04:25:00 12.9 C 85 % 10.44 C
2647 01-08-2019 04:30:00 12.9 C 85 % 10.44 C
2648 01-08-2019 04:35:00 12.8 C 86 % 10.52 C
2649 01-08-2019 04:40:00 12.8 C 86 % 10.52 C
2650 01-08-2019 04:45:00 12.9 C 86 % 10.62 C
Sensor: Nr:Datum:Temp:Feuchte:Taupunkt:
Aussen-T/F 2651 01-08-2019 04:50:00 12.8 C 86 % 10.52 C
2652 01-08-2019 04:55:00 12.8 C 86 % 10.52 C
2653 01-08-2019 05:00:00 12.8 C 86 % 10.52 C
2654 01-08-2019 05:05:00 12.8 C 86 % 10.52 C
2655 01-08-2019 05:10:00 12.7 C 86 % 10.42 C
2656 01-08-2019 05:15:00 12.7 C 87 % 10.59 C
2657 01-08-2019 05:20:00 12.6 C 87 % 10.5 C
2658 01-08-2019 05:25:00 12.6 C 87 % 10.5 C
2659 01-08-2019 05:30:00 12.7 C 88 % 10.77 C
2660 01-08-2019 05:35:00 12.7 C 87 % 10.59 C
2661 01-08-2019 05:40:00 12.6 C 87 % 10.5 C
2662 01-08-2019 05:45:00 12.5 C 87 % 10.4 C
2663 01-08-2019 05:50:00 12.4 C 87 % 10.3 C
2664 01-08-2019 05:55:00 12.4 C 87 % 10.3 C
2665 01-08-2019 06:00:00 12.3 C 88 % 10.37 C
2666 01-08-2019 06:05:00 12.3 C 88 % 10.37 C
2667 01-08-2019 06:10:00 12.2 C 88 % 10.27 C
2668 01-08-2019 06:15:00 12.2 C 88 % 10.27 C
2669 01-08-2019 06:20:00 12.1 C 88 % 10.17 C
2670 01-08-2019 06:25:00 12.1 C 89 % 10.34 C
2671 01-08-2019 06:30:00 12.1 C 88 % 10.17 C
2672 01-08-2019 06:35:00 12 C 89 % 10.25 C
2673 01-08-2019 06:40:00 12 C 89 % 10.25 C
2674 01-08-2019 06:45:00 12 C 89 % 10.25 C
2675 01-08-2019 06:50:00 12.1 C 89 % 10.34 C
Sensor: Nr:Datum:Temp:Feuchte:Taupunkt:
Aussen-T/F 2676 01-08-2019 06:55:00 12.1 C 89 % 10.34 C
2677 01-08-2019 07:00:00 12.1 C 89 % 10.34 C
2678 01-08-2019 07:05:00 12.1 C 89 % 10.34 C
2679 01-08-2019 07:10:00 12.1 C 89 % 10.34 C
2680 01-08-2019 07:15:00 12.2 C 89 % 10.44 C
2681 01-08-2019 07:20:00 12.2 C 89 % 10.44 C
2682 01-08-2019 07:25:00 12.2 C 90 % 10.61 C
2683 01-08-2019 07:30:00 12.3 C 90 % 10.71 C
2684 01-08-2019 07:35:00 12.5 C 90 % 10.91 C
2685 01-08-2019 07:40:00 12.8 C 90 % 11.2 C
2686 01-08-2019 07:45:00 13.1 C 89 % 11.33 C
2687 01-08-2019 07:50:00 13.4 C 88 % 11.45 C
2688 01-08-2019 07:55:00 13.7 C 88 % 11.75 C
2689 01-08-2019 08:00:00 13.9 C 87 % 11.77 C
2690 01-08-2019 08:05:00 14.2 C 86 % 11.89 C
2691 01-08-2019 08:10:00 14.4 C 85 % 11.91 C
2692 01-08-2019 08:15:00 14.7 C 83 % 11.85 C
2693 01-08-2019 08:20:00 15 C 83 % 12.14 C
2694 01-08-2019 08:25:00 15.2 C 81 % 11.96 C
2695 01-08-2019 08:30:00 15.3 C 80 % 11.87 C
2696 01-08-2019 08:35:00 15.5 C 80 % 12.07 C
2697 01-08-2019 08:40:00 15.7 C 79 % 12.07 C
2698 01-08-2019 08:45:00 15.8 C 79 % 12.17 C
2699 01-08-2019 08:50:00 16.1 C 78 % 12.27 C
2700 01-08-2019 08:55:00 16.3 C 77 % 12.26 C
Sensor: Nr:Datum:Temp:Feuchte:Taupunkt:
Aussen-T/F 2701 01-08-2019 09:00:00 16.6 C 77 % 12.55 C
2702 01-08-2019 09:05:00 16.9 C 76 % 12.65 C
2703 01-08-2019 09:10:00 17.2 C 75 % 12.73 C
2704 01-08-2019 09:15:00 17.3 C 75 % 12.83 C
2705 01-08-2019 09:20:00 17.4 C 74 % 12.72 C
2706 01-08-2019 09:25:00 17.5 C 74 % 12.82 C
2707 01-08-2019 09:30:00 17.6 C 73 % 12.71 C
2708 01-08-2019 09:35:00 17.6 C 73 % 12.71 C
2709 01-08-2019 09:40:00 17.7 C 73 % 12.8 C
2710 01-08-2019 09:45:00 18 C 72 % 12.88 C
2711 01-08-2019 09:50:00 18.3 C 71 % 12.95 C
2712 01-08-2019 09:55:00 18.7 C 70 % 13.12 C
2713 01-08-2019 10:00:00 19.2 C 68 % 13.15 C
2714 01-08-2019 10:05:00 19.4 C 67 % 13.12 C
2715 01-08-2019 10:10:00 19.7 C 65 % 12.94 C
2716 01-08-2019 10:15:00 20 C 63 % 12.75 C
2717 01-08-2019 10:20:00 20.2 C 63 % 12.94 C
2718 01-08-2019 10:25:00 20.3 C 62 % 12.79 C
2719 01-08-2019 10:30:00 20.5 C 60 % 12.47 C
2720 01-08-2019 10:35:00 20.6 C 61 % 12.82 C
2721 01-08-2019 10:40:00 20.7 C 61 % 12.91 C
2722 01-08-2019 10:45:00 20.8 C 62 % 13.26 C
2723 01-08-2019 10:50:00 21.1 C 59 % 12.78 C
2724 01-08-2019 10:55:00 21.1 C 58 % 12.52 C
2725 01-08-2019 11:00:00 21.2 C 57 % 12.35 C
Sensor: Nr:Datum:Temp:Feuchte:Taupunkt:
Aussen-T/F 2726 01-08-2019 11:05:00 21.2 C 57 % 12.35 C
2727 01-08-2019 11:10:00 21.3 C 57 % 12.44 C
2728 01-08-2019 11:15:00 21.4 C 58 % 12.8 C
2729 01-08-2019 11:20:00 21.6 C 57 % 12.72 C
2730 01-08-2019 11:25:00 21.7 C 56 % 12.54 C
2731 01-08-2019 11:30:00 21.9 C 55 % 12.46 C
2732 01-08-2019 11:35:00 22.1 C 54 % 12.36 C
2733 01-08-2019 11:40:00 22 C 55 % 12.55 C
2734 01-08-2019 11:45:00 22.2 C 55 % 12.73 C
2735 01-08-2019 11:50:00 22.3 C 54 % 12.55 C
2736 01-08-2019 11:55:00 22.4 C 54 % 12.64 C
2737 01-08-2019 12:00:00 22.4 C 54 % 12.64 C
2738 01-08-2019 12:05:00 22.6 C 53 % 12.54 C
2739 01-08-2019 12:10:00 22.6 C 53 % 12.54 C
2740 01-08-2019 12:15:00 22.6 C 53 % 12.54 C
2741 01-08-2019 12:20:00 22.7 C 53 % 12.63 C
2742 01-08-2019 12:25:00 22.8 C 52 % 12.43 C
2743 01-08-2019 12:30:00 22.7 C 53 % 12.63 C
2744 01-08-2019 12:35:00 22.4 C 53 % 12.36 C
2745 01-08-2019 12:40:00 22.2 C 54 % 12.45 C
2746 01-08-2019 12:45:00 22.1 C 55 % 12.64 C
2747 01-08-2019 12:50:00 22.1 C 55 % 12.64 C
2748 01-08-2019 12:55:00 22.2 C 54 % 12.45 C
2749 01-08-2019 13:00:00 22.3 C 55 % 12.83 C
2750 01-08-2019 13:05:00 22.6 C 55 % 13.11 C
Sensor: Nr:Datum:Temp:Feuchte:Taupunkt:
Aussen-T/F 2751 01-08-2019 13:10:00 22.8 C 53 % 12.73 C
2752 01-08-2019 13:15:00 23.1 C 52 % 12.71 C
2753 01-08-2019 13:20:00 23.1 C 52 % 12.71 C
2754 01-08-2019 13:25:00 23.1 C 52 % 12.71 C
2755 01-08-2019 13:30:00 23.2 C 54 % 13.38 C
2756 01-08-2019 13:35:00 23.2 C 54 % 13.38 C
2757 01-08-2019 13:40:00 23.3 C 54 % 13.47 C
2758 01-08-2019 13:45:00 23.6 C 53 % 13.46 C
2759 01-08-2019 13:50:00 23.8 C 51 % 13.06 C
2760 01-08-2019 13:55:00 23.9 C 51 % 13.15 C
2761 01-08-2019 14:00:00 23.9 C 50 % 12.85 C
2762 01-08-2019 14:05:00 24.1 C 50 % 13.03 C
2763 01-08-2019 14:10:00 24.1 C 49 % 12.72 C
2764 01-08-2019 14:15:00 24.1 C 49 % 12.72 C
2765 01-08-2019 14:20:00 24.1 C 51 % 13.34 C
2766 01-08-2019 14:25:00 24.2 C 49 % 12.81 C
2767 01-08-2019 14:30:00 24.2 C 49 % 12.81 C
2768 01-08-2019 14:35:00 24.2 C 49 % 12.81 C
2769 01-08-2019 14:40:00 24.2 C 50 % 13.12 C
2770 01-08-2019 14:45:00 24.2 C 49 % 12.81 C
2771 01-08-2019 14:50:00 24.2 C 49 % 12.81 C
2772 01-08-2019 14:55:00 24.3 C 49 % 12.91 C
2773 01-08-2019 15:00:00 24.4 C 50 % 13.31 C
2774 01-08-2019 15:05:00 24.5 C 48 % 12.77 C
2775 01-08-2019 15:10:00 24.6 C 49 % 13.18 C
Sensor: Nr:Datum:Temp:Feuchte:Taupunkt:
Aussen-T/F 2776 01-08-2019 15:15:00 24.7 C 48 % 12.96 C
2777 01-08-2019 15:20:00 24.8 C 48 % 13.05 C
2778 01-08-2019 15:25:00 24.8 C 49 % 13.36 C
2779 01-08-2019 15:30:00 24.7 C 48 % 12.96 C
2780 01-08-2019 15:35:00 24.7 C 49 % 13.27 C
2781 01-08-2019 15:40:00 24.6 C 49 % 13.18 C
2782 01-08-2019 15:45:00 24.5 C 49 % 13.09 C
2783 01-08-2019 15:50:00 24.3 C 50 % 13.22 C
2784 01-08-2019 15:55:00 24.3 C 50 % 13.22 C
2785 01-08-2019 16:00:00 24.2 C 51 % 13.43 C
2786 01-08-2019 16:05:00 24.2 C 51 % 13.43 C
2787 01-08-2019 16:10:00 24.2 C 51 % 13.43 C
2788 01-08-2019 16:15:00 24.2 C 51 % 13.43 C
2789 01-08-2019 16:20:00 24.2 C 51 % 13.43 C
2790 01-08-2019 16:25:00 24.2 C 51 % 13.43 C
2791 01-08-2019 16:30:00 24.3 C 51 % 13.52 C
2792 01-08-2019 16:35:00 24.4 C 51 % 13.61 C
2793 01-08-2019 16:40:00 24.6 C 49 % 13.18 C
2794 01-08-2019 16:45:00 24.7 C 48 % 12.96 C
2795 01-08-2019 16:50:00 24.8 C 48 % 13.05 C
2796 01-08-2019 16:55:00 24.8 C 47 % 12.73 C
2797 01-08-2019 17:00:00 24.8 C 47 % 12.73 C
2798 01-08-2019 17:05:00 25 C 48 % 13.23 C
2799 01-08-2019 17:10:00 25 C 48 % 13.23 C
2800 01-08-2019 17:15:00 24.8 C 47 % 12.73 C
Sensor: Nr:Datum:Temp:Feuchte:Taupunkt:
Aussen-T/F 2801 01-08-2019 17:20:00 24.8 C 48 % 13.05 C
2802 01-08-2019 17:25:00 24.8 C 49 % 13.36 C
2803 01-08-2019 17:30:00 24.7 C 49 % 13.27 C
2804 01-08-2019 17:35:00 25 C 49 % 13.55 C
2805 01-08-2019 17:40:00 25.4 C 47 % 13.27 C
2806 01-08-2019 17:45:00 25.5 C 47 % 13.36 C
2807 01-08-2019 17:50:00 25.7 C 47 % 13.55 C
2808 01-08-2019 17:55:00 26.1 C 46 % 13.58 C
2809 01-08-2019 18:00:00 26.6 C 46 % 14.03 C
2810 01-08-2019 18:05:00 26.9 C 44 % 13.62 C
2811 01-08-2019 18:10:00 26.7 C 44 % 13.44 C
2812 01-08-2019 18:15:00 26.4 C 46 % 13.85 C
2813 01-08-2019 18:20:00 26.2 C 45 % 13.33 C
2814 01-08-2019 18:25:00 25.8 C 45 % 12.97 C
2815 01-08-2019 18:30:00 25.7 C 46 % 13.22 C
2816 01-08-2019 18:35:00 25.6 C 46 % 13.12 C
2817 01-08-2019 18:40:00 26.1 C 46 % 13.58 C
2818 01-08-2019 18:45:00 26.6 C 44 % 13.35 C
2819 01-08-2019 18:50:00 26.8 C 43 % 13.18 C
2820 01-08-2019 18:55:00 26.8 C 42 % 12.82 C
2821 01-08-2019 19:00:00 26.8 C 43 % 13.18 C
2822 01-08-2019 19:05:00 26.8 C 43 % 13.18 C
2823 01-08-2019 19:10:00 26.8 C 44 % 13.53 C
2824 01-08-2019 19:15:00 26.7 C 44 % 13.44 C
2825 01-08-2019 19:20:00 26.6 C 45 % 13.69 C
Sensor: Nr:Datum:Temp:Feuchte:Taupunkt:
Aussen-T/F 2826 01-08-2019 19:25:00 26.4 C 45 % 13.51 C
2827 01-08-2019 19:30:00 26.3 C 45 % 13.42 C
2828 01-08-2019 19:35:00 26.1 C 46 % 13.58 C
2829 01-08-2019 19:40:00 25.9 C 46 % 13.4 C
2830 01-08-2019 19:45:00 25.7 C 47 % 13.55 C
2831 01-08-2019 19:50:00 25.6 C 47 % 13.45 C
2832 01-08-2019 19:55:00 25.5 C 47 % 13.36 C
2833 01-08-2019 20:00:00 25.4 C 48 % 13.6 C
2834 01-08-2019 20:05:00 25.2 C 51 % 14.35 C
2835 01-08-2019 20:10:00 24.9 C 52 % 14.37 C
2836 01-08-2019 20:15:00 24.6 C 52 % 14.09 C
2837 01-08-2019 20:20:00 24.4 C 53 % 14.2 C
2838 01-08-2019 20:25:00 24.2 C 54 % 14.31 C
2839 01-08-2019 20:30:00 24 C 53 % 13.83 C
2840 01-08-2019 20:35:00 23.9 C 55 % 14.31 C
2841 01-08-2019 20:40:00 23.7 C 56 % 14.4 C
2842 01-08-2019 20:45:00 23.4 C 57 % 14.4 C
2843 01-08-2019 20:50:00 23 C 57 % 14.03 C
2844 01-08-2019 20:55:00 22.6 C 58 % 13.92 C
2845 01-08-2019 21:00:00 22.3 C 59 % 13.9 C
2846 01-08-2019 21:05:00 22.1 C 60 % 13.98 C
2847 01-08-2019 21:10:00 21.8 C 60 % 13.69 C
2848 01-08-2019 21:15:00 21.6 C 61 % 13.76 C
2849 01-08-2019 21:20:00 21.3 C 62 % 13.73 C
2850 01-08-2019 21:25:00 21.1 C 62 % 13.54 C
Sensor: Nr:Datum:Temp:Feuchte:Taupunkt:
Aussen-T/F 2851 01-08-2019 21:30:00 20.9 C 63 % 13.6 C
2852 01-08-2019 21:35:00 20.8 C 64 % 13.74 C
2853 01-08-2019 21:40:00 20.7 C 64 % 13.65 C
2854 01-08-2019 21:45:00 20.5 C 65 % 13.7 C
2855 01-08-2019 21:50:00 20.4 C 66 % 13.84 C
2856 01-08-2019 21:55:00 20.3 C 66 % 13.74 C
2857 01-08-2019 22:00:00 20.3 C 66 % 13.74 C
2858 01-08-2019 22:05:00 20.2 C 67 % 13.88 C
2859 01-08-2019 22:10:00 20.1 C 67 % 13.78 C
2860 01-08-2019 22:15:00 19.9 C 67 % 13.59 C
2861 01-08-2019 22:20:00 19.8 C 68 % 13.73 C
2862 01-08-2019 22:25:00 19.7 C 68 % 13.63 C
2863 01-08-2019 22:30:00 19.6 C 67 % 13.31 C
2864 01-08-2019 22:35:00 19.6 C 68 % 13.54 C
2865 01-08-2019 22:40:00 19.5 C 68 % 13.44 C
2866 01-08-2019 22:45:00 19.5 C 68 % 13.44 C
2867 01-08-2019 22:50:00 19.5 C 69 % 13.66 C
2868 01-08-2019 22:55:00 19.5 C 69 % 13.66 C
2869 01-08-2019 23:00:00 19.5 C 68 % 13.44 C
2870 01-08-2019 23:05:00 19.4 C 68 % 13.34 C
2871 01-08-2019 23:10:00 19.4 C 68 % 13.34 C
2872 01-08-2019 23:15:00 19.3 C 68 % 13.25 C
2873 01-08-2019 23:20:00 19.3 C 69 % 13.47 C
2874 01-08-2019 23:25:00 19.2 C 70 % 13.6 C
2875 01-08-2019 23:30:00 19.2 C 70 % 13.6 C
Sensor: Nr:Datum:Temp:Feuchte:Taupunkt:
Aussen-T/F 2876 01-08-2019 23:35:00 19.2 C 70 % 13.6 C
2877 01-08-2019 23:40:00 19.1 C 71 % 13.72 C
2878 01-08-2019 23:45:00 19.1 C 71 % 13.72 C
2879 01-08-2019 23:50:00 19.1 C 71 % 13.72 C
2880 01-08-2019 23:55:00 19.1 C 71 % 13.72 C
2881 02-08-2019 00:00:00 19.1 C 72 % 13.94 C
2882 02-08-2019 00:05:00 19.1 C 72 % 13.94 C
2883 02-08-2019 00:10:00 19 C 72 % 13.84 C
2884 02-08-2019 00:15:00 18.9 C 72 % 13.74 C
2885 02-08-2019 00:20:00 18.9 C 73 % 13.96 C
2886 02-08-2019 00:25:00 18.8 C 73 % 13.86 C
2887 02-08-2019 00:30:00 18.8 C 73 % 13.86 C
2888 02-08-2019 00:35:00 18.7 C 74 % 13.97 C
2889 02-08-2019 00:40:00 18.7 C 74 % 13.97 C
2890 02-08-2019 00:45:00 18.6 C 74 % 13.88 C
2891 02-08-2019 00:50:00 18.6 C 75 % 14.08 C
2892 02-08-2019 00:55:00 18.6 C 75 % 14.08 C
2893 02-08-2019 01:00:00 18.5 C 75 % 13.99 C
2894 02-08-2019 01:05:00 18.5 C 75 % 13.99 C
2895 02-08-2019 01:10:00 18.5 C 75 % 13.99 C
2896 02-08-2019 01:15:00 18.4 C 75 % 13.89 C
2897 02-08-2019 01:20:00 18.4 C 75 % 13.89 C
2898 02-08-2019 01:25:00 18.4 C 76 % 14.1 C
2899 02-08-2019 01:30:00 18.3 C 76 % 14 C
2900 02-08-2019 01:35:00 18.3 C 75 % 13.79 C
Sensor: Nr:Datum:Temp:Feuchte:Taupunkt:
Aussen-T/F 2901 02-08-2019 01:40:00 18.3 C 77 % 14.2 C
2902 02-08-2019 01:45:00 18.2 C 77 % 14.1 C
2903 02-08-2019 01:50:00 18.2 C 76 % 13.9 C
2904 02-08-2019 01:55:00 18.1 C 76 % 13.81 C
2905 02-08-2019 02:00:00 18.1 C 76 % 13.81 C
2906 02-08-2019 02:05:00 18.1 C 76 % 13.81 C
2907 02-08-2019 02:10:00 18 C 77 % 13.91 C
2908 02-08-2019 02:15:00 18 C 76 % 13.71 C
2909 02-08-2019 02:20:00 17.9 C 77 % 13.81 C
2910 02-08-2019 02:25:00 17.9 C 77 % 13.81 C
2911 02-08-2019 02:30:00 17.9 C 77 % 13.81 C
2912 02-08-2019 02:35:00 17.8 C 77 % 13.72 C
2913 02-08-2019 02:40:00 17.8 C 77 % 13.72 C
2914 02-08-2019 02:45:00 17.7 C 77 % 13.62 C
2915 02-08-2019 02:50:00 17.6 C 77 % 13.52 C
2916 02-08-2019 02:55:00 17.6 C 78 % 13.72 C
2917 02-08-2019 03:00:00 17.4 C 78 % 13.53 C
2918 02-08-2019 03:05:00 17.3 C 78 % 13.43 C
2919 02-08-2019 03:10:00 17.2 C 79 % 13.53 C
2920 02-08-2019 03:15:00 17.1 C 79 % 13.43 C
2921 02-08-2019 03:20:00 17.1 C 80 % 13.62 C
2922 02-08-2019 03:25:00 16.9 C 80 % 13.43 C
2923 02-08-2019 03:30:00 16.8 C 80 % 13.33 C
2924 02-08-2019 03:35:00 16.8 C 80 % 13.33 C
2925 02-08-2019 03:40:00 16.7 C 80 % 13.23 C
Sensor: Nr:Datum:Temp:Feuchte:Taupunkt:
Aussen-T/F 2926 02-08-2019 03:45:00 16.7 C 80 % 13.23 C
2927 02-08-2019 03:50:00 16.7 C 81 % 13.43 C
2928 02-08-2019 03:55:00 16.6 C 81 % 13.33 C
2929 02-08-2019 04:00:00 16.6 C 81 % 13.33 C
2930 02-08-2019 04:05:00 16.5 C 82 % 13.42 C
2931 02-08-2019 04:10:00 16.4 C 82 % 13.32 C
2932 02-08-2019 04:15:00 16.4 C 82 % 13.32 C
2933 02-08-2019 04:20:00 16.3 C 82 % 13.22 C
2934 02-08-2019 04:25:00 16.3 C 82 % 13.22 C
2935 02-08-2019 04:30:00 16.3 C 83 % 13.41 C
2936 02-08-2019 04:35:00 16.2 C 83 % 13.31 C
2937 02-08-2019 04:40:00 16.2 C 84 % 13.5 C
2938 02-08-2019 04:45:00 16.2 C 83 % 13.31 C
2939 02-08-2019 04:50:00 16.2 C 83 % 13.31 C
2940 02-08-2019 04:55:00 16.2 C 83 % 13.31 C
2941 02-08-2019 05:00:00 16.2 C 84 % 13.5 C
2942 02-08-2019 05:05:00 16.2 C 83 % 13.31 C
2943 02-08-2019 05:10:00 16.2 C 83 % 13.31 C
2944 02-08-2019 05:15:00 16.2 C 83 % 13.31 C
2945 02-08-2019 05:20:00 16.2 C 83 % 13.31 C
2946 02-08-2019 05:25:00 16.2 C 84 % 13.5 C
2947 02-08-2019 05:30:00 16.2 C 84 % 13.5 C
2948 02-08-2019 05:35:00 16.2 C 84 % 13.5 C
2949 02-08-2019 05:40:00 16.2 C 84 % 13.5 C
2950 02-08-2019 05:45:00 16.2 C 84 % 13.5 C
Sensor: Nr:Datum:Temp:Feuchte:Taupunkt:
Aussen-T/F 2951 02-08-2019 05:50:00 16.2 C 84 % 13.5 C
2952 02-08-2019 05:55:00 16.2 C 84 % 13.5 C
2953 02-08-2019 06:00:00 16.2 C 85 % 13.68 C
2954 02-08-2019 06:05:00 16.2 C 85 % 13.68 C
2955 02-08-2019 06:10:00 16.2 C 85 % 13.68 C
2956 02-08-2019 06:15:00 16.2 C 85 % 13.68 C
2957 02-08-2019 06:20:00 16.2 C 85 % 13.68 C
2958 02-08-2019 06:25:00 16.2 C 85 % 13.68 C
2959 02-08-2019 06:30:00 16.2 C 85 % 13.68 C
2960 02-08-2019 06:35:00 16.3 C 85 % 13.77 C
2961 02-08-2019 06:40:00 16.3 C 85 % 13.77 C
2962 02-08-2019 06:45:00 16.3 C 85 % 13.77 C
2963 02-08-2019 06:50:00 16.3 C 85 % 13.77 C
2964 02-08-2019 06:55:00 16.4 C 85 % 13.87 C
2965 02-08-2019 07:00:00 16.4 C 85 % 13.87 C
2966 02-08-2019 07:05:00 16.5 C 85 % 13.97 C
2967 02-08-2019 07:10:00 16.6 C 85 % 14.07 C
2968 02-08-2019 07:15:00 16.7 C 85 % 14.17 C
2969 02-08-2019 07:20:00 16.8 C 85 % 14.26 C
2970 02-08-2019 07:25:00 16.9 C 85 % 14.36 C
2971 02-08-2019 07:30:00 17 C 84 % 14.28 C
2972 02-08-2019 07:35:00 17.1 C 84 % 14.38 C
2973 02-08-2019 07:40:00 17.2 C 84 % 14.47 C
2974 02-08-2019 07:45:00 17.2 C 84 % 14.47 C
2975 02-08-2019 07:50:00 17.3 C 84 % 14.57 C
Sensor: Nr:Datum:Temp:Feuchte:Taupunkt:
Aussen-T/F 2976 02-08-2019 07:55:00 17.4 C 84 % 14.67 C
2977 02-08-2019 08:00:00 17.5 C 83 % 14.58 C
2978 02-08-2019 08:05:00 17.6 C 83 % 14.68 C
2979 02-08-2019 08:10:00 17.6 C 83 % 14.68 C
2980 02-08-2019 08:15:00 17.7 C 83 % 14.78 C
2981 02-08-2019 08:20:00 17.8 C 82 % 14.69 C
2982 02-08-2019 08:25:00 17.9 C 83 % 14.97 C
2983 02-08-2019 08:30:00 18 C 82 % 14.88 C
2984 02-08-2019 08:35:00 18.1 C 82 % 14.98 C
2985 02-08-2019 08:40:00 18.2 C 82 % 15.08 C
2986 02-08-2019 08:45:00 18.2 C 82 % 15.08 C
2987 02-08-2019 08:50:00 18.3 C 82 % 15.17 C
2988 02-08-2019 08:55:00 18.3 C 81 % 14.98 C
2989 02-08-2019 09:00:00 18.4 C 82 % 15.27 C
2990 02-08-2019 09:05:00 18.6 C 81 % 15.28 C
2991 02-08-2019 09:10:00 18.7 C 80 % 15.18 C
2992 02-08-2019 09:15:00 18.8 C 79 % 15.08 C
2993 02-08-2019 09:20:00 19 C 79 % 15.28 C
2994 02-08-2019 09:25:00 19.2 C 78 % 15.27 C
2995 02-08-2019 09:30:00 19.4 C 78 % 15.47 C
2996 02-08-2019 09:35:00 19.7 C 77 % 15.56 C
2997 02-08-2019 09:40:00 19.9 C 76 % 15.54 C
2998 02-08-2019 09:45:00 20.1 C 76 % 15.74 C
2999 02-08-2019 09:50:00 20.2 C 75 % 15.63 C
3000 02-08-2019 09:55:00 20.2 C 74 % 15.42 C
Sensor: Nr:Datum:Temp:Feuchte:Taupunkt:
Aussen-T/F 3001 02-08-2019 10:00:00 20.3 C 74 % 15.51 C
3002 02-08-2019 10:05:00 20.3 C 74 % 15.51 C
3003 02-08-2019 10:10:00 20.4 C 74 % 15.61 C
3004 02-08-2019 10:15:00 20.5 C 74 % 15.71 C
3005 02-08-2019 10:20:00 20.6 C 73 % 15.59 C
3006 02-08-2019 10:25:00 20.7 C 73 % 15.69 C
3007 02-08-2019 10:30:00 20.8 C 72 % 15.57 C
3008 02-08-2019 10:35:00 20.8 C 71 % 15.35 C
3009 02-08-2019 10:40:00 20.9 C 71 % 15.45 C
3010 02-08-2019 10:45:00 21 C 70 % 15.32 C
3011 02-08-2019 10:50:00 21.1 C 71 % 15.64 C
3012 02-08-2019 10:55:00 21.2 C 69 % 15.29 C
3013 02-08-2019 11:00:00 21.4 C 69 % 15.48 C
3014 02-08-2019 11:05:00 21.7 C 67 % 15.31 C
3015 02-08-2019 11:10:00 21.7 C 67 % 15.31 C
3016 02-08-2019 11:15:00 21.8 C 66 % 15.17 C
3017 02-08-2019 11:20:00 21.9 C 66 % 15.26 C
3018 02-08-2019 11:25:00 22.1 C 65 % 15.21 C
3019 02-08-2019 11:30:00 22.3 C 64 % 15.16 C
3020 02-08-2019 11:35:00 22.5 C 63 % 15.11 C
3021 02-08-2019 11:40:00 22.6 C 63 % 15.2 C
3022 02-08-2019 11:45:00 22.6 C 63 % 15.2 C
3023 02-08-2019 11:50:00 22.7 C 62 % 15.05 C
3024 02-08-2019 11:55:00 22.7 C 63 % 15.3 C
3025 02-08-2019 12:00:00 22.6 C 67 % 16.16 C
Sensor: Nr:Datum:Temp:Feuchte:Taupunkt:
Aussen-T/F 3026 02-08-2019 12:05:00 22.5 C 73 % 17.42 C
3027 02-08-2019 12:10:00 22.3 C 76 % 17.86 C
3028 02-08-2019 12:15:00 21.9 C 75 % 17.27 C
3029 02-08-2019 12:20:00 21.4 C 74 % 16.57 C
3030 02-08-2019 12:25:00 21.2 C 76 % 16.8 C
3031 02-08-2019 12:30:00 20.8 C 78 % 16.82 C
3032 02-08-2019 12:35:00 20.7 C 79 % 16.93 C
3033 02-08-2019 12:40:00 20.6 C 80 % 17.03 C
3034 02-08-2019 12:45:00 20.5 C 78 % 16.53 C
3035 02-08-2019 12:50:00 20.4 C 76 % 16.03 C
3036 02-08-2019 12:55:00 20.4 C 74 % 15.61 C
3037 02-08-2019 13:00:00 20.4 C 75 % 15.82 C
3038 02-08-2019 13:05:00 20.5 C 71 % 15.06 C
3039 02-08-2019 13:10:00 20.7 C 75 % 16.11 C
3040 02-08-2019 13:15:00 20.7 C 72 % 15.47 C
3041 02-08-2019 13:20:00 20.8 C 72 % 15.57 C
3042 02-08-2019 13:25:00 20.9 C 71 % 15.45 C
3043 02-08-2019 13:30:00 21.1 C 71 % 15.64 C
3044 02-08-2019 13:35:00 21.4 C 69 % 15.48 C
3045 02-08-2019 13:40:00 21.6 C 70 % 15.89 C
3046 02-08-2019 13:45:00 21.7 C 70 % 15.99 C
3047 02-08-2019 13:50:00 21.8 C 71 % 16.31 C
3048 02-08-2019 13:55:00 21.9 C 68 % 15.73 C
3049 02-08-2019 14:00:00 22 C 65 % 15.12 C
3050 02-08-2019 14:05:00 22.1 C 64 % 14.97 C
Sensor: Nr:Datum:Temp:Feuchte:Taupunkt:
Aussen-T/F 3051 02-08-2019 14:10:00 22.3 C 63 % 14.92 C
3052 02-08-2019 14:15:00 22.5 C 62 % 14.86 C
3053 02-08-2019 14:20:00 22.8 C 61 % 14.89 C
3054 02-08-2019 14:25:00 23 C 62 % 15.33 C
3055 02-08-2019 14:30:00 23.3 C 61 % 15.36 C
3056 02-08-2019 14:35:00 23.5 C 62 % 15.8 C
3057 02-08-2019 14:40:00 23.8 C 61 % 15.83 C
3058 02-08-2019 14:45:00 24.1 C 59 % 15.59 C
3059 02-08-2019 14:50:00 24.2 C 61 % 16.2 C
3060 02-08-2019 14:55:00 24.4 C 60 % 16.13 C
3061 02-08-2019 15:00:00 24.5 C 59 % 15.96 C
3062 02-08-2019 15:05:00 24.5 C 59 % 15.96 C
3063 02-08-2019 15:10:00 24.7 C 58 % 15.88 C
3064 02-08-2019 15:15:00 24.8 C 57 % 15.7 C
3065 02-08-2019 15:20:00 24.8 C 55 % 15.15 C
3066 02-08-2019 15:25:00 24.7 C 55 % 15.05 C
3067 02-08-2019 15:30:00 24.5 C 56 % 15.15 C
3068 02-08-2019 15:35:00 24.4 C 57 % 15.33 C
3069 02-08-2019 15:40:00 24.4 C 55 % 14.78 C
3070 02-08-2019 15:45:00 24.4 C 56 % 15.06 C
3071 02-08-2019 15:50:00 24.6 C 54 % 14.68 C
3072 02-08-2019 15:55:00 24.7 C 55 % 15.05 C
3073 02-08-2019 16:00:00 25.2 C 53 % 14.94 C
3074 02-08-2019 16:05:00 25.5 C 52 % 14.92 C
3075 02-08-2019 16:10:00 25.6 C 51 % 14.71 C
Sensor: Nr:Datum:Temp:Feuchte:Taupunkt:
Aussen-T/F 3076 02-08-2019 16:15:00 25.6 C 52 % 15.02 C
3077 02-08-2019 16:20:00 26.1 C 51 % 15.17 C
3078 02-08-2019 16:25:00 26.2 C 50 % 14.96 C
3079 02-08-2019 16:30:00 26.1 C 49 % 14.55 C
3080 02-08-2019 16:35:00 25.7 C 50 % 14.5 C
3081 02-08-2019 16:40:00 25.4 C 52 % 14.83 C
3082 02-08-2019 16:45:00 25.3 C 52 % 14.74 C
3083 02-08-2019 16:50:00 25.2 C 51 % 14.35 C
3084 02-08-2019 16:55:00 25.2 C 50 % 14.04 C
3085 02-08-2019 17:00:00 25.4 C 51 % 14.53 C
3086 02-08-2019 17:05:00 26.1 C 48 % 14.23 C
3087 02-08-2019 17:10:00 26.7 C 46 % 14.12 C
3088 02-08-2019 17:15:00 27.1 C 46 % 14.49 C
3089 02-08-2019 17:20:00 27.3 C 44 % 13.98 C
3090 02-08-2019 17:25:00 27.3 C 44 % 13.98 C
3091 02-08-2019 17:30:00 27.5 C 45 % 14.51 C
3092 02-08-2019 17:35:00 27.4 C 43 % 13.72 C
3093 02-08-2019 17:40:00 27 C 44 % 13.71 C
3094 02-08-2019 17:45:00 26.6 C 46 % 14.03 C
3095 02-08-2019 17:50:00 26.3 C 47 % 14.09 C
3096 02-08-2019 17:55:00 26 C 48 % 14.14 C
3097 02-08-2019 18:00:00 25.8 C 48 % 13.96 C
3098 02-08-2019 18:05:00 26 C 48 % 14.14 C
3099 02-08-2019 18:10:00 25.9 C 49 % 14.37 C
3100 02-08-2019 18:15:00 25.6 C 50 % 14.41 C
Sensor: Nr:Datum:Temp:Feuchte:Taupunkt:
Aussen-T/F 3101 02-08-2019 18:20:00 25.3 C 53 % 15.03 C
3102 02-08-2019 18:25:00 24.9 C 55 % 15.24 C
3103 02-08-2019 18:30:00 24.5 C 56 % 15.15 C
3104 02-08-2019 18:35:00 24.3 C 57 % 15.24 C
3105 02-08-2019 18:40:00 24.4 C 56 % 15.06 C
3106 02-08-2019 18:45:00 24.4 C 57 % 15.33 C
3107 02-08-2019 18:50:00 24.5 C 56 % 15.15 C
3108 02-08-2019 18:55:00 24.5 C 56 % 15.15 C
3109 02-08-2019 19:00:00 24.3 C 57 % 15.24 C
3110 02-08-2019 19:05:00 24.2 C 58 % 15.42 C
3111 02-08-2019 19:10:00 24 C 58 % 15.23 C
3112 02-08-2019 19:15:00 23.9 C 53 % 13.74 C
3113 02-08-2019 19:20:00 23.8 C 53 % 13.65 C
3114 02-08-2019 19:25:00 23.7 C 54 % 13.84 C
3115 02-08-2019 19:30:00 23.6 C 54 % 13.75 C
3116 02-08-2019 19:35:00 23.6 C 53 % 13.46 C
3117 02-08-2019 19:40:00 23.4 C 54 % 13.57 C
3118 02-08-2019 19:45:00 23.4 C 55 % 13.85 C
3119 02-08-2019 19:50:00 23.3 C 54 % 13.47 C
3120 02-08-2019 19:55:00 23.2 C 55 % 13.66 C
3121 02-08-2019 20:00:00 23.1 C 56 % 13.85 C
3122 02-08-2019 20:05:00 22.9 C 60 % 14.73 C
3123 02-08-2019 20:10:00 22.8 C 59 % 14.37 C
3124 02-08-2019 20:15:00 22.7 C 61 % 14.79 C
3125 02-08-2019 20:20:00 22.5 C 61 % 14.61 C
Sensor: Nr:Datum:Temp:Feuchte:Taupunkt:
Aussen-T/F 3126 02-08-2019 20:25:00 22.4 C 60 % 14.26 C
3127 02-08-2019 20:30:00 22.3 C 60 % 14.16 C
3128 02-08-2019 20:35:00 22.3 C 60 % 14.16 C
3129 02-08-2019 20:40:00 22.3 C 61 % 14.42 C
3130 02-08-2019 20:45:00 22.2 C 62 % 14.58 C
3131 02-08-2019 20:50:00 22.1 C 62 % 14.48 C
3132 02-08-2019 20:55:00 21.9 C 63 % 14.54 C
3133 02-08-2019 21:00:00 21.7 C 64 % 14.6 C
3134 02-08-2019 21:05:00 21.5 C 65 % 14.65 C
3135 02-08-2019 21:10:00 21.2 C 64 % 14.12 C
3136 02-08-2019 21:15:00 21.1 C 65 % 14.27 C
3137 02-08-2019 21:20:00 20.9 C 66 % 14.31 C
3138 02-08-2019 21:25:00 20.9 C 64 % 13.84 C
3139 02-08-2019 21:30:00 21.1 C 63 % 13.79 C
3140 02-08-2019 21:35:00 21.3 C 63 % 13.97 C
3141 02-08-2019 21:40:00 21.4 C 62 % 13.82 C
3142 02-08-2019 21:45:00 21.4 C 62 % 13.82 C
3143 02-08-2019 21:50:00 21.4 C 62 % 13.82 C
3144 02-08-2019 21:55:00 21.4 C 63 % 14.07 C
3145 02-08-2019 22:00:00 21.4 C 63 % 14.07 C
3146 02-08-2019 22:05:00 21.3 C 63 % 13.97 C
3147 02-08-2019 22:10:00 21.1 C 64 % 14.03 C
3148 02-08-2019 22:15:00 21 C 65 % 14.17 C
3149 02-08-2019 22:20:00 20.9 C 65 % 14.08 C
3150 02-08-2019 22:25:00 20.9 C 66 % 14.31 C
Sensor: Nr:Datum:Temp:Feuchte:Taupunkt:
Aussen-T/F 3151 02-08-2019 22:30:00 20.8 C 67 % 14.45 C
3152 02-08-2019 22:35:00 20.8 C 66 % 14.22 C
3153 02-08-2019 22:40:00 20.8 C 66 % 14.22 C
3154 02-08-2019 22:45:00 20.8 C 66 % 14.22 C
3155 02-08-2019 22:50:00 20.8 C 67 % 14.45 C
3156 02-08-2019 22:55:00 20.8 C 66 % 14.22 C
3157 02-08-2019 23:00:00 20.6 C 68 % 14.49 C
3158 02-08-2019 23:05:00 20.3 C 72 % 15.09 C
3159 02-08-2019 23:10:00 19.9 C 74 % 15.13 C
3160 02-08-2019 23:15:00 19.6 C 77 % 15.46 C
3161 02-08-2019 23:20:00 19.3 C 78 % 15.37 C
3162 02-08-2019 23:25:00 18.9 C 80 % 15.38 C
3163 02-08-2019 23:30:00 18.7 C 81 % 15.37 C
3164 02-08-2019 23:35:00 18.4 C 81 % 15.08 C
3165 02-08-2019 23:40:00 18.3 C 83 % 15.36 C
3166 02-08-2019 23:45:00 18.1 C 83 % 15.17 C
3167 02-08-2019 23:50:00 17.9 C 84 % 15.16 C
3168 02-08-2019 23:55:00 17.7 C 85 % 15.15 C
3169 03-08-2019 00:00:00 17.5 C 85 % 14.95 C
3170 03-08-2019 00:05:00 17.4 C 86 % 15.03 C
3171 03-08-2019 00:10:00 17.4 C 86 % 15.03 C
3172 03-08-2019 00:15:00 17.4 C 86 % 15.03 C
3173 03-08-2019 00:20:00 17.4 C 86 % 15.03 C
3174 03-08-2019 00:25:00 17.7 C 85 % 15.15 C
3175 03-08-2019 00:30:00 17.8 C 84 % 15.06 C
Sensor: Nr:Datum:Temp:Feuchte:Taupunkt:
Aussen-T/F 3176 03-08-2019 00:35:00 17.9 C 84 % 15.16 C
3177 03-08-2019 00:40:00 18.1 C 83 % 15.17 C
3178 03-08-2019 00:45:00 18.1 C 83 % 15.17 C
3179 03-08-2019 00:50:00 18.2 C 82 % 15.08 C
3180 03-08-2019 00:55:00 18.2 C 82 % 15.08 C
3181 03-08-2019 01:00:00 18.3 C 82 % 15.17 C
3182 03-08-2019 01:05:00 18.3 C 82 % 15.17 C
3183 03-08-2019 01:10:00 18.3 C 83 % 15.36 C
3184 03-08-2019 01:15:00 18.3 C 82 % 15.17 C
3185 03-08-2019 01:20:00 18.3 C 82 % 15.17 C
3186 03-08-2019 01:25:00 18.3 C 82 % 15.17 C
3187 03-08-2019 01:30:00 18.3 C 82 % 15.17 C
3188 03-08-2019 01:35:00 18.3 C 82 % 15.17 C
3189 03-08-2019 01:40:00 18.3 C 83 % 15.36 C
3190 03-08-2019 01:45:00 18.3 C 83 % 15.36 C
3191 03-08-2019 01:50:00 18.2 C 83 % 15.27 C
3192 03-08-2019 01:55:00 18.2 C 84 % 15.45 C
3193 03-08-2019 02:00:00 18.2 C 84 % 15.45 C
3194 03-08-2019 02:05:00 18.2 C 84 % 15.45 C
3195 03-08-2019 02:10:00 18.2 C 84 % 15.45 C
3196 03-08-2019 02:15:00 18.2 C 84 % 15.45 C
3197 03-08-2019 02:20:00 18.2 C 84 % 15.45 C
3198 03-08-2019 02:25:00 18.2 C 84 % 15.45 C
3199 03-08-2019 02:30:00 18.3 C 85 % 15.74 C
3200 03-08-2019 02:35:00 18.3 C 84 % 15.55 C
Sensor: Nr:Datum:Temp:Feuchte:Taupunkt:
Aussen-T/F 3201 03-08-2019 02:40:00 18.3 C 85 % 15.74 C
3202 03-08-2019 02:45:00 18.3 C 85 % 15.74 C
3203 03-08-2019 02:50:00 18.3 C 85 % 15.74 C
3204 03-08-2019 02:55:00 18.2 C 85 % 15.64 C
3205 03-08-2019 03:00:00 18.2 C 85 % 15.64 C
3206 03-08-2019 03:05:00 18.2 C 85 % 15.64 C
3207 03-08-2019 03:10:00 18.2 C 85 % 15.64 C
3208 03-08-2019 03:15:00 18.2 C 85 % 15.64 C
3209 03-08-2019 03:20:00 18.2 C 86 % 15.82 C
3210 03-08-2019 03:25:00 18.2 C 86 % 15.82 C
3211 03-08-2019 03:30:00 18.2 C 86 % 15.82 C
3212 03-08-2019 03:35:00 18.2 C 86 % 15.82 C
3213 03-08-2019 03:40:00 18.2 C 86 % 15.82 C
3214 03-08-2019 03:45:00 18.2 C 86 % 15.82 C
3215 03-08-2019 03:50:00 18.2 C 86 % 15.82 C
3216 03-08-2019 03:55:00 18.2 C 86 % 15.82 C
3217 03-08-2019 04:00:00 18.2 C 86 % 15.82 C
3218 03-08-2019 04:05:00 18.1 C 87 % 15.9 C
3219 03-08-2019 04:10:00 18.1 C 87 % 15.9 C
3220 03-08-2019 04:15:00 18.1 C 87 % 15.9 C
3221 03-08-2019 04:20:00 18.1 C 87 % 15.9 C
3222 03-08-2019 04:25:00 18.1 C 87 % 15.9 C
3223 03-08-2019 04:30:00 18.1 C 87 % 15.9 C
3224 03-08-2019 04:35:00 18.2 C 87 % 16 C
3225 03-08-2019 04:40:00 18.2 C 87 % 16 C
Sensor: Nr:Datum:Temp:Feuchte:Taupunkt:
Aussen-T/F 3226 03-08-2019 04:45:00 18.2 C 87 % 16 C
3227 03-08-2019 04:50:00 18.2 C 87 % 16 C
3228 03-08-2019 04:55:00 18.2 C 87 % 16 C
3229 03-08-2019 05:00:00 18.2 C 87 % 16 C
3230 03-08-2019 05:05:00 18.2 C 87 % 16 C
3231 03-08-2019 05:10:00 18.2 C 87 % 16 C
3232 03-08-2019 05:15:00 18.2 C 87 % 16 C
3233 03-08-2019 05:20:00 18.2 C 87 % 16 C
3234 03-08-2019 05:25:00 18.1 C 87 % 15.9 C
3235 03-08-2019 05:30:00 18.1 C 87 % 15.9 C
3236 03-08-2019 05:35:00 18.1 C 87 % 15.9 C
3237 03-08-2019 05:40:00 18.1 C 87 % 15.9 C
3238 03-08-2019 05:45:00 18.1 C 87 % 15.9 C
3239 03-08-2019 05:50:00 18.1 C 87 % 15.9 C
3240 03-08-2019 05:55:00 18.1 C 87 % 15.9 C
3241 03-08-2019 06:00:00 18 C 87 % 15.8 C
3242 03-08-2019 06:05:00 18 C 87 % 15.8 C
3243 03-08-2019 06:10:00 17.9 C 87 % 15.71 C
3244 03-08-2019 06:15:00 17.9 C 88 % 15.88 C
3245 03-08-2019 06:20:00 17.9 C 88 % 15.88 C
3246 03-08-2019 06:25:00 17.9 C 88 % 15.88 C
3247 03-08-2019 06:30:00 17.9 C 87 % 15.71 C
3248 03-08-2019 06:35:00 17.9 C 87 % 15.71 C
3249 03-08-2019 06:40:00 17.9 C 87 % 15.71 C
3250 03-08-2019 06:45:00 17.8 C 87 % 15.61 C
Sensor: Nr:Datum:Temp:Feuchte:Taupunkt:
Aussen-T/F 3251 03-08-2019 06:50:00 17.8 C 87 % 15.61 C
3252 03-08-2019 06:55:00 17.8 C 87 % 15.61 C
3253 03-08-2019 07:00:00 17.8 C 87 % 15.61 C
3254 03-08-2019 07:05:00 17.8 C 86 % 15.43 C
3255 03-08-2019 07:10:00 17.8 C 86 % 15.43 C
3256 03-08-2019 07:15:00 17.8 C 86 % 15.43 C
3257 03-08-2019 07:20:00 17.8 C 86 % 15.43 C
3258 03-08-2019 07:25:00 17.8 C 86 % 15.43 C
3259 03-08-2019 07:30:00 17.9 C 86 % 15.53 C
3260 03-08-2019 07:35:00 17.9 C 85 % 15.34 C
3261 03-08-2019 07:40:00 17.9 C 85 % 15.34 C
3262 03-08-2019 07:45:00 17.9 C 85 % 15.34 C
3263 03-08-2019 07:50:00 17.9 C 85 % 15.34 C
3264 03-08-2019 07:55:00 17.8 C 85 % 15.25 C
3265 03-08-2019 08:00:00 17.8 C 86 % 15.43 C
3266 03-08-2019 08:05:00 17.8 C 86 % 15.43 C
3267 03-08-2019 08:10:00 17.8 C 85 % 15.25 C
3268 03-08-2019 08:15:00 17.8 C 85 % 15.25 C
3269 03-08-2019 08:20:00 17.8 C 85 % 15.25 C
3270 03-08-2019 08:25:00 17.8 C 85 % 15.25 C
3271 03-08-2019 08:30:00 17.9 C 85 % 15.34 C
3272 03-08-2019 08:35:00 18 C 84 % 15.26 C
3273 03-08-2019 08:40:00 18.1 C 84 % 15.35 C
3274 03-08-2019 08:45:00 18.2 C 84 % 15.45 C
3275 03-08-2019 08:50:00 18.2 C 83 % 15.27 C
Sensor: Nr:Datum:Temp:Feuchte:Taupunkt:
Aussen-T/F 3276 03-08-2019 08:55:00 18.2 C 82 % 15.08 C
3277 03-08-2019 09:00:00 18.2 C 82 % 15.08 C
3278 03-08-2019 09:05:00 18.3 C 81 % 14.98 C
3279 03-08-2019 09:10:00 18.3 C 81 % 14.98 C
3280 03-08-2019 09:15:00 18.4 C 79 % 14.69 C
3281 03-08-2019 09:20:00 18.5 C 79 % 14.79 C
3282 03-08-2019 09:25:00 18.6 C 79 % 14.89 C
3283 03-08-2019 09:30:00 18.7 C 79 % 14.99 C
3284 03-08-2019 09:35:00 18.8 C 79 % 15.08 C
3285 03-08-2019 09:40:00 18.8 C 78 % 14.88 C
3286 03-08-2019 09:45:00 18.8 C 78 % 14.88 C
3287 03-08-2019 09:50:00 18.9 C 78 % 14.98 C
3288 03-08-2019 09:55:00 18.9 C 78 % 14.98 C
3289 03-08-2019 10:00:00 19.1 C 77 % 14.97 C
3290 03-08-2019 10:05:00 19.2 C 76 % 14.87 C
3291 03-08-2019 10:10:00 19.3 C 76 % 14.97 C
3292 03-08-2019 10:15:00 19.4 C 76 % 15.06 C
3293 03-08-2019 10:20:00 19.7 C 76 % 15.35 C
3294 03-08-2019 10:25:00 19.9 C 76 % 15.54 C
3295 03-08-2019 10:30:00 19.8 C 75 % 15.24 C
3296 03-08-2019 10:35:00 19.8 C 75 % 15.24 C
3297 03-08-2019 10:40:00 19.7 C 76 % 15.35 C
3298 03-08-2019 10:45:00 19.8 C 74 % 15.03 C
3299 03-08-2019 10:50:00 19.8 C 74 % 15.03 C
3300 03-08-2019 10:55:00 19.9 C 75 % 15.34 C
Sensor: Nr:Datum:Temp:Feuchte:Taupunkt:
Aussen-T/F 3301 03-08-2019 11:00:00 19.9 C 74 % 15.13 C
3302 03-08-2019 11:05:00 20 C 74 % 15.23 C
3303 03-08-2019 11:10:00 20 C 75 % 15.43 C
3304 03-08-2019 11:15:00 20.1 C 74 % 15.32 C
3305 03-08-2019 11:20:00 20.2 C 73 % 15.21 C
3306 03-08-2019 11:25:00 20.3 C 73 % 15.3 C
3307 03-08-2019 11:30:00 20.3 C 73 % 15.3 C
3308 03-08-2019 11:35:00 20.4 C 74 % 15.61 C
3309 03-08-2019 11:40:00 20.7 C 73 % 15.69 C
3310 03-08-2019 11:45:00 20.8 C 72 % 15.57 C
3311 03-08-2019 11:50:00 20.8 C 71 % 15.35 C
3312 03-08-2019 11:55:00 20.8 C 72 % 15.57 C
3313 03-08-2019 12:00:00 20.8 C 71 % 15.35 C
3314 03-08-2019 12:05:00 21 C 71 % 15.54 C
3315 03-08-2019 12:10:00 21.3 C 69 % 15.38 C
3316 03-08-2019 12:15:00 21.3 C 70 % 15.61 C
3317 03-08-2019 12:20:00 21.4 C 68 % 15.25 C
3318 03-08-2019 12:25:00 21.6 C 66 % 14.98 C
3319 03-08-2019 12:30:00 21.8 C 66 % 15.17 C
3320 03-08-2019 12:35:00 21.9 C 65 % 15.02 C
3321 03-08-2019 12:40:00 21.9 C 65 % 15.02 C
3322 03-08-2019 12:45:00 21.9 C 64 % 14.78 C
3323 03-08-2019 12:50:00 21.9 C 64 % 14.78 C
3324 03-08-2019 12:55:00 21.9 C 64 % 14.78 C
3325 03-08-2019 13:00:00 21.9 C 65 % 15.02 C
Sensor: Nr:Datum:Temp:Feuchte:Taupunkt:
Aussen-T/F 3326 03-08-2019 13:05:00 21.9 C 66 % 15.26 C
3327 03-08-2019 13:10:00 21.9 C 66 % 15.26 C
3328 03-08-2019 13:15:00 22.2 C 66 % 15.55 C
3329 03-08-2019 13:20:00 22.3 C 63 % 14.92 C
3330 03-08-2019 13:25:00 22.3 C 64 % 15.16 C
3331 03-08-2019 13:30:00 22.3 C 64 % 15.16 C
3332 03-08-2019 13:35:00 22.3 C 68 % 16.11 C
3333 03-08-2019 13:40:00 22 C 68 % 15.82 C
3334 03-08-2019 13:45:00 21.9 C 69 % 15.96 C
3335 03-08-2019 13:50:00 21.8 C 68 % 15.63 C
3336 03-08-2019 13:55:00 21.8 C 69 % 15.86 C
3337 03-08-2019 14:00:00 21.7 C 69 % 15.77 C
3338 03-08-2019 14:05:00 21.7 C 70 % 15.99 C
3339 03-08-2019 14:10:00 21.6 C 68 % 15.44 C
3340 03-08-2019 14:15:00 21.7 C 68 % 15.54 C
3341 03-08-2019 14:20:00 21.8 C 67 % 15.4 C
3342 03-08-2019 14:25:00 22 C 66 % 15.36 C
3343 03-08-2019 14:30:00 22.1 C 65 % 15.21 C
3344 03-08-2019 14:35:00 22.3 C 65 % 15.4 C
3345 03-08-2019 14:40:00 22.5 C 64 % 15.35 C
3346 03-08-2019 14:45:00 22.8 C 64 % 15.64 C
3347 03-08-2019 14:50:00 23.1 C 62 % 15.42 C
3348 03-08-2019 14:55:00 23.2 C 62 % 15.52 C
3349 03-08-2019 15:00:00 23.5 C 60 % 15.29 C
3350 03-08-2019 15:05:00 23.4 C 58 % 14.67 C
Sensor: Nr:Datum:Temp:Feuchte:Taupunkt:
Aussen-T/F 3351 03-08-2019 15:10:00 23.4 C 56 % 14.13 C
3352 03-08-2019 15:15:00 23.7 C 58 % 14.95 C
3353 03-08-2019 15:20:00 23.9 C 55 % 14.31 C
3354 03-08-2019 15:25:00 23.7 C 56 % 14.4 C
3355 03-08-2019 15:30:00 23.6 C 60 % 15.38 C
3356 03-08-2019 15:35:00 23.6 C 60 % 15.38 C
3357 03-08-2019 15:40:00 23.7 C 60 % 15.48 C
3358 03-08-2019 15:45:00 24.2 C 58 % 15.42 C
3359 03-08-2019 15:50:00 24.4 C 59 % 15.87 C
3360 03-08-2019 15:55:00 24.6 C 56 % 15.24 C
3361 03-08-2019 16:00:00 24.7 C 56 % 15.33 C
3362 03-08-2019 16:05:00 24.9 C 55 % 15.24 C
3363 03-08-2019 16:10:00 24.9 C 54 % 14.95 C
3364 03-08-2019 16:15:00 25 C 53 % 14.76 C
3365 03-08-2019 16:20:00 25.1 C 54 % 15.14 C
3366 03-08-2019 16:25:00 25.1 C 54 % 15.14 C
3367 03-08-2019 16:30:00 25.2 C 53 % 14.94 C
3368 03-08-2019 16:35:00 25.4 C 52 % 14.83 C
3369 03-08-2019 16:40:00 25.3 C 52 % 14.74 C
3370 03-08-2019 16:45:00 25.4 C 52 % 14.83 C
3371 03-08-2019 16:50:00 25.5 C 52 % 14.92 C
3372 03-08-2019 16:55:00 25.5 C 51 % 14.62 C
3373 03-08-2019 17:00:00 25.6 C 52 % 15.02 C
3374 03-08-2019 17:05:00 25.7 C 52 % 15.11 C
3375 03-08-2019 17:10:00 25.7 C 51 % 14.81 C
Sensor: Nr:Datum:Temp:Feuchte:Taupunkt:
Aussen-T/F 3376 03-08-2019 17:15:00 25.4 C 51 % 14.53 C
3377 03-08-2019 17:20:00 25.3 C 51 % 14.44 C
3378 03-08-2019 17:25:00 25.2 C 52 % 14.65 C
3379 03-08-2019 17:30:00 25.2 C 52 % 14.65 C
3380 03-08-2019 17:35:00 25.3 C 51 % 14.44 C
3381 03-08-2019 17:40:00 25.4 C 51 % 14.53 C
3382 03-08-2019 17:45:00 25.7 C 49 % 14.19 C
3383 03-08-2019 17:50:00 25.7 C 50 % 14.5 C
3384 03-08-2019 17:55:00 25.7 C 50 % 14.5 C
3385 03-08-2019 18:00:00 25.6 C 50 % 14.41 C
3386 03-08-2019 18:05:00 25.6 C 50 % 14.41 C
3387 03-08-2019 18:10:00 25.7 C 50 % 14.5 C
3388 03-08-2019 18:15:00 25.6 C 51 % 14.71 C
3389 03-08-2019 18:20:00 25.6 C 51 % 14.71 C
3390 03-08-2019 18:25:00 25.6 C 50 % 14.41 C
3391 03-08-2019 18:30:00 25.6 C 50 % 14.41 C
3392 03-08-2019 18:35:00 25.6 C 51 % 14.71 C
3393 03-08-2019 18:40:00 25.3 C 52 % 14.74 C
3394 03-08-2019 18:45:00 25.2 C 52 % 14.65 C
3395 03-08-2019 18:50:00 25.1 C 52 % 14.55 C
3396 03-08-2019 18:55:00 25.1 C 53 % 14.85 C
3397 03-08-2019 19:00:00 25.1 C 53 % 14.85 C
3398 03-08-2019 19:05:00 25.1 C 53 % 14.85 C
3399 03-08-2019 19:10:00 24.9 C 53 % 14.66 C
3400 03-08-2019 19:15:00 24.8 C 53 % 14.57 C
Sensor: Nr:Datum:Temp:Feuchte:Taupunkt:
Aussen-T/F 3401 03-08-2019 19:20:00 24.6 C 54 % 14.68 C
3402 03-08-2019 19:25:00 24.3 C 54 % 14.4 C
3403 03-08-2019 19:30:00 24.1 C 55 % 14.5 C
3404 03-08-2019 19:35:00 23.9 C 56 % 14.59 C
3405 03-08-2019 19:40:00 23.8 C 56 % 14.5 C
3406 03-08-2019 19:45:00 23.8 C 55 % 14.22 C
3407 03-08-2019 19:50:00 23.7 C 56 % 14.4 C
3408 03-08-2019 19:55:00 23.6 C 56 % 14.31 C
3409 03-08-2019 20:00:00 23.5 C 56 % 14.22 C
3410 03-08-2019 20:05:00 23.4 C 57 % 14.4 C
3411 03-08-2019 20:10:00 23.2 C 58 % 14.48 C
3412 03-08-2019 20:15:00 23 C 59 % 14.56 C
3413 03-08-2019 20:20:00 22.9 C 59 % 14.47 C
3414 03-08-2019 20:25:00 22.7 C 60 % 14.54 C
3415 03-08-2019 20:30:00 22.6 C 60 % 14.44 C
3416 03-08-2019 20:35:00 22.3 C 61 % 14.42 C
3417 03-08-2019 20:40:00 22.2 C 61 % 14.32 C
3418 03-08-2019 20:45:00 22 C 62 % 14.39 C
3419 03-08-2019 20:50:00 21.9 C 62 % 14.29 C
3420 03-08-2019 20:55:00 21.7 C 63 % 14.35 C
3421 03-08-2019 21:00:00 21.5 C 63 % 14.16 C
3422 03-08-2019 21:05:00 21.3 C 64 % 14.22 C
3423 03-08-2019 21:10:00 21.1 C 64 % 14.03 C
3424 03-08-2019 21:15:00 20.9 C 65 % 14.08 C
3425 03-08-2019 21:20:00 20.8 C 66 % 14.22 C
Sensor: Nr:Datum:Temp:Feuchte:Taupunkt:
Aussen-T/F 3426 03-08-2019 21:25:00 20.6 C 65 % 13.79 C
3427 03-08-2019 21:30:00 20.5 C 66 % 13.93 C
3428 03-08-2019 21:35:00 20.3 C 66 % 13.74 C
3429 03-08-2019 21:40:00 20.2 C 66 % 13.65 C
3430 03-08-2019 21:45:00 20.1 C 67 % 13.78 C
3431 03-08-2019 21:50:00 19.8 C 68 % 13.73 C
3432 03-08-2019 21:55:00 19.6 C 69 % 13.76 C
3433 03-08-2019 22:00:00 19.2 C 70 % 13.6 C
3434 03-08-2019 22:05:00 18.9 C 71 % 13.53 C
3435 03-08-2019 22:10:00 18.6 C 72 % 13.46 C
3436 03-08-2019 22:15:00 18.4 C 73 % 13.48 C
3437 03-08-2019 22:20:00 18.2 C 73 % 13.28 C
3438 03-08-2019 22:25:00 18.1 C 74 % 13.4 C
3439 03-08-2019 22:30:00 17.9 C 75 % 13.41 C
3440 03-08-2019 22:35:00 17.8 C 75 % 13.31 C
3441 03-08-2019 22:40:00 17.7 C 76 % 13.42 C
3442 03-08-2019 22:45:00 17.6 C 76 % 13.32 C
3443 03-08-2019 22:50:00 17.5 C 77 % 13.43 C
3444 03-08-2019 22:55:00 17.4 C 78 % 13.53 C
3445 03-08-2019 23:00:00 17.3 C 78 % 13.43 C
3446 03-08-2019 23:05:00 17.3 C 78 % 13.43 C
3447 03-08-2019 23:10:00 17.2 C 79 % 13.53 C
3448 03-08-2019 23:15:00 17.2 C 79 % 13.53 C
3449 03-08-2019 23:20:00 17.1 C 80 % 13.62 C
3450 03-08-2019 23:25:00 17.1 C 80 % 13.62 C
Sensor: Nr:Datum:Temp:Feuchte:Taupunkt:
Aussen-T/F 3451 03-08-2019 23:30:00 17.1 C 80 % 13.62 C
3452 03-08-2019 23:35:00 17 C 79 % 13.33 C
3453 03-08-2019 23:40:00 16.9 C 79 % 13.24 C
3454 03-08-2019 23:45:00 16.9 C 80 % 13.43 C
3455 03-08-2019 23:50:00 16.8 C 80 % 13.33 C
3456 03-08-2019 23:55:00 16.7 C 80 % 13.23 C
3457 04-08-2019 00:00:00 16.7 C 80 % 13.23 C
3458 04-08-2019 00:05:00 16.6 C 81 % 13.33 C
3459 04-08-2019 00:10:00 16.5 C 81 % 13.23 C
3460 04-08-2019 00:15:00 16.4 C 81 % 13.13 C
3461 04-08-2019 00:20:00 16.3 C 81 % 13.04 C
3462 04-08-2019 00:25:00 16.3 C 81 % 13.04 C
3463 04-08-2019 00:30:00 16.2 C 82 % 13.13 C
3464 04-08-2019 00:35:00 16.1 C 83 % 13.21 C
3465 04-08-2019 00:40:00 16.1 C 83 % 13.21 C
3466 04-08-2019 00:45:00 15.9 C 83 % 13.02 C
3467 04-08-2019 00:50:00 15.8 C 83 % 12.92 C
3468 04-08-2019 00:55:00 15.8 C 83 % 12.92 C
3469 04-08-2019 01:00:00 15.7 C 84 % 13.01 C
3470 04-08-2019 01:05:00 15.6 C 84 % 12.91 C
3471 04-08-2019 01:10:00 15.6 C 84 % 12.91 C
3472 04-08-2019 01:15:00 15.4 C 85 % 12.89 C
3473 04-08-2019 01:20:00 15.3 C 85 % 12.79 C
3474 04-08-2019 01:25:00 15.2 C 85 % 12.7 C
3475 04-08-2019 01:30:00 15.1 C 86 % 12.78 C
Sensor: Nr:Datum:Temp:Feuchte:Taupunkt:
Aussen-T/F 3476 04-08-2019 01:35:00 14.9 C 86 % 12.58 C
3477 04-08-2019 01:40:00 14.8 C 86 % 12.48 C
3478 04-08-2019 01:45:00 14.7 C 87 % 12.56 C
3479 04-08-2019 01:50:00 14.6 C 87 % 12.46 C
3480 04-08-2019 01:55:00 14.6 C 87 % 12.46 C
3481 04-08-2019 02:00:00 14.4 C 87 % 12.27 C
3482 04-08-2019 02:05:00 14.3 C 88 % 12.34 C
3483 04-08-2019 02:10:00 14.3 C 88 % 12.34 C
3484 04-08-2019 02:15:00 14.2 C 88 % 12.24 C
3485 04-08-2019 02:20:00 14.1 C 88 % 12.14 C
3486 04-08-2019 02:25:00 14 C 89 % 12.22 C
3487 04-08-2019 02:30:00 13.9 C 89 % 12.12 C
3488 04-08-2019 02:35:00 13.9 C 89 % 12.12 C
3489 04-08-2019 02:40:00 13.8 C 90 % 12.19 C
3490 04-08-2019 02:45:00 13.7 C 89 % 11.92 C
3491 04-08-2019 02:50:00 13.7 C 90 % 12.09 C
3492 04-08-2019 02:55:00 13.7 C 90 % 12.09 C
3493 04-08-2019 03:00:00 13.6 C 90 % 11.99 C
3494 04-08-2019 03:05:00 13.5 C 90 % 11.89 C
3495 04-08-2019 03:10:00 13.4 C 90 % 11.79 C
3496 04-08-2019 03:15:00 13.3 C 91 % 11.86 C
3497 04-08-2019 03:20:00 13.3 C 91 % 11.86 C
3498 04-08-2019 03:25:00 13.3 C 91 % 11.86 C
3499 04-08-2019 03:30:00 13.3 C 91 % 11.86 C
3500 04-08-2019 03:35:00 13.2 C 91 % 11.76 C
Sensor: Nr:Datum:Temp:Feuchte:Taupunkt:
Aussen-T/F 3501 04-08-2019 03:40:00 13.2 C 91 % 11.76 C
3502 04-08-2019 03:45:00 13.2 C 91 % 11.76 C
3503 04-08-2019 03:50:00 13.2 C 92 % 11.93 C
3504 04-08-2019 03:55:00 13.1 C 92 % 11.83 C
3505 04-08-2019 04:00:00 13.1 C 92 % 11.83 C
3506 04-08-2019 04:05:00 13.1 C 92 % 11.83 C
3507 04-08-2019 04:10:00 12.9 C 91 % 11.47 C
3508 04-08-2019 04:15:00 12.9 C 92 % 11.63 C
3509 04-08-2019 04:20:00 12.9 C 92 % 11.63 C
3510 04-08-2019 04:25:00 12.9 C 92 % 11.63 C
3511 04-08-2019 04:30:00 12.9 C 93 % 11.8 C
3512 04-08-2019 04:35:00 12.9 C 92 % 11.63 C
3513 04-08-2019 04:40:00 12.8 C 92 % 11.53 C
3514 04-08-2019 04:45:00 12.8 C 92 % 11.53 C
3515 04-08-2019 04:50:00 12.7 C 93 % 11.6 C
3516 04-08-2019 04:55:00 12.7 C 92 % 11.43 C
3517 04-08-2019 05:00:00 12.7 C 93 % 11.6 C
3518 04-08-2019 05:05:00 12.7 C 93 % 11.6 C
3519 04-08-2019 05:10:00 12.6 C 93 % 11.5 C
3520 04-08-2019 05:15:00 12.6 C 93 % 11.5 C
3521 04-08-2019 05:20:00 12.6 C 93 % 11.5 C
3522 04-08-2019 05:25:00 12.5 C 93 % 11.4 C
3523 04-08-2019 05:30:00 12.4 C 93 % 11.3 C
3524 04-08-2019 05:35:00 12.4 C 93 % 11.3 C
3525 04-08-2019 05:40:00 12.4 C 93 % 11.3 C
Sensor: Nr:Datum:Temp:Feuchte:Taupunkt:
Aussen-T/F 3526 04-08-2019 05:45:00 12.4 C 93 % 11.3 C
3527 04-08-2019 05:50:00 12.3 C 93 % 11.2 C
3528 04-08-2019 05:55:00 12.3 C 93 % 11.2 C
3529 04-08-2019 06:00:00 12.3 C 93 % 11.2 C
3530 04-08-2019 06:05:00 12.3 C 94 % 11.36 C
3531 04-08-2019 06:10:00 12.3 C 93 % 11.2 C
3532 04-08-2019 06:15:00 12.2 C 94 % 11.26 C
3533 04-08-2019 06:20:00 12.3 C 94 % 11.36 C
3534 04-08-2019 06:25:00 12.3 C 94 % 11.36 C
3535 04-08-2019 06:30:00 12.3 C 94 % 11.36 C
3536 04-08-2019 06:35:00 12.3 C 94 % 11.36 C
3537 04-08-2019 06:40:00 12.4 C 94 % 11.46 C
3538 04-08-2019 06:45:00 12.4 C 94 % 11.46 C
3539 04-08-2019 06:50:00 12.5 C 94 % 11.56 C
3540 04-08-2019 06:55:00 12.5 C 94 % 11.56 C
3541 04-08-2019 07:00:00 12.5 C 94 % 11.56 C
3542 04-08-2019 07:05:00 12.5 C 94 % 11.56 C
3543 04-08-2019 07:10:00 12.5 C 94 % 11.56 C
3544 04-08-2019 07:15:00 12.6 C 94 % 11.66 C
3545 04-08-2019 07:20:00 12.6 C 94 % 11.66 C
3546 04-08-2019 07:25:00 12.7 C 94 % 11.76 C
3547 04-08-2019 07:30:00 12.7 C 94 % 11.76 C
3548 04-08-2019 07:35:00 12.8 C 95 % 12.02 C
3549 04-08-2019 07:40:00 12.8 C 95 % 12.02 C
3550 04-08-2019 07:45:00 12.9 C 95 % 12.12 C
Sensor: Nr:Datum:Temp:Feuchte:Taupunkt:
Aussen-T/F 3551 04-08-2019 07:50:00 13 C 95 % 12.22 C
3552 04-08-2019 07:55:00 13.1 C 95 % 12.32 C
3553 04-08-2019 08:00:00 13.2 C 95 % 12.42 C
3554 04-08-2019 08:05:00 13.3 C 95 % 12.52 C
3555 04-08-2019 08:10:00 13.4 C 95 % 12.62 C
3556 04-08-2019 08:15:00 13.4 C 95 % 12.62 C
3557 04-08-2019 08:20:00 13.6 C 95 % 12.81 C
3558 04-08-2019 08:25:00 13.7 C 95 % 12.91 C
3559 04-08-2019 08:30:00 13.8 C 95 % 13.01 C
3560 04-08-2019 08:35:00 13.8 C 95 % 13.01 C
3561 04-08-2019 08:40:00 14 C 95 % 13.21 C
3562 04-08-2019 08:45:00 14.1 C 95 % 13.31 C
3563 04-08-2019 08:50:00 14.2 C 95 % 13.41 C
3564 04-08-2019 08:55:00 14.3 C 95 % 13.51 C
3565 04-08-2019 09:00:00 14.5 C 95 % 13.71 C
3566 04-08-2019 09:05:00 14.7 C 94 % 13.74 C
3567 04-08-2019 09:10:00 14.8 C 94 % 13.84 C
3568 04-08-2019 09:15:00 14.9 C 94 % 13.94 C
3569 04-08-2019 09:20:00 15.1 C 94 % 14.14 C
3570 04-08-2019 09:25:00 15.2 C 94 % 14.24 C
3571 04-08-2019 09:30:00 15.3 C 93 % 14.18 C
3572 04-08-2019 09:35:00 15.6 C 93 % 14.47 C
3573 04-08-2019 09:40:00 15.7 C 92 % 14.4 C
3574 04-08-2019 09:45:00 15.9 C 92 % 14.6 C
3575 04-08-2019 09:50:00 16.1 C 91 % 14.63 C
Sensor: Nr:Datum:Temp:Feuchte:Taupunkt:
Aussen-T/F 3576 04-08-2019 09:55:00 16.3 C 91 % 14.83 C
3577 04-08-2019 10:00:00 16.6 C 90 % 14.95 C
3578 04-08-2019 10:05:00 16.8 C 89 % 14.98 C
3579 04-08-2019 10:10:00 17 C 89 % 15.17 C
3580 04-08-2019 10:15:00 17.2 C 88 % 15.2 C
3581 04-08-2019 10:20:00 17.4 C 87 % 15.21 C
3582 04-08-2019 10:25:00 17.8 C 84 % 15.06 C
3583 04-08-2019 10:30:00 18.2 C 82 % 15.08 C
3584 04-08-2019 10:35:00 18.6 C 83 % 15.66 C
3585 04-08-2019 10:40:00 18.8 C 80 % 15.28 C
3586 04-08-2019 10:45:00 19.2 C 77 % 15.07 C
3587 04-08-2019 10:50:00 19.7 C 76 % 15.35 C
3588 04-08-2019 10:55:00 20 C 75 % 15.43 C
3589 04-08-2019 11:00:00 20.3 C 73 % 15.3 C
3590 04-08-2019 11:05:00 20.6 C 71 % 15.16 C
3591 04-08-2019 11:10:00 20.7 C 71 % 15.25 C
3592 04-08-2019 11:15:00 20.9 C 69 % 15 C
3593 04-08-2019 11:20:00 21.2 C 69 % 15.29 C
3594 04-08-2019 11:25:00 21.3 C 67 % 14.93 C
3595 04-08-2019 11:30:00 21.4 C 66 % 14.79 C
3596 04-08-2019 11:35:00 21.6 C 66 % 14.98 C
3597 04-08-2019 11:40:00 21.7 C 65 % 14.84 C
3598 04-08-2019 11:45:00 21.8 C 65 % 14.93 C
3599 04-08-2019 11:50:00 22 C 65 % 15.12 C
3600 04-08-2019 11:55:00 22.3 C 63 % 14.92 C
Sensor: Nr:Datum:Temp:Feuchte:Taupunkt:
Aussen-T/F 3601 04-08-2019 12:00:00 22.4 C 63 % 15.01 C
3602 04-08-2019 12:05:00 22.6 C 62 % 14.95 C
3603 04-08-2019 12:10:00 22.8 C 61 % 14.89 C
3604 04-08-2019 12:15:00 22.8 C 61 % 14.89 C
3605 04-08-2019 12:20:00 22.9 C 61 % 14.98 C
3606 04-08-2019 12:25:00 23.1 C 62 % 15.42 C
3607 04-08-2019 12:30:00 23.3 C 60 % 15.1 C
3608 04-08-2019 12:35:00 23.5 C 59 % 15.03 C
3609 04-08-2019 12:40:00 23.7 C 58 % 14.95 C
3610 04-08-2019 12:45:00 24 C 57 % 14.96 C
3611 04-08-2019 12:50:00 24.2 C 55 % 14.59 C
3612 04-08-2019 12:55:00 24.3 C 55 % 14.68 C
3613 04-08-2019 13:00:00 24.4 C 55 % 14.78 C
3614 04-08-2019 13:05:00 24.4 C 55 % 14.78 C
3615 04-08-2019 13:10:00 24.4 C 56 % 15.06 C
3616 04-08-2019 13:15:00 24.5 C 56 % 15.15 C
3617 04-08-2019 13:20:00 24.7 C 55 % 15.05 C
3618 04-08-2019 13:25:00 24.7 C 54 % 14.77 C
3619 04-08-2019 13:30:00 24.8 C 53 % 14.57 C
3620 04-08-2019 13:35:00 24.8 C 53 % 14.57 C
3621 04-08-2019 13:40:00 25 C 52 % 14.46 C
3622 04-08-2019 13:45:00 25.1 C 53 % 14.85 C
3623 04-08-2019 13:50:00 25.1 C 51 % 14.25 C
3624 04-08-2019 13:55:00 25.1 C 51 % 14.25 C
3625 04-08-2019 14:00:00 25.1 C 52 % 14.55 C
Sensor: Nr:Datum:Temp:Feuchte:Taupunkt:
Aussen-T/F 3626 04-08-2019 14:05:00 25.2 C 52 % 14.65 C
3627 04-08-2019 14:10:00 25.4 C 50 % 14.22 C
3628 04-08-2019 14:15:00 25.6 C 50 % 14.41 C
3629 04-08-2019 14:20:00 25.6 C 50 % 14.41 C
3630 04-08-2019 14:25:00 25.7 C 49 % 14.19 C
3631 04-08-2019 14:30:00 25.9 C 48 % 14.05 C
3632 04-08-2019 14:35:00 26.2 C 48 % 14.32 C
3633 04-08-2019 14:40:00 26.3 C 46 % 13.76 C
3634 04-08-2019 14:45:00 26.4 C 45 % 13.51 C
3635 04-08-2019 14:50:00 26.4 C 46 % 13.85 C
3636 04-08-2019 14:55:00 26.6 C 47 % 14.36 C
3637 04-08-2019 15:00:00 26.8 C 46 % 14.21 C
3638 04-08-2019 15:05:00 26.9 C 44 % 13.62 C
3639 04-08-2019 15:10:00 27.2 C 42 % 13.18 C
3640 04-08-2019 15:15:00 27.3 C 44 % 13.98 C
3641 04-08-2019 15:20:00 27.6 C 43 % 13.9 C
3642 04-08-2019 15:25:00 28.1 C 41 % 13.61 C
3643 04-08-2019 15:30:00 28.3 C 39 % 13.02 C
3644 04-08-2019 15:35:00 28.6 C 39 % 13.29 C
3645 04-08-2019 15:40:00 29 C 39 % 13.65 C
3646 04-08-2019 15:45:00 29.4 C 37 % 13.19 C
3647 04-08-2019 15:50:00 29.7 C 37 % 13.46 C
3648 04-08-2019 15:55:00 29.8 C 37 % 13.54 C
3649 04-08-2019 16:00:00 29.9 C 35 % 12.78 C
3650 04-08-2019 16:05:00 30.1 C 36 % 13.39 C
Sensor: Nr:Datum:Temp:Feuchte:Taupunkt:
Aussen-T/F 3651 04-08-2019 16:10:00 30.2 C 35 % 13.04 C
3652 04-08-2019 16:15:00 30.2 C 35 % 13.04 C
3653 04-08-2019 16:20:00 30.2 C 36 % 13.48 C
3654 04-08-2019 16:25:00 29.8 C 35 % 12.69 C
3655 04-08-2019 16:30:00 29.7 C 37 % 13.46 C
3656 04-08-2019 16:35:00 29.9 C 35 % 12.78 C
3657 04-08-2019 16:40:00 30.1 C 33 % 12.06 C
3658 04-08-2019 16:45:00 30.1 C 32 % 11.59 C
3659 04-08-2019 16:50:00 30.1 C 32 % 11.59 C
3660 04-08-2019 16:55:00 30.1 C 33 % 12.06 C
3661 04-08-2019 17:00:00 30.2 C 34 % 12.6 C
3662 04-08-2019 17:05:00 30.4 C 32 % 11.85 C
3663 04-08-2019 17:10:00 30.7 C 33 % 12.58 C
3664 04-08-2019 17:15:00 30.9 C 32 % 12.29 C
3665 04-08-2019 17:20:00 31 C 32 % 12.37 C
3666 04-08-2019 17:25:00 31.1 C 32 % 12.46 C
3667 04-08-2019 17:30:00 31.2 C 32 % 12.55 C
3668 04-08-2019 17:35:00 31.2 C 32 % 12.55 C
3669 04-08-2019 17:40:00 31.3 C 31 % 12.15 C
3670 04-08-2019 17:45:00 31.3 C 31 % 12.15 C
3671 04-08-2019 17:50:00 31.2 C 31 % 12.06 C
3672 04-08-2019 17:55:00 31 C 33 % 12.84 C
3673 04-08-2019 18:00:00 30.8 C 34 % 13.13 C
3674 04-08-2019 18:05:00 30.8 C 33 % 12.67 C
3675 04-08-2019 18:10:00 30.7 C 34 % 13.04 C
Sensor: Nr:Datum:Temp:Feuchte:Taupunkt:
Aussen-T/F 3676 04-08-2019 18:15:00 30.7 C 34 % 13.04 C
3677 04-08-2019 18:20:00 30.8 C 34 % 13.13 C
3678 04-08-2019 18:25:00 31.2 C 34 % 13.47 C
3679 04-08-2019 18:30:00 31.2 C 35 % 13.92 C
3680 04-08-2019 18:35:00 31 C 34 % 13.3 C
3681 04-08-2019 18:40:00 30.7 C 34 % 13.04 C
3682 04-08-2019 18:45:00 30.6 C 33 % 12.5 C
3683 04-08-2019 18:50:00 30.6 C 33 % 12.5 C
3684 04-08-2019 18:55:00 30.4 C 33 % 12.32 C
3685 04-08-2019 19:00:00 30.2 C 34 % 12.6 C
3686 04-08-2019 19:05:00 29.8 C 35 % 12.69 C
3687 04-08-2019 19:10:00 29.5 C 35 % 12.43 C
3688 04-08-2019 19:15:00 29.3 C 39 % 13.91 C
3689 04-08-2019 19:20:00 29.2 C 38 % 13.42 C
3690 04-08-2019 19:25:00 28.9 C 41 % 14.33 C
3691 04-08-2019 19:30:00 28.8 C 44 % 15.33 C
3692 04-08-2019 19:35:00 28.5 C 43 % 14.71 C
3693 04-08-2019 19:40:00 28.2 C 49 % 16.47 C
3694 04-08-2019 19:45:00 27.8 C 46 % 15.12 C
3695 04-08-2019 19:50:00 27.6 C 48 % 15.6 C
3696 04-08-2019 19:55:00 27.3 C 48 % 15.33 C
3697 04-08-2019 20:00:00 27.1 C 48 % 15.15 C
3698 04-08-2019 20:05:00 26.8 C 48 % 14.87 C
3699 04-08-2019 20:10:00 26.7 C 51 % 15.72 C
3700 04-08-2019 20:15:00 26.6 C 50 % 15.32 C
Sensor: Nr:Datum:Temp:Feuchte:Taupunkt:
Aussen-T/F 3701 04-08-2019 20:20:00 26.3 C 51 % 15.36 C
3702 04-08-2019 20:25:00 26.1 C 51 % 15.17 C
3703 04-08-2019 20:30:00 25.8 C 52 % 15.2 C
3704 04-08-2019 20:35:00 25.5 C 53 % 15.22 C
3705 04-08-2019 20:40:00 25.1 C 53 % 14.85 C
3706 04-08-2019 20:45:00 24.8 C 55 % 15.15 C
3707 04-08-2019 20:50:00 24.4 C 55 % 14.78 C
3708 04-08-2019 20:55:00 24.2 C 56 % 14.87 C
3709 04-08-2019 21:00:00 23.8 C 56 % 14.5 C
3710 04-08-2019 21:05:00 23.5 C 57 % 14.49 C
3711 04-08-2019 21:10:00 23.2 C 58 % 14.48 C
3712 04-08-2019 21:15:00 22.9 C 59 % 14.47 C
3713 04-08-2019 21:20:00 22.6 C 60 % 14.44 C
3714 04-08-2019 21:25:00 22.4 C 61 % 14.51 C
3715 04-08-2019 21:30:00 22.2 C 61 % 14.32 C
3716 04-08-2019 21:35:00 22.1 C 61 % 14.23 C
3717 04-08-2019 21:40:00 22 C 62 % 14.39 C
3718 04-08-2019 21:45:00 21.9 C 62 % 14.29 C
3719 04-08-2019 21:50:00 21.8 C 63 % 14.45 C
3720 04-08-2019 21:55:00 21.8 C 64 % 14.69 C
3721 04-08-2019 22:00:00 21.8 C 64 % 14.69 C
3722 04-08-2019 22:05:00 21.7 C 64 % 14.6 C
3723 04-08-2019 22:10:00 21.8 C 64 % 14.69 C
3724 04-08-2019 22:15:00 21.8 C 63 % 14.45 C
3725 04-08-2019 22:20:00 21.8 C 63 % 14.45 C
Sensor: Nr:Datum:Temp:Feuchte:Taupunkt:
Aussen-T/F 3726 04-08-2019 22:25:00 22 C 63 % 14.63 C
3727 04-08-2019 22:30:00 22.1 C 64 % 14.97 C
3728 04-08-2019 22:35:00 22.1 C 63 % 14.73 C
3729 04-08-2019 22:40:00 22.1 C 64 % 14.97 C
3730 04-08-2019 22:45:00 22.1 C 64 % 14.97 C
3731 04-08-2019 22:50:00 22.1 C 64 % 14.97 C
3732 04-08-2019 22:55:00 22.1 C 64 % 14.97 C
3733 04-08-2019 23:00:00 22.1 C 64 % 14.97 C
3734 04-08-2019 23:05:00 22.1 C 63 % 14.73 C
3735 04-08-2019 23:10:00 22.2 C 63 % 14.82 C
3736 04-08-2019 23:15:00 22.3 C 63 % 14.92 C
3737 04-08-2019 23:20:00 22.3 C 62 % 14.67 C
3738 04-08-2019 23:25:00 22.3 C 61 % 14.42 C
3739 04-08-2019 23:30:00 22.4 C 61 % 14.51 C
3740 04-08-2019 23:35:00 22.4 C 60 % 14.26 C
3741 04-08-2019 23:40:00 22.5 C 60 % 14.35 C
3742 04-08-2019 23:45:00 22.6 C 59 % 14.18 C
3743 04-08-2019 23:50:00 22.7 C 60 % 14.54 C
3744 04-08-2019 23:55:00 22.8 C 59 % 14.37 C
3745 05-08-2019 00:00:00 22.8 C 59 % 14.37 C
3746 05-08-2019 00:05:00 22.9 C 58 % 14.2 C
3747 05-08-2019 00:10:00 22.9 C 57 % 13.93 C
3748 05-08-2019 00:15:00 22.9 C 58 % 14.2 C
3749 05-08-2019 00:20:00 23 C 57 % 14.03 C
3750 05-08-2019 00:25:00 23 C 58 % 14.29 C
Sensor: Nr:Datum:Temp:Feuchte:Taupunkt:
Aussen-T/F 3751 05-08-2019 00:30:00 22.9 C 57 % 13.93 C
3752 05-08-2019 00:35:00 22.9 C 56 % 13.66 C
3753 05-08-2019 00:40:00 22.9 C 57 % 13.93 C
3754 05-08-2019 00:45:00 22.8 C 59 % 14.37 C
3755 05-08-2019 00:50:00 22.8 C 58 % 14.11 C
3756 05-08-2019 00:55:00 22.7 C 60 % 14.54 C
3757 05-08-2019 01:00:00 22.6 C 60 % 14.44 C
3758 05-08-2019 01:05:00 22.3 C 61 % 14.42 C
3759 05-08-2019 01:10:00 22.1 C 61 % 14.23 C
3760 05-08-2019 01:15:00 21.9 C 62 % 14.29 C
3761 05-08-2019 01:20:00 21.8 C 62 % 14.2 C
3762 05-08-2019 01:25:00 21.7 C 62 % 14.1 C
3763 05-08-2019 01:30:00 21.6 C 63 % 14.26 C
3764 05-08-2019 01:35:00 21.4 C 63 % 14.07 C
3765 05-08-2019 01:40:00 21.3 C 63 % 13.97 C
3766 05-08-2019 01:45:00 21.2 C 64 % 14.12 C
3767 05-08-2019 01:50:00 21.1 C 64 % 14.03 C
3768 05-08-2019 01:55:00 20.9 C 64 % 13.84 C
3769 05-08-2019 02:00:00 20.8 C 64 % 13.74 C
3770 05-08-2019 02:05:00 20.7 C 65 % 13.89 C
3771 05-08-2019 02:10:00 20.6 C 66 % 14.03 C
3772 05-08-2019 02:15:00 20.4 C 66 % 13.84 C
3773 05-08-2019 02:20:00 20.3 C 67 % 13.97 C
3774 05-08-2019 02:25:00 20.3 C 67 % 13.97 C
3775 05-08-2019 02:30:00 20.2 C 67 % 13.88 C
Sensor: Nr:Datum:Temp:Feuchte:Taupunkt:
Aussen-T/F 3776 05-08-2019 02:35:00 20.2 C 68 % 14.11 C
3777 05-08-2019 02:40:00 20.1 C 68 % 14.01 C
3778 05-08-2019 02:45:00 20 C 68 % 13.92 C
3779 05-08-2019 02:50:00 19.9 C 68 % 13.82 C
3780 05-08-2019 02:55:00 19.9 C 68 % 13.82 C
3781 05-08-2019 03:00:00 19.8 C 68 % 13.73 C
3782 05-08-2019 03:05:00 19.8 C 69 % 13.95 C
3783 05-08-2019 03:10:00 19.8 C 69 % 13.95 C
3784 05-08-2019 03:15:00 19.7 C 69 % 13.86 C
3785 05-08-2019 03:20:00 19.7 C 70 % 14.08 C
3786 05-08-2019 03:25:00 19.6 C 69 % 13.76 C
3787 05-08-2019 03:30:00 19.6 C 70 % 13.98 C
3788 05-08-2019 03:35:00 19.5 C 70 % 13.89 C
3789 05-08-2019 03:40:00 19.4 C 70 % 13.79 C
3790 05-08-2019 03:45:00 19.4 C 71 % 14.01 C
3791 05-08-2019 03:50:00 19.4 C 70 % 13.79 C
3792 05-08-2019 03:55:00 19.5 C 71 % 14.1 C
3793 05-08-2019 04:00:00 19.6 C 73 % 14.63 C
3794 05-08-2019 04:05:00 19.6 C 74 % 14.84 C
3795 05-08-2019 04:10:00 19.6 C 76 % 15.26 C
3796 05-08-2019 04:15:00 19.5 C 76 % 15.16 C
3797 05-08-2019 04:20:00 19.3 C 76 % 14.97 C
3798 05-08-2019 04:25:00 19.3 C 75 % 14.76 C
3799 05-08-2019 04:30:00 19.2 C 77 % 15.07 C
3800 05-08-2019 04:35:00 19.2 C 77 % 15.07 C
Sensor: Nr:Datum:Temp:Feuchte:Taupunkt:
Aussen-T/F 3801 05-08-2019 04:40:00 19.1 C 76 % 14.77 C
3802 05-08-2019 04:45:00 19.1 C 76 % 14.77 C
3803 05-08-2019 04:50:00 19.1 C 76 % 14.77 C
3804 05-08-2019 04:55:00 19.2 C 77 % 15.07 C
3805 05-08-2019 05:00:00 19.3 C 78 % 15.37 C
3806 05-08-2019 05:05:00 19.3 C 78 % 15.37 C
3807 05-08-2019 05:10:00 19.3 C 77 % 15.17 C
3808 05-08-2019 05:15:00 19.3 C 77 % 15.17 C
3809 05-08-2019 05:20:00 19.3 C 77 % 15.17 C
3810 05-08-2019 05:25:00 19.3 C 77 % 15.17 C
3811 05-08-2019 05:30:00 19.2 C 76 % 14.87 C
3812 05-08-2019 05:35:00 19.3 C 76 % 14.97 C
3813 05-08-2019 05:40:00 19.4 C 77 % 15.27 C
3814 05-08-2019 05:45:00 19.5 C 80 % 15.96 C
3815 05-08-2019 05:50:00 19.4 C 81 % 16.06 C
3816 05-08-2019 05:55:00 19.3 C 82 % 16.15 C
3817 05-08-2019 06:00:00 19.1 C 83 % 16.15 C
3818 05-08-2019 06:05:00 18.8 C 84 % 16.04 C
3819 05-08-2019 06:10:00 18.6 C 85 % 16.03 C
3820 05-08-2019 06:15:00 18.4 C 86 % 16.02 C
3821 05-08-2019 06:20:00 18.3 C 86 % 15.92 C
3822 05-08-2019 06:25:00 18.2 C 87 % 16 C
3823 05-08-2019 06:30:00 18.2 C 88 % 16.18 C
3824 05-08-2019 06:35:00 18.1 C 89 % 16.26 C
3825 05-08-2019 06:40:00 18.1 C 89 % 16.26 C
Sensor: Nr:Datum:Temp:Feuchte:Taupunkt:
Aussen-T/F 3826 05-08-2019 06:45:00 17.9 C 90 % 16.24 C
3827 05-08-2019 06:50:00 17.9 C 90 % 16.24 C
3828 05-08-2019 06:55:00 17.8 C 91 % 16.31 C
3829 05-08-2019 07:00:00 17.8 C 91 % 16.31 C
3830 05-08-2019 07:05:00 17.7 C 91 % 16.21 C
3831 05-08-2019 07:10:00 17.7 C 92 % 16.38 C
3832 05-08-2019 07:15:00 17.6 C 92 % 16.28 C
3833 05-08-2019 07:20:00 17.6 C 92 % 16.28 C
3834 05-08-2019 07:25:00 17.6 C 92 % 16.28 C
3835 05-08-2019 07:30:00 17.6 C 93 % 16.45 C
3836 05-08-2019 07:35:00 17.5 C 93 % 16.36 C
3837 05-08-2019 07:40:00 17.4 C 93 % 16.26 C
3838 05-08-2019 07:45:00 17.3 C 93 % 16.16 C
3839 05-08-2019 07:50:00 17.3 C 93 % 16.16 C
3840 05-08-2019 07:55:00 17.3 C 93 % 16.16 C
3841 05-08-2019 08:00:00 17.3 C 94 % 16.33 C
3842 05-08-2019 08:05:00 17.3 C 94 % 16.33 C
3843 05-08-2019 08:10:00 17.4 C 94 % 16.42 C
3844 05-08-2019 08:15:00 17.4 C 94 % 16.42 C
3845 05-08-2019 08:20:00 17.6 C 94 % 16.62 C
3846 05-08-2019 08:25:00 17.6 C 94 % 16.62 C
3847 05-08-2019 08:30:00 17.6 C 95 % 16.79 C
3848 05-08-2019 08:35:00 17.8 C 95 % 16.99 C
3849 05-08-2019 08:40:00 17.8 C 95 % 16.99 C
3850 05-08-2019 08:45:00 17.9 C 95 % 17.09 C
Sensor: Nr:Datum:Temp:Feuchte:Taupunkt:
Aussen-T/F 3851 05-08-2019 08:50:00 17.9 C 95 % 17.09 C
3852 05-08-2019 08:55:00 18.1 C 95 % 17.29 C
3853 05-08-2019 09:00:00 18.1 C 95 % 17.29 C
3854 05-08-2019 09:05:00 18.2 C 95 % 17.39 C
3855 05-08-2019 09:10:00 18.3 C 95 % 17.48 C
3856 05-08-2019 09:15:00 18.5 C 95 % 17.68 C
3857 05-08-2019 09:20:00 18.7 C 96 % 18.05 C
3858 05-08-2019 09:25:00 18.8 C 95 % 17.98 C
3859 05-08-2019 09:30:00 18.8 C 95 % 17.98 C
3860 05-08-2019 09:35:00 18.9 C 95 % 18.08 C
3861 05-08-2019 09:40:00 19.1 C 95 % 18.28 C
3862 05-08-2019 09:45:00 19.2 C 95 % 18.38 C
3863 05-08-2019 09:50:00 19.2 C 94 % 18.21 C
3864 05-08-2019 09:55:00 19.2 C 94 % 18.21 C
3865 05-08-2019 10:00:00 19.4 C 94 % 18.41 C
3866 05-08-2019 10:05:00 19.6 C 94 % 18.61 C
3867 05-08-2019 10:10:00 19.7 C 94 % 18.71 C
3868 05-08-2019 10:15:00 19.8 C 93 % 18.63 C
3869 05-08-2019 10:20:00 19.9 C 94 % 18.91 C
3870 05-08-2019 10:25:00 20.1 C 94 % 19.1 C
3871 05-08-2019 10:30:00 20.4 C 94 % 19.4 C
3872 05-08-2019 10:35:00 20.4 C 93 % 19.23 C
3873 05-08-2019 10:40:00 20.3 C 91 % 18.78 C
3874 05-08-2019 10:45:00 20.4 C 91 % 18.88 C
3875 05-08-2019 10:50:00 20.4 C 89 % 18.53 C
Sensor: Nr:Datum:Temp:Feuchte:Taupunkt:
Aussen-T/F 3876 05-08-2019 10:55:00 20.6 C 90 % 18.9 C
3877